ftp/pub/palmer/observations_modified/2019/June/AR190428_BASE.txt

Download

Sample DateTime	Unit Id	WS Avg 2min	WD Avg 2min	WGS 10min	WGD 10min	Air Temp	Rel Humidity	Dew Point	Pyranometer	Quantum	Air Pressure	Snow Level	Rainfall	PW Current	Visibility	CBase 1	CBase 2	CBase 3	Vert Vis
2019/04/28 00:00:02	BASE	26.37	352	32.77	351	1.8	100	1.8	0	0	979.7	NA	0.0000	-SN	9000	390	0	0	0
2019/04/28 00:01:05	BASE	25.90	352	32.77	351	1.7	100	1.7	0	0	979.8	NA	0.0000	-SN	8000	390	0	0	0
2019/04/28 00:02:04	BASE	25.35	351	32.77	351	1.7	100	1.7	0	0	979.7	NA	0.0000	-SN BR	8000	430	0	0	0
2019/04/28 00:03:05	BASE	25.46	352	32.77	351	1.7	100	1.7	0	0	979.8	NA	0.0000	-SN BR	8000	430	0	0	0
2019/04/28 00:04:05	BASE	25.06	354	32.77	351	1.7	100	1.7	0	0	979.8	NA	0.0000	-SN BR	9999	590	0	0	0
2019/04/28 00:05:05	BASE	24.71	353	32.77	351	1.7	100	1.7	0	0	979.8	NA	0.0000	-SN BR	9999	460	0	0	0
2019/04/28 00:06:05	BASE	24.14	350	31.18	340	1.7	100	1.7	0	0	979.8	NA	0.0000	-SN BR	9999	460	0	0	0
2019/04/28 00:07:05	BASE	24.44	350	31.18	340	1.6	100	1.6	0	0	979.8	NA	0.0000	-SN BR	9999	430	0	0	0
2019/04/28 00:08:05	BASE	25.09	351	31.18	340	1.6	100	1.6	0	0	979.8	NA	0.0000	-SN	9999	430	0	0	0
2019/04/28 00:09:05	BASE	26.76	346	31.18	340	1.7	100	1.7	0	0	979.6	NA	0.0000	-SN	9999	430	0	0	0
2019/04/28 00:10:04	BASE	28.06	346	30.97	344	1.7	100	1.7	0	0	979.6	NA	0.2540	-SN	9999	430	0	0	0
2019/04/28 00:11:05	BASE	26.53	350	30.97	344	1.7	100	1.7	0	0	979.7	NA	0.0000	-SN	9999	460	0	0	0
2019/04/28 00:12:05	BASE	25.37	351	30.61	349	1.7	100	1.7	0	0	979.7	NA	0.0000	-SN	9999	460	0	0	0
2019/04/28 00:13:05	BASE	26.15	352	31.18	349	1.7	100	1.7	0	0	979.6	NA	0.0000	-SN	9999	460	0	0	0
2019/04/28 00:14:05	BASE	25.20	350	31.18	349	1.7	100	1.7	0	0	979.7	NA	0.0000	-SN	9999	490	0	0	0
2019/04/28 00:15:05	BASE	24.90	353	31.18	349	1.7	100	1.7	0	0	979.7	NA	0.0000	-SN	9999	590	0	0	0
2019/04/28 00:16:05	BASE	25.05	352	31.18	349	1.7	100	1.7	0	0	979.7	NA	0.0000	-SN	9999	790	0	0	0
2019/04/28 00:17:05	BASE	25.91	354	31.18	349	1.7	100	1.7	0	0	979.6	NA	0.0000	-SN	9999	790	0	0	0
2019/04/28 00:18:05	BASE	27.15	354	31.18	349	1.7	100	1.7	0	0	979.6	NA	0.0000	-SN	9999	430	0	0	0
2019/04/28 00:19:05	BASE	26.91	349	31.18	349	1.8	100	1.8	0	0	979.6	NA	0.0000	-SN	9999	850	0	0	0
2019/04/28 00:20:05	BASE	26.91	351	31.18	349	1.8	100	1.8	0	0	979.6	NA	0.0000	-SN	9999	430	0	0	0
2019/04/28 00:21:05	BASE	26.93	352	31.18	349	1.8	100	1.8	0	0	979.7	NA	0.0000	-SN	9999	460	0	0	0
2019/04/28 00:22:05	BASE	27.81	353	32.36	354	1.8	100	1.8	0	0	979.6	NA	0.0000	-SN	9999	430	0	0	0
2019/04/28 00:23:05	BASE	27.67	353	32.36	354	1.8	100	1.8	0	0	979.7	NA	0.0000	-SN	9999	430	0	0	0
2019/04/28 00:24:04	BASE	26.97	353	32.36	354	1.8	100	1.8	0	0	979.7	NA	0.2540	-SN	9999	620	0	0	0
2019/04/28 00:25:05	BASE	26.25	349	32.36	354	1.9	100	1.9	0	0	979.7	NA	0.0000	-SN	9999	660	0	0	0
2019/04/28 00:26:05	BASE	26.20	350	32.36	354	1.9	100	1.9	0	0	979.7	NA	0.0000	-SN	9999	660	0	0	0
2019/04/28 00:27:05	BASE	27.65	351	32.36	354	1.9	100	1.9	0	0	979.6	NA	0.0000	-SN	9999	660	0	0	0
2019/04/28 00:28:02	BASE	27.09	347	32.36	354	1.9	100	1.9	0	0	979.7	NA	0.0000	-SN	9999	690	0	0	0
2019/04/28 00:29:05	BASE	27.03	348	32.36	354	1.9	100	1.9	0	0	979.6	NA	0.0000	-SN	9999	720	0	0	0
2019/04/28 00:30:05	BASE	26.92	352	32.36	354	1.9	100	1.9	0	0	979.7	NA	0.0000	-SN	9999	690	0	0	0
2019/04/28 00:31:05	BASE	26.27	352	32.36	354	1.9	100	1.9	0	0	979.6	NA	0.0000	-SN	9000	690	0	0	0
2019/04/28 00:32:05	BASE	28.07	351	32.31	345	1.9	100	1.9	0	0	979.5	NA	0.0000	-SN	9000	660	0	0	0
2019/04/28 00:33:06	BASE	28.05	353	32.31	345	1.9	100	1.9	0	0	979.6	NA	0.0000	-SN	9999	590	0	0	0
2019/04/28 00:34:04	BASE	26.66	353	32.31	345	1.9	100	1.9	0	0	979.6	NA	0.0000	-SN	9999	590	0	0	0
2019/04/28 00:35:04	BASE	27.11	353	32.31	345	1.9	100	1.9	0	0	979.5	NA	0.0000	-SN	9000	620	0	0	0
2019/04/28 00:36:05	BASE	27.20	353	32.31	345	1.9	100	1.9	0	0	979.6	NA	0.2540	-SN	8000	560	0	0	0
2019/04/28 00:37:05	BASE	26.31	354	32.31	345	1.9	100	1.9	0	0	979.6	NA	0.0000	-SN	9000	590	0	0	0
2019/04/28 00:38:05	BASE	26.70	354	32.31	345	1.9	100	1.9	0	0	979.5	NA	0.0000	-SN	9999	560	0	0	0
2019/04/28 00:39:04	BASE	25.86	352	31.95	353	1.9	100	1.9	0	0	979.7	NA	0.0000	-SN BR	8000	590	0	0	0
2019/04/28 00:40:04	BASE	24.88	351	31.95	353	1.9	100	1.9	0	0	979.6	NA	0.0000	-SN BR	9000	590	0	0	0
2019/04/28 00:41:05	BASE	26.05	351	31.95	353	1.9	100	1.9	0	0	979.6	NA	0.0000	-SN BR	9999	690	0	0	0
2019/04/28 00:42:05	BASE	26.12	351	31.54	354	1.9	100	1.9	0	0	979.6	NA	0.0000	-SN	9999	820	0	0	0
2019/04/28 00:43:04	BASE	25.96	355	31.54	354	1.9	100	1.9	0	0	979.6	NA	0.0000	-SN	9999	620	0	0	0
2019/04/28 00:44:04	BASE	24.52	354	31.54	354	1.9	100	1.9	0	0	979.7	NA	0.0000	-SN	9999	750	0	0	0
2019/04/28 00:45:05	BASE	23.43	351	31.54	354	1.9	100	1.9	0	0	979.7	NA	0.0000	-SN	9999	720	0	0	0
2019/04/28 00:46:04	BASE	25.44	348	30.15	1	1.9	100	1.9	0	0	979.5	NA	0.0000	-SN	9999	890	0	0	0
2019/04/28 00:47:06	BASE	25.90	351	30.15	1	1.9	100	1.9	0	0	979.6	NA	0.0000	-SN	9999	820	0	0	0
2019/04/28 00:48:05	BASE	25.75	358	29.63	353	1.9	100	1.9	0	0	979.5	NA	0.2540	-SN	9999	790	0	0	0
2019/04/28 00:49:05	BASE	26.17	353	29.22	8	1.9	100	1.9	0	0	979.5	NA	0.0000	-SN	9999	750	0	0	0
2019/04/28 00:50:05	BASE	26.40	353	30.87	353	1.9	100	1.9	0	0	979.5	NA	0.0000	-SN	9999	820	0	0	0
2019/04/28 00:51:05	BASE	26.02	353	30.87	353	2.0	100	2.0	0	0	979.5	NA	0.0000	-SN	9999	850	0	0	0
2019/04/28 00:52:06	BASE	25.53	349	30.87	353	2.0	100	2.0	0	0	979.5	NA	0.0000	-SN	9999	850	0	0	0
2019/04/28 00:53:04	BASE	25.54	348	30.87	353	2.0	100	2.0	0	0	979.5	NA	0.0000	-SN	9999	820	0	0	0
2019/04/28 00:54:05	BASE	25.88	350	30.87	353	2.0	100	2.0	0	0	979.5	NA	0.0000	-SN	9999	890	0	0	0
2019/04/28 00:55:05	BASE	25.74	353	30.87	353	2.0	100	2.0	0	0	979.5	NA	0.0000	-SN	9999	850	0	0	0
2019/04/28 00:56:05	BASE	25.58	351	30.87	353	2.0	100	2.0	0	0	979.5	NA	0.0000	-SN	9999	890	0	0	0
2019/04/28 00:57:05	BASE	25.99	350	30.87	353	2.0	100	2.0	0	0	979.5	NA	0.0000	-SN	9999	820	0	0	0
2019/04/28 00:58:05	BASE	24.16	351	30.87	353	2.0	100	2.0	0	0	979.7	NA	0.0000	-SN	9999	820	0	0	0
2019/04/28 00:59:07	BASE	23.78	352	30.87	353	2.0	100	2.0	0	0	979.5	NA	0.0000	-SN	9999	820	0	0	0
2019/04/28 01:00:02	BASE	27.11	352	31.90	353	2.0	100	2.0	0	0	979.4	NA	0.0000	-SN	9999	820	0	0	0
2019/04/28 01:01:05	BASE	28.46	350	31.90	353	2.0	100	2.0	0	0	979.4	NA	0.0000	-SN	9999	790	0	0	0
2019/04/28 01:02:04	BASE	28.07	350	32.36	350	2.0	100	2.0	0	0	979.5	NA	0.0000	-SN	9999	590	0	0	0
2019/04/28 01:03:05	BASE	27.01	348	32.36	350	2.1	100	2.1	0	0	979.5	NA	0.0000	-SN	9999	430	0	0	0
2019/04/28 01:04:05	BASE	26.63	347	32.36	350	2.1	100	2.1	0	0	979.5	NA	0.2540	-SN	9999	390	0	0	0
2019/04/28 01:05:05	BASE	26.17	350	32.36	350	2.1	100	2.1	0	0	979.6	NA	0.0000	-SN	9999	390	0	0	0
2019/04/28 01:06:05	BASE	26.10	350	32.36	350	2.1	100	2.1	0	0	979.5	NA	0.0000	-SN	9999	360	0	0	0
2019/04/28 01:07:05	BASE	26.51	351	32.36	350	2.1	100	2.1	0	0	979.5	NA	0.0000	-SN	9999	360	0	0	0
2019/04/28 01:08:05	BASE	25.05	352	32.36	350	2.1	100	2.1	0	0	979.6	NA	0.0000	-SN	9999	390	0	0	0
2019/04/28 01:09:06	BASE	25.47	354	32.36	350	2.1	100	2.1	0	0	979.5	NA	0.0000		9999	390	0	0	0
2019/04/28 01:10:04	BASE	25.91	354	32.36	350	2.0	100	2.0	0	0	979.5	NA	0.0000		9999	390	0	0	0
2019/04/28 01:11:04	BASE	24.47	353	32.36	350	2.0	100	2.0	0	0	979.6	NA	0.0000	-SN	9999	390	0	0	0
2019/04/28 01:12:05	BASE	24.70	355	31.54	1	2.0	100	2.0	0	0	979.6	NA	0.0000	-SN	9999	390	0	0	0
2019/04/28 01:13:01	BASE	24.90	356	31.54	1	2.0	100	2.0	0	0	979.6	NA	0.0000	-SN	9999	390	0	0	0
2019/04/28 01:14:05	BASE	23.90	356	31.54	1	2.0	100	2.0	0	0	979.6	NA	0.0000	-SN	9999	360	0	0	0
2019/04/28 01:15:05	BASE	24.88	356	31.74	347	2.0	100	2.0	0	0	979.5	NA	0.0000	-SN	9999	390	0	0	0
2019/04/28 01:16:04	BASE	26.13	355	31.74	347	2.0	100	2.0	0	0	979.4	NA	0.0000	-SN	9999	390	0	0	0
2019/04/28 01:17:05	BASE	25.66	349	31.74	347	2.0	100	2.0	0	0	979.6	NA	0.0000	-SN	9999	390	0	0	0
2019/04/28 01:18:05	BASE	25.73	348	31.74	347	2.0	100	2.0	0	0	979.5	NA	0.0000	-SN	9999	390	0	0	0
2019/04/28 01:19:06	BASE	25.50	349	31.74	347	2.0	100	2.0	0	0	979.5	NA	0.0000	-SN	9999	390	0	0	0
2019/04/28 01:20:04	BASE	24.43	352	31.74	347	2.0	100	2.0	0	0	979.6	NA	0.2540	-SN	9999	360	0	0	0
2019/04/28 01:21:05	BASE	23.78	355	31.74	347	2.0	100	2.0	0	0	979.5	NA	0.0000		9999	360	0	0	0
2019/04/28 01:22:01	BASE	24.60	357	31.74	347	2.0	100	2.0	0	0	979.5	NA	0.0000		9999	390	0	0	0
2019/04/28 01:23:05	BASE	24.78	351	31.74	347	2.0	100	2.0	0	0	979.5	NA	0.0000		9999	390	0	0	0
2019/04/28 01:24:04	BASE	25.42	351	31.74	347	2.0	100	2.0	0	0	979.4	NA	0.0000		9999	390	0	0	0
2019/04/28 01:25:04	BASE	26.63	355	30.87	339	2.0	100	2.0	0	0	979.4	NA	0.0000		9999	390	0	0	0
2019/04/28 01:26:05	BASE	25.53	354	30.87	339	2.0	100	2.0	0	0	979.5	NA	0.0000		9999	390	0	0	0
2019/04/28 01:27:05	BASE	24.95	356	30.87	339	2.0	100	2.0	0	0	979.5	NA	0.0000		9999	360	0	0	0
2019/04/28 01:28:04	BASE	24.80	356	30.87	339	2.0	100	2.0	0	0	979.5	NA	0.0000		9999	360	0	0	0
2019/04/28 01:29:05	BASE	25.56	355	30.87	339	1.9	100	1.9	0	0	979.4	NA	0.0000		9999	360	0	0	0
2019/04/28 01:30:04	BASE	26.22	355	30.87	339	1.9	100	1.9	0	0	979.4	NA	0.0000	-SN	9999	360	0	0	0
2019/04/28 01:31:05	BASE	25.86	353	30.87	339	1.9	100	1.9	0	0	979.4	NA	0.0000	-SN	9999	360	0	0	0
2019/04/28 01:32:04	BASE	24.61	349	30.51	350	1.9	100	1.9	0	0	979.5	NA	0.0000	-SN	9999	660	0	0	0
2019/04/28 01:33:05	BASE	25.61	348	30.76	345	1.9	100	1.9	0	0	979.4	NA	0.2540	-SN	9999	590	0	0	0
2019/04/28 01:34:04	BASE	26.96	350	30.76	345	1.9	100	1.9	0	0	979.4	NA	0.0000	-SN	9999	390	0	0	0
2019/04/28 01:35:04	BASE	25.98	352	30.76	345	1.9	100	1.9	0	0	979.4	NA	0.0000	-SN	9999	390	0	0	0
2019/04/28 01:36:04	BASE	24.96	352	30.76	345	1.8	100	1.8	0	0	979.5	NA	0.0000	-SN	9999	430	0	0	0
2019/04/28 01:37:06	BASE	24.54	355	30.76	345	1.8	100	1.8	0	0	979.5	NA	0.0000	-SN	9999	390	0	0	0
2019/04/28 01:38:04	BASE	24.55	355	30.76	345	1.9	100	1.9	0	0	979.5	NA	0.0000	-SN	9999	390	0	0	0
2019/04/28 01:39:05	BASE	24.88	352	30.76	345	1.8	100	1.8	0	0	979.5	NA	0.0000	-SN	9999	390	0	0	0
2019/04/28 01:40:04	BASE	24.68	348	30.76	345	1.8	100	1.8	0	0	979.6	NA	0.0000	-SN	9999	560	0	0	0
2019/04/28 01:41:05	BASE	24.23	348	30.76	345	1.8	100	1.8	0	0	979.5	NA	0.2540	-SN	9999	360	0	0	0
2019/04/28 01:42:05	BASE	24.69	350	30.76	345	1.8	100	1.8	0	0	979.5	NA	0.0000	-SN	9999	360	0	0	0
2019/04/28 01:43:05	BASE	24.28	350	30.15	348	1.9	100	1.9	0	0	979.5	NA	0.0000	-SN	9999	360	0	0	0
2019/04/28 01:44:04	BASE	22.75	349	29.58	338	1.9	100	1.9	0	0	979.6	NA	0.0000	-SN	9999	360	0	0	0
2019/04/28 01:45:05	BASE	23.40	351	30.30	347	1.9	100	1.9	0	0	979.5	NA	0.0000	-SN	9999	360	0	0	0
2019/04/28 01:46:05	BASE	24.49	356	30.30	347	1.9	100	1.9	0	0	979.5	NA	0.0000	-SN	9999	330	0	0	0
2019/04/28 01:47:05	BASE	23.88	354	30.30	347	1.9	100	1.9	0	0	979.5	NA	0.0000	-SN	9999	330	0	0	0
2019/04/28 01:48:05	BASE	23.88	352	30.30	347	1.8	100	1.8	0	0	979.5	NA	0.0000	-SN	9999	330	0	0	0
2019/04/28 01:49:05	BASE	24.02	351	30.30	347	1.8	100	1.8	0	0	979.5	NA	0.0000	-SN	9999	330	0	0	0
2019/04/28 01:50:04	BASE	25.10	351	30.30	347	1.9	100	1.9	0	0	979.4	NA	0.0000	-SN	9999	360	0	0	0
2019/04/28 01:51:05	BASE	24.24	355	30.30	347	1.9	100	1.9	0	0	979.5	NA	0.0000	-SN	9999	360	0	0	0
2019/04/28 01:52:05	BASE	23.83	355	30.30	347	1.9	100	1.9	0	0	979.4	NA	0.0000	-SN	9999	390	0	0	0
2019/04/28 01:53:05	BASE	24.99	350	30.30	347	1.9	100	1.9	0	0	979.4	NA	0.2540	-SN	9999	390	0	0	0
2019/04/28 01:54:04	BASE	25.25	351	30.30	347	1.9	100	1.9	0	0	979.4	NA	0.0000	-SN	9999	360	0	0	0
2019/04/28 01:55:04	BASE	23.96	356	29.99	338	1.9	100	1.9	0	0	979.5	NA	0.0000	-SN	9999	330	0	0	0
2019/04/28 01:56:05	BASE	23.95	357	29.99	338	1.9	100	1.9	0	0	979.4	NA	0.0000		9999	330	0	0	0
2019/04/28 01:57:06	BASE	24.52	356	29.99	338	1.9	100	1.9	0	0	979.4	NA	0.0000		9999	300	0	0	0
2019/04/28 01:58:05	BASE	23.39	355	29.99	338	1.9	100	1.9	0	0	979.5	NA	0.0000	-SN	9999	330	0	0	0
2019/04/28 01:59:06	BASE	23.14	355	29.99	338	1.9	100	1.9	0	0	979.4	NA	0.0000	-SN	9999	330	0	0	0
2019/04/28 02:00:01	BASE	23.83	354	29.99	338	1.9	100	1.9	0	0	979.4	NA	0.0000	-SN	9999	330	0	0	0
2019/04/28 02:01:05	BASE	24.63	355	29.99	338	1.9	100	1.9	0	0	979.4	NA	0.0000	-SN	9999	330	0	0	0
2019/04/28 02:02:05	BASE	24.59	357	29.99	338	1.9	100	1.9	0	0	979.4	NA	0.0000	-SN	9999	330	0	0	0
2019/04/28 02:03:06	BASE	24.28	351	28.86	1	1.9	100	1.9	0	0	979.3	NA	0.2540	-SN	9999	360	0	0	0
2019/04/28 02:04:05	BASE	25.42	348	30.87	360	1.9	100	1.9	0	0	979.2	NA	0.0000	-SN	9999	360	0	0	0
2019/04/28 02:05:05	BASE	25.81	356	30.87	360	1.9	100	1.9	0	0	979.3	NA	0.0000	-SN	9999	360	0	0	0
2019/04/28 02:06:05	BASE	25.20	355	30.87	360	1.9	100	1.9	0	0	979.2	NA	0.0000	-SN	9999	360	0	0	0
2019/04/28 02:07:06	BASE	25.27	354	30.87	360	1.9	100	1.9	0	0	979.3	NA	0.0000	-SN	9999	330	0	0	0
2019/04/28 02:08:05	BASE	25.89	356	31.18	360	2.0	100	2.0	0	0	979.2	NA	0.0000	-SN	9999	300	0	0	0
2019/04/28 02:09:05	BASE	25.86	350	31.18	354	2.0	100	2.0	0	0	979.2	NA	0.0000	-SN	9999	300	0	0	0
2019/04/28 02:10:05	BASE	25.56	353	31.18	354	2.0	100	2.0	0	0	979.2	NA	0.0000	-SN	9999	330	0	0	0
2019/04/28 02:11:05	BASE	25.09	357	31.18	354	2.0	100	2.0	0	0	979.3	NA	0.0000	-SN	9999	300	0	0	0
2019/04/28 02:12:05	BASE	22.90	354	31.18	354	2.0	100	2.0	0	0	979.3	NA	0.0000	-SN	9999	260	0	0	0
2019/04/28 02:13:06	BASE	23.64	352	31.18	354	2.0	100	2.0	0	0	979.2	NA	0.2540	-SN	9999	260	1150	0	0
2019/04/28 02:14:05	BASE	25.44	354	31.18	354	2.0	100	2.0	0	0	979.2	NA	0.0000	-SN	9999	300	0	0	0
2019/04/28 02:15:05	BASE	24.90	359	31.18	354	2.0	100	2.0	0	0	979.2	NA	0.0000	-SN	9999	300	0	0	0
2019/04/28 02:16:05	BASE	24.89	359	31.18	354	2.0	100	2.0	0	0	979.2	NA	0.0000	-SN	9999	300	0	0	0
2019/04/28 02:17:06	BASE	26.11	360	31.18	354	2.0	100	2.0	0	0	979.1	NA	0.0000	-SN	9999	300	1210	0	0
2019/04/28 02:18:05	BASE	26.38	357	31.18	354	2.0	100	2.0	0	0	979.2	NA	0.0000	-SN	9999	300	0	0	0
2019/04/28 02:19:05	BASE	26.58	354	30.25	353	2.0	100	2.0	0	0	979.2	NA	0.0000	-SN	9999	300	0	0	0
2019/04/28 02:20:04	BASE	25.93	356	30.25	353	2.1	100	2.1	0	0	979.2	NA	0.0000	-SN	9999	260	0	0	0
2019/04/28 02:21:06	BASE	24.42	357	30.25	353	2.1	100	2.1	0	0	979.3	NA	0.0000	-SN	9999	300	0	0	0
2019/04/28 02:22:05	BASE	25.13	356	30.25	353	2.1	100	2.1	0	0	979.2	NA	0.0000	-SN	9999	300	1180	0	0
2019/04/28 02:23:01	BASE	25.47	357	30.25	353	2.1	100	2.1	0	0	979.1	NA	0.0000	-SN	9999	300	0	0	0
2019/04/28 02:24:04	BASE	25.66	359	29.94	5	2.1	100	2.1	0	0	979.2	NA	0.0000	-SN	9999	300	0	0	0
2019/04/28 02:25:06	BASE	25.70	0	29.94	5	2.1	100	2.1	0	0	979.2	NA	0.0000		9999	300	0	0	0
2019/04/28 02:26:05	BASE	24.67	359	29.94	5	2.1	100	2.1	0	0	979.3	NA	0.0000		9999	300	0	0	0
2019/04/28 02:27:05	BASE	24.79	353	30.92	352	2.1	100	2.1	0	0	979.2	NA	0.0000		9999	300	1210	0	0
2019/04/28 02:28:04	BASE	24.96	356	30.92	352	2.1	100	2.1	0	0	979.2	NA	0.0000		9999	300	0	0	0
2019/04/28 02:29:05	BASE	24.48	359	30.92	352	2.1	100	2.1	0	0	979.2	NA	0.0000		9999	330	0	0	0
2019/04/28 02:30:04	BASE	24.43	356	30.92	352	2.1	100	2.1	0	0	979.2	NA	0.0000		9999	330	0	0	0
2019/04/28 02:31:05	BASE	24.83	349	30.92	352	2.1	100	2.1	0	0	979.2	NA	0.0000		9999	330	0	0	0
2019/04/28 02:32:05	BASE	25.37	351	30.92	352	2.1	100	2.1	0	0	979.2	NA	0.0000		9999	330	1180	0	0
2019/04/28 02:33:05	BASE	25.15	0	30.92	352	2.1	100	2.1	0	0	979.3	NA	0.0000		9999	300	0	0	0
2019/04/28 02:34:05	BASE	24.14	357	30.92	352	2.1	100	2.1	0	0	979.3	NA	0.0000		9999	330	1150	0	0
2019/04/28 02:35:04	BASE	25.10	351	30.92	352	2.1	100	2.1	0	0	979.2	NA	0.0000		9999	330	0	0	0
2019/04/28 02:36:05	BASE	25.98	352	30.92	352	2.1	100	2.1	0	0	979.2	NA	0.0000		9999	330	0	0	0
2019/04/28 02:37:05	BASE	25.19	354	30.20	354	2.1	100	2.1	0	0	979.3	NA	0.0000		9999	330	0	0	0
2019/04/28 02:38:05	BASE	26.14	354	30.97	346	2.1	100	2.1	0	0	979.1	NA	0.0000		9999	330	0	0	0
2019/04/28 02:39:05	BASE	25.41	353	30.97	346	2.1	100	2.1	0	0	979.3	NA	0.0000		9999	330	0	0	0
2019/04/28 02:40:04	BASE	25.62	358	30.97	346	2.1	100	2.1	0	0	979.2	NA	0.0000		9999	360	0	0	0
2019/04/28 02:41:05	BASE	26.62	359	30.97	346	2.1	100	2.1	0	0	979.2	NA	0.0000		9999	330	0	0	0
2019/04/28 02:42:04	BASE	25.79	356	30.97	346	2.1	100	2.1	0	0	979.2	NA	0.0000		9999	330	0	0	0
2019/04/28 02:43:04	BASE	26.27	357	30.97	346	2.1	100	2.1	0	0	979.2	NA	0.0000		9999	300	0	0	0
2019/04/28 02:44:05	BASE	25.97	356	30.97	346	2.2	100	2.2	0	0	979.2	NA	0.0000		9999	300	0	0	0
2019/04/28 02:45:07	BASE	26.05	354	30.97	346	2.2	100	2.2	0	0	979.2	NA	0.0000		9999	330	0	0	0
2019/04/28 02:46:05	BASE	26.54	355	30.97	346	2.2	100	2.2	0	0	979.2	NA	0.0000	-SN	9999	330	0	0	0
2019/04/28 02:47:05	BASE	26.30	353	30.97	346	2.1	100	2.1	0	0	979.2	NA	0.0000	-SN	9999	300	0	0	0
2019/04/28 02:48:04	BASE	25.97	353	30.51	3	2.1	100	2.1	0	0	979.2	NA	0.0000	-SN	9999	300	0	0	0
2019/04/28 02:49:06	BASE	25.97	357	30.51	3	2.1	100	2.1	0	0	979.1	NA	0.0000	-SN	9999	300	0	0	0
2019/04/28 02:50:05	BASE	26.18	354	30.51	3	2.1	100	2.1	0	0	979.2	NA	0.0000	-SN	9999	300	0	0	0
2019/04/28 02:51:05	BASE	25.84	356	30.51	3	2.1	100	2.1	0	0	979.2	NA	0.0000		9999	300	0	0	0
2019/04/28 02:52:05	BASE	24.29	360	30.51	3	2.1	100	2.1	0	0	979.3	NA	0.0000		9999	330	0	0	0
2019/04/28 02:53:05	BASE	23.38	357	30.51	3	2.1	100	2.1	0	0	979.3	NA	0.0000		9999	330	0	0	0
2019/04/28 02:54:05	BASE	23.92	351	30.51	3	2.1	100	2.1	0	0	979.3	NA	0.0000		9999	300	0	0	0
2019/04/28 02:55:05	BASE	23.20	350	30.51	3	2.0	100	2.0	0	0	979.3	NA	0.0000		9999	260	0	0	0
2019/04/28 02:56:05	BASE	23.61	354	29.79	353	2.0	100	2.0	0	0	979.2	NA	0.0000		9999	260	0	0	0
2019/04/28 02:57:05	BASE	24.94	358	29.79	353	2.0	100	2.0	0	0	979.2	NA	0.0000		9999	300	0	0	0
2019/04/28 02:58:04	BASE	25.22	356	29.79	353	2.0	100	2.0	0	0	979.2	NA	0.0000		9999	300	0	0	0
2019/04/28 02:59:06	BASE	27.13	354	33.75	4	2.0	100	2.0	0	0	979.0	NA	0.0000		9999	300	0	0	0
2019/04/28 03:00:01	BASE	27.39	353	33.75	4	2.1	100	2.1	0	0	979.1	NA	0.2540		9999	300	0	0	0
2019/04/28 03:01:05	BASE	26.20	351	33.75	4	2.1	100	2.1	0	0	979.1	NA	0.0000		9999	300	0	0	0
2019/04/28 03:02:05	BASE	27.48	356	34.42	352	2.1	100	2.1	0	0	979.0	NA	0.0000		9999	260	0	0	0
2019/04/28 03:03:05	BASE	26.94	355	34.42	352	2.1	100	2.1	0	0	979.1	NA	0.0000	-SN	9999	260	0	0	0
2019/04/28 03:04:04	BASE	25.14	354	34.42	352	2.1	100	2.1	0	0	979.1	NA	0.0000	-SN	9000	300	0	0	0
2019/04/28 03:05:05	BASE	26.32	357	34.42	352	2.1	100	2.1	0	0	979.0	NA	0.0000	-SN	9000	300	0	0	0
2019/04/28 03:06:04	BASE	27.53	357	34.42	352	2.1	100	2.1	0	0	979.0	NA	0.0000	-SN	9000	300	0	0	0
2019/04/28 03:07:04	BASE	26.87	357	34.42	352	2.1	100	2.1	0	0	979.1	NA	0.0000	-SN	9999	300	0	0	0
2019/04/28 03:08:05	BASE	25.48	354	34.42	352	2.1	100	2.1	0	0	979.1	NA	0.0000	-SN	9999	300	0	0	0
2019/04/28 03:09:05	BASE	24.72	354	34.42	352	2.1	100	2.1	0	0	979.1	NA	0.0000	-SN	9999	260	0	0	0
2019/04/28 03:10:04	BASE	24.45	355	34.42	352	2.1	100	2.1	0	0	979.2	NA	0.0000	-SN	9999	230	0	0	0
2019/04/28 03:11:06	BASE	23.22	356	34.42	352	2.0	100	2.0	0	0	979.2	NA	0.0000	-SN	9999	300	0	0	0
2019/04/28 03:12:05	BASE	23.64	358	31.33	354	2.0	100	2.0	0	0	979.1	NA	0.0000	-SN	9999	300	0	0	0
2019/04/28 03:13:05	BASE	23.62	358	31.33	354	2.0	100	2.0	0	0	979.2	NA	0.0000	-SN	9999	300	0	0	0
2019/04/28 03:14:04	BASE	22.91	1	31.33	354	2.0	100	2.0	0	0	979.2	NA	0.0000	-SN	9999	300	0	0	0
2019/04/28 03:15:04	BASE	24.00	355	31.33	354	1.9	100	1.9	0	0	979.2	NA	0.0000	-SN	9999	300	0	0	0
2019/04/28 03:16:05	BASE	24.68	353	31.07	331	1.9	100	1.9	0	0	979.1	NA	0.0000	-SN	9999	330	0	0	0
2019/04/28 03:17:04	BASE	24.98	356	31.07	3	1.9	100	1.9	0	0	979.1	NA	0.0000	-SN	9999	330	0	0	0
2019/04/28 03:18:05	BASE	24.16	355	31.07	3	1.9	100	1.9	0	0	979.2	NA	0.0000	-SN	9999	330	0	0	0
2019/04/28 03:19:05	BASE	23.38	357	31.07	3	1.9	100	1.9	0	0	979.2	NA	0.0000	-SN	9999	330	0	0	0
2019/04/28 03:20:05	BASE	23.25	357	31.07	3	1.9	100	1.9	0	0	979.2	NA	0.0000	-SN	9999	360	0	0	0
2019/04/28 03:21:05	BASE	23.65	355	31.07	3	1.9	100	1.9	0	0	979.1	NA	0.2540	-SN	9999	360	0	0	0
2019/04/28 03:22:06	BASE	24.03	352	31.07	3	1.9	100	1.9	0	0	979.1	NA	0.0000	-SN	9999	360	0	0	0
2019/04/28 03:23:06	BASE	22.73	350	31.07	3	1.9	100	1.9	0	0	979.3	NA	0.0000	-SN	9999	360	0	0	0
2019/04/28 03:24:05	BASE	23.52	355	31.07	3	1.9	100	1.9	0	0	979.1	NA	0.0000	-SN	9999	330	0	0	0
2019/04/28 03:25:05	BASE	24.89	355	31.07	3	1.9	100	1.9	0	0	979.1	NA	0.0000	-SN	9999	330	0	0	0
2019/04/28 03:26:05	BASE	24.81	355	31.07	3	1.9	100	1.9	0	0	979.1	NA	0.0000	-SN	9999	330	0	0	0
2019/04/28 03:27:05	BASE	25.89	355	29.22	352	1.9	100	1.9	0	0	979.0	NA	0.0000	-SN	9999	330	0	0	0
2019/04/28 03:28:06	BASE	25.65	350	29.22	352	1.9	100	1.9	0	0	979.0	NA	0.0000	-SN	9999	300	0	0	0
2019/04/28 03:29:05	BASE	24.09	347	29.22	352	1.9	100	1.9	0	0	979.1	NA	0.0000	-SN	9999	300	0	0	0
2019/04/28 03:30:05	BASE	23.67	355	29.22	352	1.9	100	1.9	0	0	979.1	NA	0.0000	-SN	9999	300	0	0	0
2019/04/28 03:31:05	BASE	23.91	355	29.22	352	1.9	100	1.9	0	0	979.0	NA	0.0000	-SN	9999	330	0	0	0
2019/04/28 03:32:05	BASE	23.50	353	29.22	352	1.9	100	1.9	0	0	979.1	NA	0.0000	-SN	9999	300	0	0	0
2019/04/28 03:33:05	BASE	22.87	354	29.22	352	1.9	100	1.9	0	0	979.0	NA	0.0000	-SN	9999	330	0	0	0
2019/04/28 03:34:05	BASE	22.87	358	29.22	352	1.9	100	1.9	0	0	979.1	NA	0.0000	-SN	9999	330	0	0	0
2019/04/28 03:35:04	BASE	24.12	360	29.73	360	1.9	100	1.9	0	0	979.0	NA	0.0000	-SN	9999	330	0	0	0
2019/04/28 03:36:05	BASE	24.69	2	29.73	360	1.9	100	1.9	0	0	979.0	NA	0.0000	-SN	9999	330	0	0	0
2019/04/28 03:37:05	BASE	24.21	358	29.73	360	1.9	100	1.9	0	0	979.0	NA	0.0000	-SN	9999	330	0	0	0
2019/04/28 03:38:04	BASE	24.38	356	29.73	360	1.9	100	1.9	0	0	979.0	NA	0.2540	-SN	9999	330	0	0	0
2019/04/28 03:39:04	BASE	24.02	358	29.73	360	1.9	100	1.9	0	0	979.0	NA	0.0000		9999	330	0	0	0
2019/04/28 03:40:04	BASE	23.03	356	29.73	360	1.9	100	1.9	0	0	979.1	NA	0.0000		9999	330	0	0	0
2019/04/28 03:41:05	BASE	22.82	359	29.73	360	1.9	100	1.9	0	0	979.1	NA	0.0000		9999	360	0	0	0
2019/04/28 03:42:06	BASE	22.55	356	29.73	360	1.8	100	1.8	0	0	979.1	NA	0.0000		9999	330	0	0	0
2019/04/28 03:43:05	BASE	22.97	357	29.73	360	1.8	100	1.8	0	0	979.0	NA	0.0000		9999	300	0	0	0
2019/04/28 03:44:05	BASE	22.91	356	29.73	360	1.8	100	1.8	0	0	979.1	NA	0.0000		9999	300	0	0	0
2019/04/28 03:45:05	BASE	24.01	353	28.45	354	1.9	100	1.9	0	0	979.0	NA	0.0000	-SN	9999	330	0	0	0
2019/04/28 03:46:04	BASE	24.36	357	28.45	354	1.9	100	1.9	0	0	979.0	NA	0.0000	-SN	9999	300	0	0	0
2019/04/28 03:47:05	BASE	24.29	359	29.73	360	1.9	100	1.9	0	0	978.9	NA	0.0000	-SN	9999	260	0	0	0
2019/04/28 03:48:04	BASE	25.11	6	29.73	360	1.9	100	1.9	0	0	978.9	NA	0.0000		9999	300	0	0	0
2019/04/28 03:49:05	BASE	24.42	2	29.73	360	1.9	100	1.9	0	0	979.0	NA	0.0000		9999	260	0	0	0
2019/04/28 03:50:04	BASE	23.42	355	29.73	360	1.9	100	1.9	0	0	979.0	NA	0.0000		9999	300	0	0	0
2019/04/28 03:51:05	BASE	23.00	358	34.36	355	1.9	100	1.9	0	0	978.9	NA	0.0000		9999	300	0	0	0
2019/04/28 03:52:05	BASE	25.71	355	34.36	355	1.9	100	1.9	0	0	978.8	NA	0.0000		9999	300	0	0	0
2019/04/28 03:53:05	BASE	26.68	356	34.36	355	1.9	100	1.9	0	0	978.9	NA	0.0000	-SN	9999	300	0	0	0
2019/04/28 03:54:04	BASE	26.54	359	34.36	355	1.9	100	1.9	0	0	978.8	NA	0.0000	-SN	9999	300	0	0	0
2019/04/28 03:55:05	BASE	25.56	358	34.36	355	2.0	100	2.0	0	0	978.9	NA	0.0000		9999	330	0	0	0
2019/04/28 03:56:04	BASE	25.23	357	34.36	355	2.0	100	2.0	0	0	978.9	NA	0.0000		9999	330	0	0	0
2019/04/28 03:57:04	BASE	24.66	358	34.36	355	2.0	100	2.0	0	0	979.0	NA	0.0000		9999	300	0	0	0
2019/04/28 03:58:05	BASE	23.56	357	34.36	355	2.0	100	2.0	0	0	979.0	NA	0.0000		9999	260	0	0	0
2019/04/28 03:59:07	BASE	22.40	354	34.36	355	2.0	100	2.0	0	0	979.1	NA	0.0000		9999	260	0	0	0
2019/04/28 04:00:01	BASE	22.52	355	34.36	355	2.0	100	2.0	0	0	979.0	NA	0.0000		9999	260	0	0	0
2019/04/28 04:01:06	BASE	24.29	358	33.34	353	2.0	100	2.0	0	0	978.9	NA	0.0000		9999	260	0	0	0
2019/04/28 04:02:05	BASE	25.39	360	30.82	2	2.0	100	2.0	0	0	978.8	NA	0.0000		9999	300	0	0	0
2019/04/28 04:03:06	BASE	25.71	1	31.33	10	2.0	100	2.0	0	0	978.8	NA	0.0000		9999	260	0	0	0
2019/04/28 04:04:05	BASE	25.26	1	31.33	10	2.0	100	2.0	0	0	978.8	NA	0.0000		9999	300	0	0	0
2019/04/28 04:05:05	BASE	24.28	355	31.33	10	2.0	100	2.0	0	0	978.8	NA	0.0000		9999	300	0	0	0
2019/04/28 04:06:05	BASE	24.72	357	31.33	10	2.0	100	2.0	0	0	978.8	NA	0.0000		9999	300	0	0	0
2019/04/28 04:07:06	BASE	25.94	1	31.33	10	2.0	100	2.0	0	0	978.7	NA	0.0000		9999	300	0	0	0
2019/04/28 04:08:05	BASE	26.14	357	31.33	10	2.0	100	2.0	0	0	978.8	NA	0.0000		9999	300	0	0	0
2019/04/28 04:09:05	BASE	24.20	356	31.33	10	2.0	100	2.0	0	0	978.9	NA	0.0000		9999	300	0	0	0
2019/04/28 04:10:04	BASE	23.40	359	31.33	10	2.0	100	2.0	0	0	978.8	NA	0.0000		9999	300	0	0	0
2019/04/28 04:11:06	BASE	23.65	360	31.33	10	2.0	100	2.0	0	0	978.9	NA	0.0000	-SN	7000	260	0	0	0
2019/04/28 04:12:05	BASE	24.33	1	31.33	10	2.0	100	2.0	0	0	978.8	NA	0.0000	-SN	8000	300	0	0	0
2019/04/28 04:13:05	BASE	23.97	4	29.53	2	1.9	100	1.9	0	0	978.9	NA	0.0000	-SN	9999	300	0	0	0
2019/04/28 04:14:05	BASE	23.54	360	29.53	2	1.9	100	1.9	0	0	978.9	NA	0.0000	-SN	9999	330	0	0	0
2019/04/28 04:15:06	BASE	24.61	355	29.53	2	1.9	100	1.9	0	0	978.8	NA	0.0000	-SN	9999	330	0	0	0
2019/04/28 04:16:04	BASE	24.53	359	29.53	2	2.0	100	2.0	0	0	978.8	NA	0.0000	-SN	9999	300	0	0	0
2019/04/28 04:17:05	BASE	24.10	359	28.50	360	2.0	100	2.0	0	0	978.8	NA	0.0000	-SN	9999	300	0	0	0
2019/04/28 04:18:05	BASE	23.03	0	28.50	360	2.0	100	2.0	0	0	978.9	NA	0.0000	-SN	9999	260	0	0	0
2019/04/28 04:19:05	BASE	22.71	0	28.50	360	2.0	100	2.0	0	0	978.9	NA	0.2540	-SN	9999	260	0	0	0
2019/04/28 04:20:04	BASE	23.80	358	28.60	325	2.0	100	2.0	0	0	978.8	NA	0.0000	-SN	9999	260	0	0	0
2019/04/28 04:21:06	BASE	24.56	356	28.60	325	2.0	100	2.0	0	0	978.9	NA	0.0000	-SN	9999	300	0	0	0
2019/04/28 04:22:04	BASE	25.09	353	29.58	341	2.0	100	2.0	0	0	978.8	NA	0.0000	-SN	9999	330	0	0	0
2019/04/28 04:23:06	BASE	24.89	351	29.58	341	2.0	100	2.0	0	0	978.9	NA	0.0000	-SN	9999	330	0	0	0
2019/04/28 04:24:05	BASE	24.50	354	29.58	341	2.0	100	2.0	0	0	978.9	NA	0.0000	-SN	9999	360	0	0	0
2019/04/28 04:25:05	BASE	24.98	353	29.58	341	2.0	100	2.0	0	0	978.9	NA	0.0000	-SN	9999	360	0	0	0
2019/04/28 04:26:05	BASE	24.03	348	29.58	341	2.0	100	2.0	0	0	978.9	NA	0.0000	-SN	9999	360	0	0	0
2019/04/28 04:27:05	BASE	22.58	352	29.58	341	2.0	100	2.0	0	0	979.0	NA	0.0000	-SN	9999	360	0	0	0
2019/04/28 04:28:04	BASE	21.82	354	29.58	341	2.0	100	2.0	0	0	979.0	NA	0.0000	-SN	9999	360	0	0	0
2019/04/28 04:29:05	BASE	21.31	349	29.58	341	1.9	100	1.9	0	0	979.0	NA	0.0000	-SN	9999	390	0	0	0
2019/04/28 04:30:06	BASE	22.40	356	29.58	341	1.9	100	1.9	0	0	978.9	NA	0.0000	-SN	9999	390	0	0	0
2019/04/28 04:31:05	BASE	25.16	360	30.51	347	1.9	100	1.9	0	0	978.8	NA	0.0000	-SN	9999	430	0	0	0
2019/04/28 04:32:05	BASE	24.31	355	30.51	347	1.9	100	1.9	0	0	979.0	NA	0.0000	-SN	9999	390	0	0	0
2019/04/28 04:33:05	BASE	21.19	357	30.51	347	1.9	100	1.9	0	0	979.0	NA	0.0000	-SN	9999	360	0	0	0
2019/04/28 04:34:05	BASE	20.74	357	30.51	347	1.9	100	1.9	0	0	979.0	NA	0.0000	-SN	9999	360	0	0	0
2019/04/28 04:35:05	BASE	20.70	356	30.51	347	1.9	100	1.9	0	0	979.0	NA	0.0000	-SN	9999	300	0	0	0
2019/04/28 04:36:05	BASE	21.06	357	30.51	347	1.9	100	1.9	0	0	979.0	NA	0.0000	-SN	9999	300	0	0	0
2019/04/28 04:37:04	BASE	21.99	356	30.51	347	1.9	100	1.9	0	0	979.0	NA	0.0000	-SN	9999	300	0	0	0
2019/04/28 04:38:04	BASE	23.39	350	30.51	347	1.9	100	1.9	0	0	979.0	NA	0.2540	-SN	9999	300	0	0	0
2019/04/28 04:39:05	BASE	23.73	352	30.51	347	1.9	100	1.9	0	0	979.0	NA	0.0000	-SN	9999	330	0	0	0
2019/04/28 04:40:04	BASE	22.71	354	30.51	347	2.0	100	2.0	0	0	979.1	NA	0.0000	-SN	9999	300	0	0	0
2019/04/28 04:41:05	BASE	21.93	352	28.04	360	2.0	100	2.0	0	0	979.1	NA	0.0000	-SN	9999	300	0	0	0
2019/04/28 04:42:05	BASE	23.05	355	28.04	360	2.0	100	2.0	0	0	979.0	NA	0.0000	-SN	9999	330	0	0	0
2019/04/28 04:43:05	BASE	23.61	356	28.04	360	2.0	100	2.0	0	0	979.0	NA	0.0000	-SN	9999	300	0	0	0
2019/04/28 04:44:04	BASE	23.57	356	28.04	360	2.0	100	2.0	0	0	979.1	NA	0.0000	-SN	9999	300	0	0	0
2019/04/28 04:45:04	BASE	22.90	355	28.04	360	1.9	100	1.9	0	0	979.1	NA	0.0000	-SN	9999	260	0	0	0
2019/04/28 04:46:05	BASE	22.13	348	28.04	360	1.9	100	1.9	0	0	979.1	NA	0.0000	-SN	9999	260	0	0	0
2019/04/28 04:47:05	BASE	22.75	352	28.04	360	1.9	100	1.9	0	0	979.1	NA	0.0000	-SN	9999	360	0	0	0
2019/04/28 04:48:04	BASE	24.63	359	27.88	350	1.9	100	1.9	0	0	979.0	NA	0.0000	-SN	9999	360	0	0	0
2019/04/28 04:49:04	BASE	24.86	357	27.88	350	1.9	100	1.9	0	0	979.1	NA	0.0000	-SN	9999	360	0	0	0
2019/04/28 04:50:04	BASE	23.52	355	27.88	350	1.9	100	1.9	0	0	979.1	NA	0.0000	-SN	9999	330	0	0	0
2019/04/28 04:51:05	BASE	22.32	355	27.88	350	2.0	100	2.0	0	0	979.2	NA	0.0000	-SN	9999	300	0	0	0
2019/04/28 04:52:04	BASE	23.37	356	28.50	2	2.0	100	2.0	0	0	979.0	NA	0.0000	-SN	9999	330	0	0	0
2019/04/28 04:53:05	BASE	24.09	355	28.50	2	2.0	100	2.0	0	0	979.2	NA	0.0000	-SN	9999	300	0	0	0
2019/04/28 04:54:04	BASE	23.87	354	28.50	2	2.0	100	2.0	0	0	979.1	NA	0.2540	-SN	9999	300	0	0	0
2019/04/28 04:55:05	BASE	25.81	349	31.48	336	2.0	100	2.0	0	0	978.9	NA	0.0000	-SN	9999	260	0	0	0
2019/04/28 04:56:04	BASE	25.86	351	31.48	336	2.0	100	2.0	0	0	979.0	NA	0.0000	-SN	9999	260	0	0	0
2019/04/28 04:57:05	BASE	25.37	354	31.48	336	2.1	100	2.1	0	0	979.0	NA	0.0000	-SN	9999	260	0	0	0
2019/04/28 04:58:04	BASE	26.22	351	31.48	336	2.1	100	2.1	0	0	979.0	NA	0.0000	-SN	9999	260	0	0	0
2019/04/28 04:59:05	BASE	25.19	354	31.48	336	2.1	100	2.1	0	0	979.1	NA	0.0000	-SN	9999	260	0	0	0
2019/04/28 05:00:01	BASE	24.76	358	31.48	336	2.1	100	2.1	0	0	979.1	NA	0.0000	-SN	9999	260	0	0	0
2019/04/28 05:01:05	BASE	26.27	357	31.74	360	2.1	100	2.1	0	0	979.0	NA	0.0000	-SN	9999	300	0	0	0
2019/04/28 05:02:05	BASE	27.59	358	31.74	360	2.1	100	2.1	0	0	979.0	NA	0.0000	-SN	9999	260	0	0	0
2019/04/28 05:03:05	BASE	26.74	0	31.74	360	2.1	100	2.1	0	0	979.1	NA	0.0000	-SN	9999	260	0	0	0
2019/04/28 05:04:04	BASE	25.28	4	31.74	360	2.1	100	2.1	0	0	979.2	NA	0.0000	-SN	9999	300	0	0	0
2019/04/28 05:05:04	BASE	25.70	358	31.74	360	2.1	100	2.1	0	0	979.1	NA	0.0000	-SN	9999	300	0	0	0
2019/04/28 05:06:05	BASE	26.28	351	31.74	360	2.1	100	2.1	0	0	979.1	NA	0.0000	-SN	9999	300	0	0	0
2019/04/28 05:07:06	BASE	24.82	355	31.74	360	2.1	100	2.1	0	0	979.2	NA	0.0000	-SN	9999	300	0	0	0
2019/04/28 05:08:05	BASE	24.37	349	31.74	360	2.1	100	2.1	0	0	979.2	NA	0.0000	-SN	9999	300	0	0	0
2019/04/28 05:09:05	BASE	24.70	348	31.74	360	2.1	100	2.1	0	0	979.2	NA	0.0000	-SN	9999	300	0	0	0
2019/04/28 05:10:04	BASE	25.86	355	31.74	360	2.1	100	2.1	0	0	979.1	NA	0.0000	-SN	9999	300	0	0	0
2019/04/28 05:11:06	BASE	26.34	357	31.38	1	2.1	100	2.1	0	0	979.2	NA	0.0000	-SN	9999	300	0	0	0
2019/04/28 05:12:04	BASE	25.55	357	30.04	5	2.1	100	2.1	0	0	979.3	NA	0.0000	-SN	9999	300	0	0	0
2019/04/28 05:13:05	BASE	27.17	356	31.12	5	2.1	100	2.1	0	0	979.2	NA	0.0000	-SN	9999	260	0	0	0
2019/04/28 05:14:04	BASE	27.33	352	31.12	5	2.1	100	2.1	0	0	979.2	NA	0.0000	-SN	9999	300	0	0	0
2019/04/28 05:15:05	BASE	26.74	348	31.12	5	2.1	100	2.1	0	0	979.3	NA	0.0000	-SN	9999	300	0	0	0
2019/04/28 05:16:05	BASE	26.75	350	31.12	5	2.1	100	2.1	0	0	979.3	NA	0.0000	-SN	9999	330	0	0	0
2019/04/28 05:17:05	BASE	25.48	353	31.12	5	2.1	100	2.1	0	0	979.4	NA	0.0000	-SN	9999	300	0	0	0
2019/04/28 05:18:05	BASE	25.95	352	31.12	5	2.1	100	2.1	0	0	979.3	NA	0.0000	-SN	9999	300	0	0	0
2019/04/28 05:19:05	BASE	26.46	355	31.12	5	2.1	100	2.1	0	0	979.4	NA	0.0000	-SN	9999	300	0	0	0
2019/04/28 05:20:04	BASE	26.05	356	31.12	5	2.1	100	2.1	0	0	979.4	NA	0.0000	-SN	9999	330	0	0	0
2019/04/28 05:21:04	BASE	25.00	353	31.12	5	2.1	100	2.1	0	0	979.5	NA	0.0000	-SN	9999	330	0	0	0
2019/04/28 05:22:04	BASE	23.57	356	31.12	5	2.1	100	2.1	0	0	979.6	NA	0.0000	-SN	9999	300	0	0	0
2019/04/28 05:23:05	BASE	24.20	357	30.56	1	2.0	100	2.0	0	0	979.5	NA	0.0000	-SN	9999	260	0	0	0
2019/04/28 05:24:04	BASE	23.71	357	30.56	1	2.0	100	2.0	0	0	979.6	NA	0.0000	-SN	9999	300	0	0	0
2019/04/28 05:25:04	BASE	22.75	355	30.30	349	2.0	100	2.0	0	0	979.6	NA	0.0000	-SN	9999	300	0	0	0
2019/04/28 05:26:05	BASE	23.37	354	30.30	349	2.0	100	2.0	0	0	979.6	NA	0.0000	-SN	9999	300	0	0	0
2019/04/28 05:27:05	BASE	24.60	356	30.30	349	2.0	100	2.0	0	0	979.6	NA	0.0000	-SN	9999	300	0	0	0
2019/04/28 05:28:05	BASE	24.88	354	29.99	354	2.0	100	2.0	0	0	979.7	NA	0.0000		9999	260	0	0	0
2019/04/28 05:29:04	BASE	24.98	356	29.99	354	2.0	100	2.0	0	0	979.6	NA	0.0000		9999	260	0	0	0
2019/04/28 05:30:05	BASE	24.34	354	29.43	354	2.0	100	2.0	0	0	979.7	NA	0.0000		9999	230	0	0	0
2019/04/28 05:31:05	BASE	23.97	356	29.43	354	2.0	100	2.0	0	0	979.6	NA	0.0000		9999	260	0	0	0
2019/04/28 05:32:05	BASE	23.59	359	29.43	354	2.0	100	2.0	0	0	979.7	NA	0.0000		9999	260	0	0	0
2019/04/28 05:33:04	BASE	23.54	358	29.43	354	2.0	100	2.0	0	0	979.7	NA	0.0000		9999	260	0	0	0
2019/04/28 05:34:05	BASE	24.71	356	29.43	354	2.0	100	2.0	0	0	979.7	NA	0.0000		9999	260	0	0	0
2019/04/28 05:35:05	BASE	24.60	352	29.43	354	2.0	100	2.0	0	0	979.7	NA	0.0000		9999	260	0	0	0
2019/04/28 05:36:04	BASE	23.92	351	29.43	354	2.0	100	2.0	0	0	979.7	NA	0.0000		9999	260	0	0	0
2019/04/28 05:37:04	BASE	23.45	356	29.43	354	2.0	100	2.0	0	0	979.8	NA	0.0000		9999	260	0	0	0
2019/04/28 05:38:04	BASE	23.82	354	29.17	353	2.0	100	2.0	0	0	979.7	NA	0.0000		9999	300	0	0	0
2019/04/28 05:39:05	BASE	23.46	350	28.71	1	2.0	100	2.0	0	0	979.8	NA	0.0000		9999	300	0	0	0
2019/04/28 05:40:04	BASE	22.32	353	28.71	1	2.0	100	2.0	0	0	979.9	NA	0.0000		9999	260	0	0	0
2019/04/28 05:41:05	BASE	21.78	354	28.50	354	2.0	100	2.0	0	0	979.9	NA	0.0000		9999	230	0	0	0
2019/04/28 05:42:05	BASE	21.09	352	28.50	354	2.0	100	2.0	0	0	980.0	NA	0.0000		9999	230	0	0	0
2019/04/28 05:43:05	BASE	21.71	351	28.50	349	2.0	100	2.0	0	0	979.9	NA	0.0000		9999	260	0	0	0
2019/04/28 05:44:05	BASE	21.91	350	28.50	349	2.0	100	2.0	0	0	980.0	NA	0.0000		9999	260	0	0	0
2019/04/28 05:45:04	BASE	21.80	348	28.50	349	2.0	100	2.0	0	0	979.9	NA	0.0000		9999	260	0	0	0
2019/04/28 05:46:04	BASE	23.43	350	28.50	349	2.0	100	2.0	0	0	979.9	NA	0.2540		9999	300	0	0	0
2019/04/28 05:47:05	BASE	22.40	350	28.50	349	2.0	100	2.0	0	0	980.1	NA	0.0000		9999	260	0	0	0
2019/04/28 05:48:05	BASE	21.00	352	28.50	349	2.0	100	2.0	0	0	980.1	NA	0.0000		9999	300	0	0	0
2019/04/28 05:49:05	BASE	22.38	353	28.50	349	2.0	100	2.0	0	0	980.0	NA	0.0000		9999	260	0	0	0
2019/04/28 05:50:04	BASE	23.51	350	28.50	349	2.0	100	2.0	0	0	980.0	NA	0.0000		9999	260	0	0	0
2019/04/28 05:51:06	BASE	22.61	346	28.50	349	2.0	100	2.0	0	0	980.1	NA	0.0000		9999	230	0	0	0
2019/04/28 05:52:01	BASE	21.52	348	28.50	349	2.0	100	2.0	0	0	980.1	NA	0.0000		9999	230	0	0	0
2019/04/28 05:53:04	BASE	21.81	351	28.40	352	2.0	100	2.0	0	0	980.1	NA	0.0000		9999	230	0	0	0
2019/04/28 05:54:05	BASE	21.74	353	28.40	352	2.0	100	2.0	0	0	980.1	NA	0.0000		9999	200	0	0	0
2019/04/28 05:55:04	BASE	20.99	352	28.40	352	2.0	100	2.0	0	0	980.2	NA	0.0000		9999	0	0	0	820
2019/04/28 05:56:04	BASE	21.87	348	26.80	360	2.0	100	2.0	0	0	980.2	NA	0.0000		9999	200	0	0	0
2019/04/28 05:57:05	BASE	22.81	346	28.40	347	2.0	100	2.0	0	0	980.1	NA	0.0000		9999	0	0	0	790
2019/04/28 05:58:04	BASE	21.59	351	28.40	347	2.0	100	2.0	0	0	980.1	NA	0.0000		9999	200	0	0	0
2019/04/28 05:59:06	BASE	20.58	353	28.40	347	2.0	100	2.0	0	0	980.2	NA	0.0000		9999	230	0	0	0
2019/04/28 06:00:02	BASE	21.33	352	28.40	347	2.0	100	2.0	0	0	980.1	NA	0.0000		9999	300	0	0	0
2019/04/28 06:01:04	BASE	21.93	355	28.40	347	2.0	100	2.0	0	0	980.1	NA	0.0000		9999	330	0	0	0
2019/04/28 06:02:04	BASE	21.43	355	28.40	347	2.0	100	2.0	0	0	980.2	NA	0.0000		9999	330	0	0	0
2019/04/28 06:03:05	BASE	21.27	353	28.40	347	2.0	100	2.0	0	0	980.2	NA	0.0000		9999	330	0	0	0
2019/04/28 06:04:04	BASE	22.23	355	28.40	347	2.0	100	2.0	0	0	980.1	NA	0.0000		9999	360	0	0	0
2019/04/28 06:05:04	BASE	23.07	354	28.40	347	2.0	100	2.0	0	0	980.2	NA	0.0000		9999	360	0	0	0
2019/04/28 06:06:04	BASE	23.34	354	28.40	347	2.0	100	2.0	0	0	980.2	NA	0.0000		9999	390	0	0	0
2019/04/28 06:07:05	BASE	23.38	352	26.29	336	2.0	100	2.0	0	0	980.2	NA	0.0000		9999	330	0	0	0
2019/04/28 06:08:04	BASE	22.20	351	26.29	336	2.1	100	2.1	0	0	980.3	NA	0.0000		9999	330	0	0	0
2019/04/28 06:09:04	BASE	20.88	349	26.29	336	2.1	100	2.1	0	0	980.4	NA	0.0000		9999	300	0	0	0
2019/04/28 06:10:04	BASE	21.09	352	26.29	336	2.1	100	2.1	0	0	980.3	NA	0.0000		9999	300	0	0	0
2019/04/28 06:11:05	BASE	20.71	351	26.29	336	2.0	100	2.0	0	0	980.4	NA	0.0000		9999	260	0	0	0
2019/04/28 06:12:06	BASE	21.14	349	26.29	336	2.0	100	2.0	0	0	980.4	NA	0.0000		9999	300	0	0	0
2019/04/28 06:13:05	BASE	21.98	351	26.29	336	2.0	100	2.0	0	0	980.4	NA	0.0000		9999	260	0	0	0
2019/04/28 06:14:05	BASE	21.38	352	26.29	336	2.0	100	2.0	0	0	980.4	NA	0.0000		9999	260	0	0	0
2019/04/28 06:15:04	BASE	20.75	355	26.29	336	2.0	100	2.0	0	0	980.4	NA	0.0000		9999	300	0	0	0
2019/04/28 06:16:05	BASE	21.74	354	26.39	346	2.0	100	2.0	0	0	980.4	NA	0.0000		9999	230	0	0	0
2019/04/28 06:17:04	BASE	21.80	354	26.39	346	2.0	100	2.0	0	0	980.4	NA	0.0000		9999	260	0	0	0
2019/04/28 06:18:04	BASE	20.45	355	26.39	346	2.0	100	2.0	0	0	980.5	NA	0.0000		9999	260	0	0	0
2019/04/28 06:19:06	BASE	19.23	357	26.39	346	2.0	100	2.0	0	0	980.5	NA	0.0000		9999	260	0	0	0
2019/04/28 06:20:04	BASE	20.25	356	26.39	346	2.0	100	2.0	0	0	980.5	NA	0.0000		9999	260	0	0	0
2019/04/28 06:21:05	BASE	21.12	352	26.39	346	2.0	100	2.0	0	0	980.5	NA	0.0000		9999	260	0	0	0
2019/04/28 06:22:05	BASE	21.56	351	26.39	346	2.0	100	2.0	0	0	980.5	NA	0.0000		9999	260	0	0	0
2019/04/28 06:23:05	BASE	21.41	350	26.39	346	2.0	100	2.0	0	0	980.5	NA	0.0000		9999	230	0	0	0
2019/04/28 06:24:05	BASE	20.24	353	26.39	346	2.0	100	2.0	0	0	980.5	NA	0.0000		9999	260	0	0	0
2019/04/28 06:25:04	BASE	20.52	354	26.39	346	2.0	100	2.0	0	0	980.4	NA	0.0000		9999	300	0	0	0
2019/04/28 06:26:04	BASE	21.08	356	25.72	355	2.0	100	2.0	0	0	980.3	NA	0.0000		9999	300	0	0	0
2019/04/28 06:27:05	BASE	22.13	360	25.72	355	2.0	100	2.0	0	0	980.2	NA	0.0000		9999	260	0	0	0
2019/04/28 06:28:05	BASE	23.20	359	25.72	355	2.0	100	2.0	0	0	980.1	NA	0.0000		9999	260	0	0	0
2019/04/28 06:29:04	BASE	23.19	357	27.01	1	2.1	100	2.1	0	0	980.1	NA	0.0000		9999	260	0	0	0
2019/04/28 06:30:05	BASE	22.99	359	27.01	1	2.1	100	2.1	0	0	980.1	NA	0.0000		9999	260	0	0	0
2019/04/28 06:31:04	BASE	22.55	359	27.01	1	2.1	100	2.1	0	0	980.1	NA	0.0000		9999	300	0	0	0
2019/04/28 06:32:05	BASE	20.66	354	27.01	1	2.2	100	2.2	0	0	980.3	NA	0.0000		9999	330	0	0	0
2019/04/28 06:33:05	BASE	18.76	351	27.01	1	2.2	100	2.2	0	0	980.3	NA	0.0000		9999	360	0	0	0
2019/04/28 06:34:04	BASE	19.07	351	27.01	1	2.2	100	2.2	0	0	980.3	NA	0.0000		9999	390	0	0	0
2019/04/28 06:35:05	BASE	19.29	351	27.01	1	2.2	100	2.2	0	0	980.3	NA	0.0000		9999	390	0	0	0
2019/04/28 06:36:04	BASE	18.85	352	27.01	1	2.2	100	2.2	0	0	980.3	NA	0.0000		9999	430	2230	0	0
2019/04/28 06:37:05	BASE	18.50	353	27.01	1	2.1	100	2.1	0	0	980.3	NA	0.0000		9999	560	0	0	0
2019/04/28 06:38:04	BASE	18.11	358	27.01	1	2.1	100	2.1	0	0	980.3	NA	0.0000		9999	660	2070	0	0
2019/04/28 06:39:04	BASE	17.53	357	24.69	2	2.1	100	2.1	0	0	980.3	NA	0.0000		9999	720	0	0	0
2019/04/28 06:40:04	BASE	17.23	352	24.08	2	2.1	100	2.1	0	0	980.3	NA	0.0000		9999	690	0	0	0
2019/04/28 06:41:04	BASE	18.27	354	22.38	349	2.0	100	2.0	0	0	980.3	NA	0.0000		9999	660	0	0	0
2019/04/28 06:42:05	BASE	18.57	353	22.38	349	2.0	100	2.0	0	0	980.4	NA	0.0000		9999	390	0	0	0
2019/04/28 06:43:05	BASE	17.51	356	22.33	352	2.0	100	2.0	0	0	980.4	NA	0.0000		9999	430	0	0	0
2019/04/28 06:44:04	BASE	17.15	359	22.33	352	2.0	100	2.0	0	0	980.4	NA	0.0000		9999	360	0	0	0
2019/04/28 06:45:05	BASE	17.85	353	22.33	352	2.0	100	2.0	0	0	980.4	NA	0.0000		9999	390	0	0	0
2019/04/28 06:46:05	BASE	17.83	351	22.33	352	2.0	100	2.0	0	0	980.4	NA	0.0000		9999	360	0	0	0
2019/04/28 06:47:05	BASE	17.04	352	22.33	352	2.0	100	2.0	0	0	980.4	NA	0.0000		9999	390	0	0	0
2019/04/28 06:48:05	BASE	15.85	350	22.17	20	2.0	100	2.0	0	0	980.5	NA	0.0000		9999	360	0	0	0
2019/04/28 06:49:05	BASE	15.34	348	22.17	20	2.0	100	2.0	0	0	980.5	NA	0.0000		9999	360	0	0	0
2019/04/28 06:50:04	BASE	15.93	345	22.17	20	2.0	100	2.0	0	0	980.5	NA	0.0000		9999	330	0	0	0
2019/04/28 06:51:05	BASE	16.90	346	20.78	344	2.0	100	2.0	0	0	980.4	NA	0.0000		9999	360	0	0	0
2019/04/28 06:52:05	BASE	17.60	349	20.78	344	2.0	100	2.0	0	0	980.5	NA	0.0000		9999	330	0	0	0
2019/04/28 06:53:04	BASE	16.69	351	20.78	344	1.9	100	1.9	0	0	980.5	NA	0.0000		9999	330	0	0	0
2019/04/28 06:54:05	BASE	17.00	353	20.78	344	1.9	100	1.9	0	0	980.5	NA	0.0000		9999	330	0	0	0
2019/04/28 06:55:05	BASE	17.26	355	20.78	344	1.9	100	1.9	0	0	980.5	NA	0.0000		9999	360	0	0	0
2019/04/28 06:56:05	BASE	17.75	355	20.78	344	2.0	100	2.0	0	0	980.5	NA	0.0000		9999	330	0	0	0
2019/04/28 06:57:05	BASE	19.22	355	21.71	349	2.0	100	2.0	0	0	980.4	NA	0.0000		9999	300	0	0	0
2019/04/28 06:58:05	BASE	18.25	354	21.71	349	2.0	100	2.0	0	0	980.5	NA	0.0000		9999	300	0	0	0
2019/04/28 06:59:06	BASE	18.07	356	21.71	349	2.0	100	2.0	0	0	980.5	NA	0.0000		9999	330	0	0	0
2019/04/28 07:00:02	BASE	19.57	355	21.71	349	2.0	100	2.0	0	0	980.4	NA	0.0000		9999	330	0	0	0
2019/04/28 07:01:05	BASE	18.70	351	21.71	349	2.0	100	2.0	0	0	980.5	NA	0.0000		9999	300	0	0	0
2019/04/28 07:02:05	BASE	18.01	353	21.71	349	2.0	100	2.0	0	0	980.5	NA	0.0000		9999	330	0	0	0
2019/04/28 07:03:05	BASE	19.19	355	21.71	349	2.0	100	2.0	0	0	980.5	NA	0.0000		9999	330	1440	0	0
2019/04/28 07:04:05	BASE	19.70	351	21.71	349	2.0	100	2.0	0	0	980.5	NA	0.0000		9999	330	0	0	0
2019/04/28 07:05:06	BASE	18.85	349	21.71	349	2.0	100	2.0	0	0	980.6	NA	0.0000	UP	9999	360	0	0	0
2019/04/28 07:06:05	BASE	17.55	354	21.71	349	1.9	100	1.9	0	0	980.6	NA	0.0000	UP	9999	360	0	0	0
2019/04/28 07:07:05	BASE	17.13	354	21.61	6	1.9	100	1.9	0	0	980.7	NA	0.0000	UP	9999	360	0	0	0
2019/04/28 07:08:04	BASE	16.88	353	21.61	6	1.9	100	1.9	0	0	980.7	NA	0.0000	UP	9999	300	0	0	0
2019/04/28 07:09:06	BASE	17.12	352	21.61	6	1.9	100	1.9	0	0	980.6	NA	0.0000	UP	9999	300	0	0	0
2019/04/28 07:10:04	BASE	18.55	353	22.48	4	1.9	100	1.9	0	0	980.5	NA	0.0000	UP	9999	300	0	0	0
2019/04/28 07:11:04	BASE	19.80	354	22.53	360	1.9	100	1.9	0	0	980.5	NA	0.0000	UP	9999	260	1410	0	0
2019/04/28 07:12:05	BASE	19.27	351	22.53	360	1.9	100	1.9	0	0	980.6	NA	0.0000	UP	9999	300	1410	0	0
2019/04/28 07:13:05	BASE	19.55	354	22.53	360	1.9	100	1.9	0	0	980.5	NA	0.0000	UP	9999	300	0	0	0
2019/04/28 07:14:04	BASE	19.72	352	22.53	360	1.9	100	1.9	0	0	980.6	NA	0.0000	UP	9999	330	0	0	0
2019/04/28 07:15:04	BASE	17.68	346	22.53	360	1.9	100	1.9	0	0	980.7	NA	0.0000	UP	9999	330	1180	0	0
2019/04/28 07:16:04	BASE	16.62	349	22.53	360	1.9	100	1.9	0	0	980.7	NA	0.0000	UP	9999	330	0	0	0
2019/04/28 07:17:05	BASE	17.55	349	22.53	360	1.9	100	1.9	0	0	980.6	NA	0.0000	UP	9999	330	0	0	0
2019/04/28 07:18:05	BASE	18.08	350	22.53	360	1.9	100	1.9	0	0	980.6	NA	0.0000	UP	9999	330	0	0	0
2019/04/28 07:19:05	BASE	17.28	351	22.53	360	1.9	100	1.9	0	0	980.6	NA	0.0000	UP	9999	360	0	0	0
2019/04/28 07:20:05	BASE	17.35	351	22.53	360	1.9	100	1.9	0	0	980.7	NA	0.0000	UP	9999	330	0	0	0
2019/04/28 07:21:05	BASE	17.66	348	22.33	355	2.0	100	2.0	0	0	980.7	NA	0.0000	UP	9999	330	0	0	0
2019/04/28 07:22:06	BASE	17.78	344	22.33	355	2.0	100	2.0	0	0	980.6	NA	0.0000	UP	9999	330	0	0	0
2019/04/28 07:23:05	BASE	17.87	348	21.71	352	2.0	100	2.0	0	0	980.6	NA	0.0000	UP	9999	300	0	0	0
2019/04/28 07:24:05	BASE	17.38	350	21.71	352	2.0	100	2.0	0	0	980.7	NA	0.0000	UP	9999	360	0	0	0
2019/04/28 07:25:05	BASE	16.42	350	21.71	352	2.0	100	2.0	0	0	980.6	NA	0.0000	UP	9999	360	0	0	0
2019/04/28 07:26:05	BASE	16.59	349	21.71	352	2.0	100	2.0	0	0	980.5	NA	0.0000	UP	9999	300	0	0	0
2019/04/28 07:27:05	BASE	16.97	349	21.71	352	2.0	100	2.0	0	0	980.6	NA	0.2540	UP	9999	300	0	0	0
2019/04/28 07:28:04	BASE	17.12	352	21.71	352	2.0	100	2.0	0	0	980.5	NA	0.0000	UP	9999	330	0	0	0
2019/04/28 07:29:04	BASE	17.93	355	21.25	1	2.0	100	2.0	0	0	980.4	NA	0.0000	UP	9999	330	0	0	0
2019/04/28 07:30:05	BASE	19.55	355	22.38	360	2.0	100	2.0	0	0	980.3	NA	0.0000	UP	9999	360	0	0	0
2019/04/28 07:31:05	BASE	20.67	355	22.38	360	2.0	100	2.0	0	0	980.3	NA	0.0000		9999	360	0	0	0
2019/04/28 07:32:05	BASE	20.39	356	22.38	360	2.0	100	2.0	0	0	980.3	NA	0.0000		9999	360	0	0	0
2019/04/28 07:33:05	BASE	19.37	356	22.38	360	2.0	100	2.0	0	0	980.4	NA	0.0000		9999	360	0	0	0
2019/04/28 07:34:04	BASE	17.53	356	22.38	360	2.0	100	2.0	0	0	980.5	NA	0.0000		9999	360	0	0	0
2019/04/28 07:35:04	BASE	16.96	355	22.38	360	2.0	100	2.0	0	0	980.4	NA	0.0000	UP	9999	360	0	0	0
2019/04/28 07:36:05	BASE	17.65	352	22.38	360	2.0	100	2.0	0	0	980.4	NA	0.0000	UP	9999	360	0	0	0
2019/04/28 07:37:05	BASE	18.62	350	22.38	360	2.0	100	2.0	0	0	980.4	NA	0.0000	UP	9999	360	0	0	0
2019/04/28 07:38:04	BASE	19.13	351	22.38	360	2.0	100	2.0	0	0	980.4	NA	0.0000	UP	9999	360	0	0	0
2019/04/28 07:39:04	BASE	18.48	352	22.38	360	2.0	100	2.0	0	0	980.4	NA	0.0000	UP	9999	360	0	0	0
2019/04/28 07:40:04	BASE	17.66	355	22.33	353	2.1	100	2.1	0	0	980.4	NA	0.0000	UP	9999	360	0	0	0
2019/04/28 07:41:04	BASE	16.50	354	21.81	352	2.1	100	2.1	0	0	980.4	NA	0.0000	UP	9999	390	0	0	0
2019/04/28 07:42:04	BASE	15.98	354	21.81	352	2.1	100	2.1	0	0	980.4	NA	0.0000	UP	9999	360	0	0	0
2019/04/28 07:43:05	BASE	16.06	350	21.81	352	2.1	100	2.1	0	0	980.4	NA	0.0000	UP	9999	390	0	0	0
2019/04/28 07:44:05	BASE	15.99	347	21.81	352	2.1	100	2.1	0	0	980.3	NA	0.0000	UP	9999	360	0	0	0
2019/04/28 07:45:06	BASE	17.28	354	21.81	352	2.1	100	2.1	0	0	980.2	NA	0.0000	UP	9999	430	0	0	0
2019/04/28 07:46:05	BASE	18.02	357	21.81	352	2.1	100	2.1	0	0	980.2	NA	0.0000	UP	9999	390	0	0	0
2019/04/28 07:47:05	BASE	17.40	356	21.71	352	2.1	100	2.1	0	0	980.2	NA	0.0000	UP	9999	490	0	0	0
2019/04/28 07:48:05	BASE	18.29	351	21.71	352	2.2	100	2.2	0	0	980.2	NA	0.0000		9999	430	0	0	0
2019/04/28 07:49:05	BASE	18.26	352	21.71	352	2.2	100	2.2	0	0	980.2	NA	0.0000		9999	460	0	0	0
2019/04/28 07:50:04	BASE	17.03	358	21.71	352	2.2	100	2.2	0	0	980.3	NA	0.0000		9999	430	0	0	0
2019/04/28 07:51:04	BASE	17.04	355	21.71	352	2.3	100	2.3	0	0	980.2	NA	0.0000		9999	390	0	0	0
2019/04/28 07:52:04	BASE	17.44	358	21.71	352	2.3	100	2.3	0	0	980.2	NA	0.0000		9999	360	0	0	0
2019/04/28 07:53:05	BASE	18.29	357	21.81	4	2.3	100	2.3	0	0	980.2	NA	0.0000		9999	360	0	0	0
2019/04/28 07:54:04	BASE	18.94	350	21.81	4	2.3	100	2.3	0	0	980.2	NA	0.0000		9999	330	0	0	0
2019/04/28 07:55:05	BASE	18.50	351	21.81	4	2.2	100	2.2	0	0	980.2	NA	0.0000		9999	330	0	0	0
2019/04/28 07:56:04	BASE	17.78	353	21.81	4	2.2	100	2.2	0	0	980.2	NA	0.0000		9999	330	0	0	0
2019/04/28 07:57:05	BASE	16.40	351	21.81	4	2.2	100	2.2	0	0	980.3	NA	0.0000		9999	360	0	0	0
2019/04/28 07:58:05	BASE	15.84	352	21.81	4	2.2	100	2.2	0	0	980.3	NA	0.0000		9999	330	0	0	0
2019/04/28 07:59:06	BASE	17.69	352	21.81	4	2.2	100	2.2	0	0	980.2	NA	0.0000		9999	360	0	0	0
2019/04/28 08:00:02	BASE	18.47	352	21.81	4	2.2	100	2.2	0	0	980.2	NA	0.0000		9999	390	0	0	0
2019/04/28 08:01:05	BASE	17.83	354	21.81	4	2.2	100	2.2	0	0	980.2	NA	0.0000		9999	360	0	0	0
2019/04/28 08:02:04	BASE	18.81	350	23.77	337	2.2	100	2.2	0	0	980.2	NA	0.0000		9999	330	0	0	0
2019/04/28 08:03:05	BASE	19.88	347	23.77	337	2.2	100	2.2	0	0	980.2	NA	0.0000		9999	330	0	0	0
2019/04/28 08:04:04	BASE	19.19	349	23.77	337	2.2	100	2.2	0	0	980.2	NA	0.0000		9999	330	0	0	0
2019/04/28 08:05:05	BASE	18.92	348	23.77	337	2.2	100	2.2	0	0	980.2	NA	0.0000		9999	300	0	0	0
2019/04/28 08:06:05	BASE	19.94	347	23.77	337	2.2	100	2.2	0	0	980.2	NA	0.0000		9999	330	0	0	0
2019/04/28 08:07:05	BASE	19.80	350	23.77	337	2.2	100	2.2	0	0	980.2	NA	0.0000		9999	330	1210	0	0
2019/04/28 08:08:04	BASE	19.23	354	23.77	337	2.2	100	2.2	0	0	980.2	NA	0.0000		9999	330	0	0	0
2019/04/28 08:09:05	BASE	18.18	354	23.77	337	2.2	100	2.2	0	0	980.3	NA	0.0000		9999	330	0	0	0
2019/04/28 08:10:05	BASE	17.02	352	23.77	337	2.1	100	2.1	0	0	980.3	NA	0.0000		9999	330	1180	0	0
2019/04/28 08:11:05	BASE	18.74	354	23.77	337	2.1	100	2.1	0	0	980.2	NA	0.0000		9999	330	0	0	0
2019/04/28 08:12:05	BASE	20.41	354	23.41	350	2.1	100	2.1	0	0	980.2	NA	0.0000		9999	360	0	0	0
2019/04/28 08:13:05	BASE	19.89	351	23.41	350	2.1	100	2.1	0	0	980.3	NA	0.0000		9999	360	0	0	0
2019/04/28 08:14:05	BASE	20.04	352	23.41	350	2.1	100	2.1	0	0	980.2	NA	0.0000		9999	390	0	0	0
2019/04/28 08:15:04	BASE	19.83	354	23.41	350	2.1	100	2.1	0	0	980.3	NA	0.0000		9999	430	0	0	0
2019/04/28 08:16:04	BASE	19.54	353	23.41	350	2.1	100	2.1	0	0	980.3	NA	0.0000		9999	360	0	0	0
2019/04/28 08:17:05	BASE	19.73	349	23.41	350	2.1	100	2.1	0	0	980.3	NA	0.0000		9999	360	0	0	0
2019/04/28 08:18:04	BASE	19.78	350	23.41	350	2.1	100	2.1	0	0	980.3	NA	0.0000		9999	330	0	0	0
2019/04/28 08:19:05	BASE	20.59	351	24.64	345	2.0	100	2.0	0	0	980.3	NA	0.0000		9999	330	0	0	0
2019/04/28 08:20:05	BASE	20.94	350	24.64	345	2.0	100	2.0	0	0	980.3	NA	0.0000		9999	300	0	0	0
2019/04/28 08:21:05	BASE	21.39	350	25.72	349	2.0	100	2.0	0	0	980.3	NA	0.0000		9999	360	0	0	0
2019/04/28 08:22:05	BASE	23.03	357	25.72	349	2.0	100	2.0	0	0	980.2	NA	0.0000		9999	430	0	0	0
2019/04/28 08:23:05	BASE	22.86	356	25.72	349	2.0	100	2.0	0	0	980.3	NA	0.0000		9999	390	0	0	0
2019/04/28 08:24:05	BASE	22.76	351	25.83	352	2.0	100	2.0	0	0	980.3	NA	0.0000		9999	360	0	0	0
2019/04/28 08:25:04	BASE	22.18	354	25.83	352	2.0	100	2.0	0	0	980.3	NA	0.0000		9999	360	0	0	0
2019/04/28 08:26:04	BASE	21.28	352	25.83	352	2.0	100	2.0	0	0	980.3	NA	0.0000		9999	390	0	0	0
2019/04/28 08:27:06	BASE	22.06	354	25.83	352	2.0	100	2.0	0	0	980.3	NA	0.0000		9999	390	0	0	0
2019/04/28 08:28:05	BASE	21.92	360	25.83	352	2.0	100	2.0	0	0	980.4	NA	0.0000		9999	390	0	0	0
2019/04/28 08:29:05	BASE	19.73	0	25.83	352	2.0	100	2.0	0	0	980.4	NA	0.0000		9999	360	0	0	0
2019/04/28 08:30:05	BASE	18.82	356	25.83	352	1.9	100	1.9	0	0	980.4	NA	0.0000		9999	390	0	0	0
2019/04/28 08:31:06	BASE	19.74	354	25.83	352	2.0	100	2.0	0	0	980.4	NA	0.0000		9999	390	0	0	0
2019/04/28 08:32:05	BASE	20.28	354	25.83	352	2.0	100	2.0	0	0	980.4	NA	0.0000		9999	330	0	0	0
2019/04/28 08:33:06	BASE	20.07	354	25.83	352	2.0	100	2.0	0	0	980.4	NA	0.0000		9999	300	0	0	0
2019/04/28 08:34:05	BASE	20.41	356	25.52	336	1.9	100	1.9	0	0	980.4	NA	0.0000		9999	300	0	0	0
2019/04/28 08:35:05	BASE	20.58	349	25.52	336	2.0	100	2.0	0	0	980.4	NA	0.0000		9999	300	0	0	0
2019/04/28 08:36:04	BASE	20.24	347	25.52	336	2.0	100	2.0	0	0	980.4	NA	0.0000		9999	300	0	0	0
2019/04/28 08:37:05	BASE	19.70	353	25.52	336	2.0	100	2.0	0	0	980.4	NA	0.0000		9999	300	0	0	0
2019/04/28 08:38:04	BASE	19.37	350	25.52	336	2.0	100	2.0	0	0	980.4	NA	0.0000		9999	300	0	0	0
2019/04/28 08:39:05	BASE	18.09	350	25.52	336	2.0	100	2.0	0	0	980.5	NA	0.0000		9999	330	0	0	0
2019/04/28 08:40:04	BASE	18.00	355	25.52	336	2.0	100	2.0	0	0	980.4	NA	0.0000	UP	9999	330	0	0	0
2019/04/28 08:41:05	BASE	18.62	353	25.52	336	2.0	100	2.0	0	0	980.4	NA	0.0000	UP	9999	330	0	0	0
2019/04/28 08:42:05	BASE	18.29	354	23.41	2	2.0	100	2.0	0	0	980.4	NA	0.0000	UP	9999	330	0	0	0
2019/04/28 08:43:05	BASE	17.62	351	23.41	2	2.0	100	2.0	0	0	980.5	NA	0.0000	UP	9999	330	0	0	0
2019/04/28 08:44:04	BASE	18.25	347	22.43	3	2.0	100	2.0	0	0	980.4	NA	0.0000	UP	9999	330	0	0	0
2019/04/28 08:45:04	BASE	18.85	349	22.17	350	2.0	100	2.0	0	0	980.5	NA	0.0000	UP	9999	330	0	0	0
2019/04/28 08:46:04	BASE	17.08	353	22.17	350	1.9	100	1.9	0	0	980.5	NA	0.0000	UP	9999	330	0	0	0
2019/04/28 08:47:05	BASE	16.90	354	22.17	350	1.9	100	1.9	0	0	980.6	NA	0.0000	UP	9999	360	0	0	0
2019/04/28 08:48:05	BASE	17.48	349	22.17	350	1.9	100	1.9	0	0	980.5	NA	0.0000	UP	9999	360	0	0	0
2019/04/28 08:49:04	BASE	18.31	349	22.17	350	1.9	100	1.9	0	0	980.5	NA	0.0000	UP	9999	360	0	0	0
2019/04/28 08:50:04	BASE	19.06	355	21.97	3	1.9	100	1.9	0	0	980.4	NA	0.0000	UP	9999	360	0	0	0
2019/04/28 08:51:05	BASE	19.59	355	23.05	350	1.9	100	1.9	0	0	980.3	NA	0.0000	UP	9999	360	0	0	0
2019/04/28 08:52:05	BASE	18.94	353	23.05	350	2.0	100	2.0	0	0	980.4	NA	0.0000	UP	9999	360	0	0	0
2019/04/28 08:53:04	BASE	17.88	352	23.05	350	2.0	100	2.0	0	0	980.4	NA	0.0000	UP	9999	330	0	0	0
2019/04/28 08:54:04	BASE	16.82	351	23.05	350	2.0	100	2.0	0	0	980.5	NA	0.0000	UP	9999	360	0	0	0
2019/04/28 08:55:05	BASE	16.96	351	23.05	350	2.0	100	2.0	0	0	980.5	NA	0.0000	UP	9999	360	0	0	0
2019/04/28 08:56:04	BASE	16.94	349	23.05	350	2.0	100	2.0	0	0	980.5	NA	0.0000	UP	9999	360	0	0	0
2019/04/28 08:57:05	BASE	16.80	353	23.05	350	2.0	100	2.0	0	0	980.4	NA	0.0000	UP	9999	360	0	0	0
2019/04/28 08:58:04	BASE	16.87	353	23.05	350	2.0	100	2.0	0	0	980.4	NA	0.0000		9999	390	0	0	0
2019/04/28 08:59:06	BASE	15.91	354	23.05	350	2.0	100	2.0	0	0	980.4	NA	0.0000		9999	390	0	0	0
2019/04/28 09:00:01	BASE	16.87	353	23.05	350	2.0	100	2.0	0	0	980.4	NA	0.0000		9999	390	0	0	0
2019/04/28 09:01:06	BASE	19.46	356	23.77	360	2.0	100	2.0	0	0	980.3	NA	0.0000		9999	360	0	0	0
2019/04/28 09:02:04	BASE	20.08	356	23.77	360	2.1	100	2.1	0	0	980.3	NA	0.0000		9999	360	0	0	0
2019/04/28 09:03:05	BASE	19.16	350	23.77	360	2.1	100	2.1	0	0	980.3	NA	0.0000		9999	330	0	0	0
2019/04/28 09:04:04	BASE	19.30	349	23.77	360	2.1	100	2.1	0	0	980.3	NA	0.0000		9999	330	0	0	0
2019/04/28 09:05:04	BASE	18.60	349	23.77	360	2.1	100	2.1	0	0	980.3	NA	0.0000		9999	330	0	0	0
2019/04/28 09:06:04	BASE	18.06	351	23.77	360	2.1	100	2.1	0	0	980.3	NA	0.0000		9999	390	0	0	0
2019/04/28 09:07:05	BASE	18.79	350	23.77	360	2.1	100	2.1	0	0	980.3	NA	0.0000		9999	390	0	0	0
2019/04/28 09:08:04	BASE	19.07	352	23.77	360	2.1	100	2.1	0	0	980.3	NA	0.0000		9999	390	0	0	0
2019/04/28 09:09:05	BASE	19.44	358	23.77	360	2.1	100	2.1	0	0	980.3	NA	0.0000		9999	430	0	0	0
2019/04/28 09:10:04	BASE	20.39	354	23.77	360	2.1	100	2.1	0	0	980.2	NA	0.0000		9999	390	0	0	0
2019/04/28 09:11:05	BASE	19.92	349	23.51	3	2.2	100	2.2	0	0	980.3	NA	0.0000		9999	330	0	0	0
2019/04/28 09:12:05	BASE	17.59	350	23.51	3	2.2	100	2.2	0	0	980.4	NA	0.0000		9999	330	0	0	0
2019/04/28 09:13:05	BASE	16.49	348	23.51	3	2.1	100	2.1	0	0	980.4	NA	0.0000		9999	360	0	0	0
2019/04/28 09:14:04	BASE	16.89	349	23.51	3	2.1	100	2.1	0	0	980.4	NA	0.0000		9999	330	0	0	0
2019/04/28 09:15:05	BASE	16.02	353	23.51	3	2.1	100	2.1	0	0	980.5	NA	0.0000		9999	360	0	0	0
2019/04/28 09:16:04	BASE	15.35	351	23.51	3	2.0	100	2.0	0	0	980.5	NA	0.0000		9999	360	0	0	0
2019/04/28 09:17:05	BASE	16.36	351	23.51	3	2.0	100	2.0	0	0	980.4	NA	0.0000		9999	360	0	0	0
2019/04/28 09:18:05	BASE	17.29	353	23.51	3	2.0	100	2.0	0	0	980.4	NA	0.0000		9999	390	0	0	0
2019/04/28 09:19:04	BASE	17.70	351	23.51	3	2.0	100	2.0	0	0	980.4	NA	0.0000		9999	390	0	0	0
2019/04/28 09:20:04	BASE	17.31	350	21.56	345	2.0	100	2.0	0	0	980.4	NA	0.0000		9999	390	0	0	0
2019/04/28 09:21:04	BASE	16.66	347	20.89	5	2.1	100	2.1	0	0	980.5	NA	0.0000		9999	430	0	0	0
2019/04/28 09:22:05	BASE	16.43	352	20.89	5	2.1	100	2.1	0	0	980.5	NA	0.0000		9999	390	0	0	0
2019/04/28 09:23:04	BASE	17.65	359	20.89	341	2.0	100	2.0	0	0	980.5	NA	0.0000		9999	390	0	0	0
2019/04/28 09:24:05	BASE	18.48	353	20.89	341	2.1	100	2.1	0	0	980.4	NA	0.0000		9999	360	0	0	0
2019/04/28 09:25:04	BASE	18.15	351	20.89	341	2.0	100	2.0	0	0	980.5	NA	0.0000		9999	360	0	0	0
2019/04/28 09:26:04	BASE	19.04	351	24.02	347	2.1	100	2.1	0	0	980.4	NA	0.0000		9999	330	0	0	0
2019/04/28 09:27:05	BASE	20.38	353	24.02	347	2.1	100	2.1	0	0	980.4	NA	0.0000		9999	330	0	0	0
2019/04/28 09:28:04	BASE	19.34	358	24.02	347	2.1	100	2.1	0	0	980.5	NA	0.0000		9999	360	0	0	0
2019/04/28 09:29:05	BASE	19.17	357	24.02	347	2.1	100	2.1	0	0	980.4	NA	0.0000		9999	360	0	0	0
2019/04/28 09:30:04	BASE	18.87	353	24.02	347	2.1	100	2.1	0	0	980.6	NA	0.0000		9999	390	0	0	0
2019/04/28 09:31:06	BASE	17.44	348	24.02	347	2.1	100	2.1	0	0	980.6	NA	0.0000		9999	360	0	0	0
2019/04/28 09:32:05	BASE	17.44	350	24.02	347	2.1	100	2.1	0	0	980.6	NA	0.0000		9999	360	0	0	0
2019/04/28 09:33:04	BASE	16.78	352	24.02	347	2.1	100	2.1	0	0	980.6	NA	0.0000		9999	360	0	0	0
2019/04/28 09:34:04	BASE	17.83	348	24.02	347	2.1	100	2.1	0	0	980.4	NA	0.0000		9999	390	0	0	0
2019/04/28 09:35:05	BASE	18.34	354	24.02	347	2.1	100	2.1	0	0	980.5	NA	0.0000		9999	490	0	0	0
2019/04/28 09:36:05	BASE	17.79	356	23.87	354	2.1	100	2.1	0	0	980.4	NA	0.0000		9999	390	0	0	0
2019/04/28 09:37:05	BASE	17.74	350	22.64	354	2.1	100	2.1	0	0	980.5	NA	0.0000		9999	390	0	0	0
2019/04/28 09:38:04	BASE	18.36	349	22.64	354	2.1	100	2.1	0	0	980.4	NA	0.0000		9999	390	0	0	0
2019/04/28 09:39:05	BASE	18.96	354	22.48	345	2.2	100	2.2	0	0	980.5	NA	0.0000		9999	360	0	0	0
2019/04/28 09:40:04	BASE	18.18	359	22.48	345	2.2	100	2.2	0	0	980.5	NA	0.0000		9999	390	0	0	0
2019/04/28 09:41:04	BASE	18.37	358	22.48	345	2.2	100	2.2	0	0	980.5	NA	0.0000		9999	360	0	0	0
2019/04/28 09:42:05	BASE	18.67	1	22.48	345	2.2	100	2.2	0	0	980.5	NA	0.0000		9999	360	0	0	0
2019/04/28 09:43:05	BASE	19.25	355	22.48	345	2.2	100	2.2	0	0	980.5	NA	0.0000		9999	390	0	0	0
2019/04/28 09:44:04	BASE	19.95	347	22.48	345	2.2	100	2.2	0	0	980.5	NA	0.0000		9999	360	0	0	0
2019/04/28 09:45:04	BASE	18.96	349	22.48	345	2.1	100	2.1	0	0	980.6	NA	0.0000		9999	330	0	0	0
2019/04/28 09:46:05	BASE	17.79	351	22.48	345	2.1	100	2.1	0	0	980.6	NA	0.0000		9999	390	0	0	0
2019/04/28 09:47:05	BASE	18.39	352	22.48	345	2.1	100	2.1	0	0	980.6	NA	0.0000		9999	360	0	0	0
2019/04/28 09:48:04	BASE	19.41	355	21.66	2	2.1	100	2.1	0	0	980.5	NA	0.0000		9999	330	0	0	0
2019/04/28 09:49:05	BASE	19.32	352	21.66	2	2.0	100	2.0	0	0	980.6	NA	0.0000		9999	330	0	0	0
2019/04/28 09:50:04	BASE	19.17	350	22.28	353	2.0	100	2.0	0	0	980.6	NA	0.0000		9999	330	0	0	0
2019/04/28 09:51:05	BASE	19.01	351	22.28	353	2.0	100	2.0	0	0	980.7	NA	0.0000		9999	300	0	0	0
2019/04/28 09:52:04	BASE	17.79	351	22.28	353	2.0	100	2.0	0	0	980.7	NA	0.0000		9999	300	0	0	0
2019/04/28 09:53:04	BASE	17.67	348	22.28	353	2.0	100	2.0	0	0	980.7	NA	0.0000		9999	260	0	0	0
2019/04/28 09:54:04	BASE	17.41	349	22.28	353	2.0	100	2.0	0	0	980.7	NA	0.0000		9999	300	0	0	0
2019/04/28 09:55:05	BASE	18.19	351	22.28	353	2.0	100	2.0	0	0	980.7	NA	0.0000		9999	330	0	0	0
2019/04/28 09:56:05	BASE	18.92	348	22.28	353	2.0	100	2.0	0	0	980.7	NA	0.0000		9999	300	0	0	0
2019/04/28 09:57:05	BASE	18.01	349	22.28	353	2.0	100	2.0	0	0	980.6	NA	0.0000		9999	300	0	0	0
2019/04/28 09:58:04	BASE	18.03	348	22.28	353	2.0	100	2.0	0	0	980.7	NA	0.0000		9999	330	0	0	0
2019/04/28 09:59:06	BASE	19.61	352	23.30	360	2.0	100	2.0	0	0	980.6	NA	0.0000		9999	330	0	0	0
2019/04/28 10:00:01	BASE	20.94	356	23.30	360	2.0	100	2.0	0	0	980.6	NA	0.0000		9999	300	0	0	0
2019/04/28 10:01:04	BASE	19.21	354	23.30	360	2.0	100	2.0	0	0	980.7	NA	0.0000		9999	300	0	0	0
2019/04/28 10:02:05	BASE	17.49	354	23.30	360	2.0	100	2.0	0	0	980.7	NA	0.0000		9999	330	0	0	0
2019/04/28 10:03:05	BASE	19.07	356	23.30	360	2.0	100	2.0	0	0	980.6	NA	0.0000		9999	330	0	0	0
2019/04/28 10:04:05	BASE	18.71	352	23.30	360	1.9	100	1.9	0	0	980.7	NA	0.0000		9999	330	0	0	0
2019/04/28 10:05:05	BASE	18.15	348	23.30	360	1.9	100	1.9	0	0	980.7	NA	0.0000		9999	300	0	0	0
2019/04/28 10:06:04	BASE	17.76	345	23.30	360	1.9	100	1.9	0	0	980.7	NA	0.0000		9999	300	0	0	0
2019/04/28 10:07:05	BASE	16.73	347	23.30	360	1.9	100	1.9	0	0	980.8	NA	0.0000		9999	330	0	0	0
2019/04/28 10:08:04	BASE	17.06	351	23.30	360	1.9	100	1.9	0	0	980.7	NA	0.0000		9999	300	0	0	0
2019/04/28 10:09:05	BASE	16.66	351	22.64	1	1.9	100	1.9	0	0	980.7	NA	0.0000		9999	300	0	0	0
2019/04/28 10:10:04	BASE	17.40	348	22.02	1	1.9	100	1.9	0	0	980.7	NA	0.0000		9999	300	0	0	0
2019/04/28 10:11:04	BASE	18.47	352	22.02	1	1.9	100	1.9	0	0	980.6	NA	0.0000		9999	300	0	0	0
2019/04/28 10:12:04	BASE	18.68	358	22.02	1	1.9	100	1.9	0	0	980.6	NA	0.0000		9999	300	0	0	0
2019/04/28 10:13:05	BASE	19.13	354	21.61	6	1.9	100	1.9	0	0	980.6	NA	0.0000		9999	300	0	0	0
2019/04/28 10:14:04	BASE	18.69	355	21.61	6	1.9	100	1.9	0	0	980.6	NA	0.0000		9999	300	0	0	0
2019/04/28 10:15:04	BASE	17.93	355	21.61	6	1.9	100	1.9	0	0	980.7	NA	0.0000		9999	300	0	0	0
2019/04/28 10:16:04	BASE	17.89	356	21.61	6	1.9	100	1.9	0	0	980.6	NA	0.0000		9999	300	0	0	0
2019/04/28 10:17:05	BASE	17.10	358	21.61	6	1.9	100	1.9	0	0	980.7	NA	0.0000		9999	300	0	0	0
2019/04/28 10:18:05	BASE	16.52	351	21.61	6	2.0	100	2.0	0	0	980.7	NA	0.0000		9999	300	0	0	0
2019/04/28 10:19:04	BASE	17.72	353	21.61	6	2.0	100	2.0	0	0	980.6	NA	0.0000		9999	300	0	0	0
2019/04/28 10:20:03	BASE	17.70	355	21.61	6	2.0	100	2.0	0	0	980.7	NA	0.0000		9999	330	0	0	0
2019/04/28 10:21:06	BASE	16.86	352	21.61	6	2.0	100	2.0	0	0	980.8	NA	0.0000		9999	330	0	0	0
2019/04/28 10:22:04	BASE	17.28	354	21.40	1	2.0	100	2.0	0	0	980.8	NA	0.0000		9999	330	0	0	0
2019/04/28 10:23:05	BASE	18.39	355	20.89	353	2.0	100	2.0	0	0	980.8	NA	0.0000		9999	330	0	0	0
2019/04/28 10:24:04	BASE	17.36	355	20.89	353	2.0	100	2.0	0	0	980.9	NA	0.0000		9999	330	0	0	0
2019/04/28 10:25:05	BASE	16.15	351	20.89	353	2.0	100	2.0	0	0	980.9	NA	0.0000		9999	360	0	0	0
2019/04/28 10:26:04	BASE	16.35	352	20.89	353	2.0	100	2.0	0	0	980.9	NA	0.0000		9999	360	0	0	0
2019/04/28 10:27:05	BASE	16.74	353	20.89	353	2.0	100	2.0	0	0	981.0	NA	0.0000		9999	360	0	0	0
2019/04/28 10:28:05	BASE	17.66	350	20.89	353	2.0	100	2.0	0	0	980.9	NA	0.0000		9999	330	0	0	0
2019/04/28 10:29:05	BASE	18.51	349	20.89	353	2.0	100	2.0	0	0	981.0	NA	0.0000		9999	330	0	0	0
2019/04/28 10:30:05	BASE	17.98	348	20.89	353	2.0	100	2.0	0	0	981.0	NA	0.0000		9999	300	0	0	0
2019/04/28 10:31:04	BASE	16.79	352	20.89	353	2.0	100	2.0	0	0	981.0	NA	0.0000		9999	300	0	0	0
2019/04/28 10:32:04	BASE	16.37	353	20.89	353	2.0	100	2.0	0	0	981.0	NA	0.0000		9999	300	0	0	0
2019/04/28 10:33:05	BASE	15.72	355	20.27	347	2.0	100	2.0	0	0	981.0	NA	0.0000		9999	330	0	0	0
2019/04/28 10:34:04	BASE	15.86	358	20.27	347	1.9	100	1.9	0	0	981.0	NA	0.0000		9999	330	0	0	0
2019/04/28 10:35:04	BASE	15.50	353	20.27	347	1.9	100	1.9	0	0	981.0	NA	0.0000		9999	300	0	0	0
2019/04/28 10:36:04	BASE	15.82	351	20.83	352	1.9	100	1.9	0	0	980.9	NA	0.0000		9999	330	0	0	0
2019/04/28 10:37:05	BASE	16.90	350	20.83	352	1.9	100	1.9	0	0	980.9	NA	0.0000		9999	330	0	0	0
2019/04/28 10:38:05	BASE	17.03	352	20.83	352	1.9	100	1.9	0	0	980.9	NA	0.0000		9999	330	0	0	0
2019/04/28 10:39:04	BASE	16.38	359	20.83	352	1.9	100	1.9	0	0	980.9	NA	0.0000		9999	330	0	0	0
2019/04/28 10:40:04	BASE	16.22	356	20.83	352	1.9	100	1.9	0	0	980.9	NA	0.0000		9999	360	0	0	0
2019/04/28 10:41:05	BASE	17.40	351	20.83	352	1.9	100	1.9	0	0	980.9	NA	0.0000		9999	390	0	0	0
2019/04/28 10:42:04	BASE	17.50	351	20.83	352	1.9	100	1.9	0	0	980.9	NA	0.0000		9999	390	0	0	0
2019/04/28 10:43:04	BASE	16.20	353	20.83	352	1.9	100	1.9	0	0	980.9	NA	0.0000		9999	360	0	0	0
2019/04/28 10:44:04	BASE	15.91	354	20.83	352	1.9	100	1.9	0	0	980.9	NA	0.0000		9999	360	1350	0	0
2019/04/28 10:45:05	BASE	16.15	350	20.83	352	1.9	100	1.9	0	0	980.9	NA	0.0000		9999	390	1280	0	0
2019/04/28 10:46:04	BASE	16.10	346	19.24	352	1.9	100	1.9	0	0	980.9	NA	0.0000		9999	430	0	0	0
2019/04/28 10:47:04	BASE	15.82	344	19.24	352	1.9	100	1.9	0	0	980.8	NA	0.0000		9999	430	1380	0	0
2019/04/28 10:48:04	BASE	15.58	350	19.24	352	1.9	100	1.9	0	0	980.8	NA	0.0000		9999	390	0	0	0
2019/04/28 10:49:05	BASE	16.28	354	19.50	354	1.9	100	1.9	0	0	980.8	NA	0.0000		9999	390	1280	0	0
2019/04/28 10:50:04	BASE	15.82	355	19.50	354	1.9	100	1.9	0	0	980.8	NA	0.0000		9999	390	0	0	0
2019/04/28 10:51:04	BASE	15.43	355	19.50	354	1.9	100	1.9	0	0	980.8	NA	0.0000		9999	430	0	0	0
2019/04/28 10:52:04	BASE	16.14	353	19.50	354	1.9	100	1.9	0	0	980.7	NA	0.0000		9999	390	0	0	0
2019/04/28 10:53:05	BASE	17.00	354	19.50	354	1.9	100	1.9	0	0	980.7	NA	0.0000		9999	390	0	0	0
2019/04/28 10:54:04	BASE	16.95	358	19.50	354	1.9	100	1.9	0	0	980.7	NA	0.0000		9999	430	1440	0	0
2019/04/28 10:55:04	BASE	17.61	360	20.68	344	1.9	100	1.9	0	0	980.7	NA	0.0000		9999	390	0	0	0
2019/04/28 10:56:04	BASE	17.22	358	20.68	344	1.9	100	1.9	0	0	980.7	NA	0.0000		9999	390	0	0	0
2019/04/28 10:57:05	BASE	15.99	355	20.68	344	1.9	100	1.9	0	0	980.7	NA	0.0000		9999	360	0	0	0
2019/04/28 10:58:04	BASE	16.51	351	20.68	344	1.9	100	1.9	0	0	980.7	NA	0.0000		9999	360	0	0	0
2019/04/28 10:59:07	BASE	16.20	349	20.68	344	1.9	100	1.9	0	0	980.8	NA	0.0000		9999	360	0	0	0
2019/04/28 11:00:01	BASE	15.79	352	20.68	344	1.9	100	1.9	0	0	980.7	NA	0.0000		9999	390	0	0	0
2019/04/28 11:01:04	BASE	17.04	351	20.68	344	1.9	100	1.9	0	0	980.7	NA	0.0000		9999	390	0	0	0
2019/04/28 11:02:04	BASE	17.13	350	20.68	344	1.9	100	1.9	0	0	980.7	NA	0.0000		9999	430	0	0	0
2019/04/28 11:03:05	BASE	15.30	350	20.68	344	1.9	100	1.9	0	0	980.8	NA	0.0000		9999	430	1250	0	0
2019/04/28 11:04:04	BASE	15.15	346	20.68	344	1.9	100	1.9	0	0	980.8	NA	0.0000		9999	430	0	0	0
2019/04/28 11:05:04	BASE	15.60	345	19.24	349	1.9	100	1.9	0	0	980.8	NA	0.0000		9999	360	0	0	0
2019/04/28 11:06:04	BASE	15.29	347	19.24	349	1.9	100	1.9	0	0	980.8	NA	0.0000		9999	360	0	0	0
2019/04/28 11:07:06	BASE	16.68	348	19.34	351	1.9	100	1.9	0	0	980.7	NA	0.0000	UP	9999	360	0	0	0
2019/04/28 11:08:04	BASE	18.43	349	20.94	351	1.9	100	1.9	0	0	980.7	NA	0.0000	UP	9999	390	1310	0	0
2019/04/28 11:09:04	BASE	17.45	351	20.94	351	1.9	100	1.9	0	0	980.7	NA	0.0000	UP	9999	390	0	0	0
2019/04/28 11:10:04	BASE	16.85	351	20.94	351	1.9	100	1.9	0	0	980.7	NA	0.0000	UP	9999	360	0	0	0
2019/04/28 11:11:05	BASE	17.53	351	20.94	351	1.9	100	1.9	0	0	980.6	NA	0.0000	UP	9999	390	1350	0	0
2019/04/28 11:12:04	BASE	16.93	352	20.94	351	1.9	100	1.9	0	0	980.6	NA	0.0000	UP	9999	430	0	0	0
2019/04/28 11:13:05	BASE	16.15	350	20.94	351	1.9	100	1.9	0	0	980.7	NA	0.0000	UP	9999	430	0	0	0
2019/04/28 11:14:05	BASE	15.31	350	20.94	351	1.9	100	1.9	0	0	980.7	NA	0.0000	UP	9999	520	0	0	0
2019/04/28 11:15:06	BASE	15.05	354	20.94	351	1.9	100	1.9	0	0	980.7	NA	0.0000	UP	9999	720	0	0	0
2019/04/28 11:16:04	BASE	15.30	352	20.94	351	1.9	100	1.9	0	0	980.7	NA	0.0000	UP	9999	690	0	0	0
2019/04/28 11:17:04	BASE	14.72	351	20.94	351	1.9	100	1.9	0	0	980.8	NA	0.0000		9999	1210	0	0	0
2019/04/28 11:18:04	BASE	14.80	350	18.78	194	1.9	100	1.9	0	0	980.8	NA	0.0000		9999	1150	0	0	0
2019/04/28 11:19:05	BASE	15.37	348	18.78	194	1.9	100	1.9	0	0	980.8	NA	0.0000		9999	590	0	0	0
2019/04/28 11:20:04	BASE	15.32	351	18.78	194	1.9	100	1.9	0	0	980.8	NA	0.0000		9999	460	0	0	0
2019/04/28 11:21:04	BASE	15.80	349	18.62	1	1.9	100	1.9	0	0	980.8	NA	0.0000		9999	520	0	0	0
2019/04/28 11:22:04	BASE	15.97	347	18.21	350	2.0	100	2.0	0	0	980.8	NA	0.0000		9999	660	0	0	0
2019/04/28 11:23:05	BASE	15.21	345	17.80	353	2.0	100	2.0	0	0	980.8	NA	0.0000		9999	590	0	0	0
2019/04/28 11:24:04	BASE	15.25	345	17.80	353	1.9	100	1.9	0	0	980.9	NA	0.0000		9999	490	0	0	0
2019/04/28 11:25:05	BASE	15.06	343	17.49	349	1.9	100	1.9	0	0	980.9	NA	0.0000		9999	520	0	0	0
2019/04/28 11:26:04	BASE	13.96	342	17.49	349	1.9	100	1.9	0	0	981.0	NA	0.0000		9999	590	0	0	0
2019/04/28 11:27:05	BASE	13.88	349	17.49	349	1.9	100	1.9	0	0	981.0	NA	0.0000		9999	1050	0	0	0
2019/04/28 11:28:04	BASE	15.91	348	20.73	355	1.9	100	1.9	0	0	980.8	NA	0.0000		9999	490	0	0	0
2019/04/28 11:29:04	BASE	16.99	350	20.73	355	1.9	100	1.9	0	0	980.9	NA	0.0000		9999	1080	0	0	0
2019/04/28 11:30:04	BASE	16.19	353	20.73	355	1.9	100	1.9	0	0	980.9	NA	0.0000		9999	820	0	0	0
2019/04/28 11:31:05	BASE	15.84	348	20.73	355	2.0	100	2.0	0	0	981.0	NA	0.0000		9999	520	0	0	0
2019/04/28 11:32:04	BASE	16.52	348	20.73	355	2.0	100	2.0	0	0	981.0	NA	0.0000		9999	390	0	0	0
2019/04/28 11:33:04	BASE	16.33	348	20.73	355	1.9	100	1.9	0	0	981.0	NA	0.0000		9999	460	0	0	0
2019/04/28 11:34:05	BASE	15.59	348	20.73	355	1.9	100	1.9	0	0	981.0	NA	0.0000		9999	390	1350	0	0
2019/04/28 11:35:05	BASE	15.79	349	20.73	355	1.9	100	1.9	0	0	981.0	NA	0.0000		9999	430	0	0	0
2019/04/28 11:36:04	BASE	15.55	348	20.73	355	1.9	100	1.9	0	0	981.0	NA	0.0000		9999	430	0	0	0
2019/04/28 11:37:04	BASE	15.18	345	20.73	355	1.8	100	1.8	0	0	981.1	NA	0.0000		9999	1080	0	0	0
2019/04/28 11:38:04	BASE	15.59	346	19.39	352	1.8	100	1.8	0	0	981.1	NA	0.0000		9999	520	0	0	0
2019/04/28 11:39:05	BASE	15.97	352	19.39	352	1.9	100	1.9	0	0	981.1	NA	0.0000		9999	490	0	0	0
2019/04/28 11:40:04	BASE	16.35	352	19.39	352	1.9	100	1.9	0	0	981.0	NA	0.0000		9999	460	0	0	0
2019/04/28 11:41:04	BASE	16.48	353	19.39	352	1.9	100	1.9	0	0	981.0	NA	0.0000		9999	460	0	0	0
2019/04/28 11:42:04	BASE	16.61	352	18.73	344	1.9	100	1.9	0	0	981.0	NA	0.0000		9999	460	0	0	0
2019/04/28 11:43:06	BASE	15.81	352	18.73	344	1.9	100	1.9	0	0	981.0	NA	0.0000		9999	430	0	0	0
2019/04/28 11:44:05	BASE	15.00	351	18.73	344	1.9	100	1.9	0	0	981.0	NA	0.0000		9999	490	2230	0	0
2019/04/28 11:45:04	BASE	17.47	349	22.17	352	1.9	100	1.9	0	0	980.9	NA	0.2540		9999	390	0	0	0
2019/04/28 11:46:05	BASE	19.61	345	22.17	352	1.9	100	1.9	0	0	980.9	NA	0.0000		9999	360	1570	0	0
2019/04/28 11:47:05	BASE	19.12	345	22.17	352	1.9	100	1.9	0	0	980.9	NA	0.0000		9999	390	0	0	0
2019/04/28 11:48:04	BASE	18.12	347	22.17	352	1.9	100	1.9	0	0	980.9	NA	0.0000		9999	430	0	0	0
2019/04/28 11:49:04	BASE	17.59	352	22.17	352	1.9	100	1.9	0	0	981.0	NA	0.0000		9999	520	0	0	0
2019/04/28 11:50:04	BASE	17.28	354	22.17	352	1.8	100	1.8	0	0	981.0	NA	0.0000		9999	560	0	0	0
2019/04/28 11:51:04	BASE	16.53	349	22.17	352	1.8	100	1.8	0	0	981.0	NA	0.0000		9999	750	0	0	0
2019/04/28 11:52:04	BASE	16.50	352	22.17	352	1.8	100	1.8	0	0	981.0	NA	0.0000		9999	490	0	0	0
2019/04/28 11:53:04	BASE	17.71	355	22.17	352	1.8	100	1.8	0	0	981.0	NA	0.0000		9999	430	0	0	0
2019/04/28 11:54:04	BASE	19.14	348	22.17	352	1.8	100	1.8	0	0	981.0	NA	0.0000		9999	390	0	0	0
2019/04/28 11:55:04	BASE	18.58	345	22.12	346	1.8	100	1.8	0	0	981.0	NA	0.0000		9999	390	0	0	0
2019/04/28 11:56:04	BASE	17.69	348	22.12	346	1.8	100	1.8	0	0	981.0	NA	0.0000		9999	430	0	0	0
2019/04/28 11:57:04	BASE	17.62	352	22.12	346	1.8	100	1.8	0	0	981.0	NA	0.0000		9999	1350	0	0	0
2019/04/28 11:58:04	BASE	16.76	353	22.12	346	1.8	100	1.8	0	0	981.1	NA	0.0000		9999	1900	0	0	0
2019/04/28 11:59:05	BASE	17.47	350	22.12	346	1.8	100	1.8	0	0	981.0	NA	0.0000		9999	430	0	0	0
2019/04/28 12:00:02	BASE	20.03	350	23.05	355	1.8	100	1.8	0	0	980.9	NA	0.0000		9999	850	0	0	0
2019/04/28 12:01:04	BASE	20.67	352	23.05	355	1.8	100	1.8	1	0	981.0	NA	0.0000		9999	950	0	0	0
2019/04/28 12:02:04	BASE	19.84	352	23.05	355	1.8	100	1.8	1	0	981.0	NA	0.0000		9999	1250	0	0	0
2019/04/28 12:03:04	BASE	18.66	351	23.05	355	1.8	100	1.8	1	0	981.1	NA	0.0000		9999	430	1610	0	0
2019/04/28 12:04:04	BASE	18.40	349	23.05	355	1.8	100	1.8	1	0	981.0	NA	0.0000		9999	460	0	0	0
2019/04/28 12:05:05	BASE	18.92	349	23.05	355	1.8	100	1.8	1	0	981.1	NA	0.0000		9999	460	2490	0	0
2019/04/28 12:06:04	BASE	16.93	352	23.05	355	1.8	100	1.8	1	0	981.2	NA	0.0000		9999	460	2130	0	0
2019/04/28 12:07:04	BASE	16.01	354	23.05	355	1.8	100	1.8	1	0	981.1	NA	0.0000		9999	1180	2300	0	0
2019/04/28 12:08:04	BASE	16.51	355	23.05	355	1.8	100	1.8	1	0	981.2	NA	0.0000		9999	850	0	0	0
2019/04/28 12:09:05	BASE	15.75	354	23.05	355	1.8	100	1.8	1	0	981.2	NA	0.0000		9999	460	0	0	0
2019/04/28 12:10:04	BASE	16.28	353	21.50	350	1.8	100	1.8	1	0	981.1	NA	0.0000		9999	850	0	0	0
2019/04/28 12:11:04	BASE	18.07	350	21.40	348	1.8	100	1.8	1	0	981.1	NA	0.0000		9999	430	0	0	0
2019/04/28 12:12:04	BASE	17.83	346	21.40	348	1.8	100	1.8	1	0	981.2	NA	0.0000		9999	430	0	0	0
2019/04/28 12:13:05	BASE	16.41	351	21.40	348	1.8	100	1.8	1	0	981.2	NA	0.0000		9999	620	0	0	0
2019/04/28 12:14:04	BASE	16.97	353	21.25	347	1.8	100	1.8	1	0	981.1	NA	0.0000		9999	430	0	0	0
2019/04/28 12:15:04	BASE	16.85	352	21.25	347	1.8	100	1.8	1	0	981.2	NA	0.0000		9999	390	0	0	0
2019/04/28 12:16:05	BASE	15.21	351	21.25	347	1.8	100	1.8	1	0	981.3	NA	0.0000		9999	390	0	0	0
2019/04/28 12:17:05	BASE	14.99	347	21.25	347	1.7	100	1.7	1	0	981.3	NA	0.0000		9999	390	0	0	0
2019/04/28 12:18:04	BASE	16.43	343	21.25	347	1.7	100	1.7	1	0	981.2	NA	0.0000		9999	360	0	0	0
2019/04/28 12:19:04	BASE	17.28	344	21.25	347	1.7	100	1.7	1	0	981.3	NA	0.0000		9999	390	0	0	0
2019/04/28 12:20:04	BASE	16.10	345	21.25	347	1.6	100	1.6	1	0	981.4	NA	0.0000		9999	390	0	0	0
2019/04/28 12:21:05	BASE	16.93	344	19.34	341	1.6	100	1.6	1	0	981.3	NA	0.0000		9999	390	0	0	0
2019/04/28 12:22:04	BASE	18.46	345	20.58	343	1.6	100	1.6	1	0	981.3	NA	0.0000		9999	430	0	0	0
2019/04/28 12:23:04	BASE	17.77	347	20.58	343	1.6	100	1.6	1	0	981.4	NA	0.0000		9999	390	0	0	0
2019/04/28 12:24:03	BASE	16.76	347	20.58	343	1.6	100	1.6	1	0	981.4	NA	0.0000		9999	360	0	0	0
2019/04/28 12:25:05	BASE	17.02	347	20.58	343	1.6	100	1.6	1	0	981.4	NA	0.0000		9999	390	0	0	0
2019/04/28 12:26:04	BASE	17.22	345	20.58	343	1.6	100	1.6	2	0	981.5	NA	0.0000		9999	390	0	0	0
2019/04/28 12:27:05	BASE	16.42	344	20.58	343	1.6	100	1.6	2	0	981.5	NA	0.0000		9999	430	0	0	0
2019/04/28 12:28:04	BASE	15.58	344	20.58	343	1.5	100	1.5	2	0	981.5	NA	0.0000		9999	430	0	0	0
2019/04/28 12:29:05	BASE	16.08	344	20.58	343	1.5	100	1.5	2	0	981.4	NA	0.0000		9999	430	0	0	0
2019/04/28 12:30:04	BASE	17.01	344	20.58	343	1.5	100	1.5	2	0	981.4	NA	0.0000		9999	430	0	0	0
2019/04/28 12:31:04	BASE	16.85	345	20.58	343	1.5	100	1.5	2	0	981.5	NA	0.0000		9999	430	0	0	0
2019/04/28 12:32:04	BASE	16.27	346	19.19	349	1.5	100	1.5	2	0	981.5	NA	0.0000		9999	430	0	0	0
2019/04/28 12:33:05	BASE	15.33	349	19.19	349	1.5	100	1.5	2	0	981.6	NA	0.0000		9999	430	0	0	0
2019/04/28 12:34:05	BASE	14.10	349	19.19	349	1.5	100	1.5	2	0	981.6	NA	0.0000		9999	430	0	0	0
2019/04/28 12:35:05	BASE	14.05	347	19.19	349	1.5	100	1.5	3	0	981.5	NA	0.0000		9999	430	0	0	0
2019/04/28 12:36:04	BASE	14.87	346	19.19	349	1.5	100	1.5	3	0	981.5	NA	0.0000		9999	460	0	0	0
2019/04/28 12:37:04	BASE	14.77	344	19.19	349	1.5	100	1.5	3	0	981.6	NA	0.0000		9999	460	0	0	0
2019/04/28 12:38:04	BASE	14.55	343	19.19	349	1.5	100	1.5	3	0	981.6	NA	0.0000		9999	520	0	0	0
2019/04/28 12:39:04	BASE	14.82	344	18.67	344	1.5	100	1.5	3	0	981.6	NA	0.0000		9999	460	0	0	0
2019/04/28 12:40:04	BASE	14.09	346	18.06	343	1.5	100	1.5	4	0	981.6	NA	0.0000		9999	490	0	0	0
2019/04/28 12:41:04	BASE	13.48	345	17.90	348	1.5	100	1.5	4	0	981.6	NA	0.0000		9999	490	0	0	0
2019/04/28 12:42:04	BASE	13.98	346	17.75	348	1.5	100	1.5	4	0	981.6	NA	0.0000		9999	620	0	0	0
2019/04/28 12:43:05	BASE	15.60	341	20.47	347	1.5	100	1.5	4	0	981.5	NA	0.0000		9999	490	0	0	0
2019/04/28 12:44:04	BASE	16.34	340	20.47	347	1.5	100	1.5	4	0	981.5	NA	0.0000		9999	460	0	0	0
2019/04/28 12:45:04	BASE	16.00	345	20.47	347	1.5	100	1.5	4	0	981.6	NA	0.0000		9999	430	0	0	0
2019/04/28 12:46:05	BASE	17.33	348	21.14	346	1.5	100	1.5	4	0	981.5	NA	0.0000		9999	460	0	0	0
2019/04/28 12:47:05	BASE	18.76	347	21.14	346	1.5	100	1.5	4	0	981.5	NA	0.0000		9999	430	0	0	0
2019/04/28 12:48:04	BASE	18.68	344	21.14	346	1.5	100	1.5	4	0	981.6	NA	0.0000		9999	430	0	0	0
2019/04/28 12:49:04	BASE	18.71	342	21.14	346	1.5	100	1.5	5	0	981.6	NA	0.0000		9999	390	0	0	0
2019/04/28 12:50:04	BASE	17.22	344	21.14	346	1.5	100	1.5	5	0	981.6	NA	0.0000		9999	390	0	0	0
2019/04/28 12:51:05	BASE	16.54	348	21.14	346	1.4	100	1.4	5	0	981.6	NA	0.0000		9999	430	0	0	0
2019/04/28 12:52:05	BASE	17.54	349	21.14	346	1.4	100	1.4	5	0	981.6	NA	0.0000		9999	390	0	0	0
2019/04/28 12:53:04	BASE	17.59	350	21.14	346	1.4	100	1.4	5	0	981.6	NA	0.0000		9999	360	0	0	0
2019/04/28 12:54:05	BASE	16.41	350	21.14	346	1.4	100	1.4	6	0	981.6	NA	0.0000		9999	360	0	0	0
2019/04/28 12:55:05	BASE	16.27	346	21.14	346	1.4	100	1.4	6	0	981.6	NA	0.0000		9999	360	0	0	0
2019/04/28 12:56:04	BASE	17.80	345	20.89	341	1.4	100	1.4	7	0	981.5	NA	0.0000		9999	360	0	0	0
2019/04/28 12:57:04	BASE	17.49	348	20.89	341	1.4	100	1.4	8	0	981.5	NA	0.0000		9999	360	0	0	0
2019/04/28 12:58:04	BASE	15.86	348	20.17	350	1.4	100	1.4	8	0	981.6	NA	0.0000		9999	390	0	0	0
2019/04/28 12:59:06	BASE	14.62	349	20.17	350	1.4	100	1.4	8	0	981.6	NA	0.0000		9999	430	0	0	0
2019/04/28 13:00:01	BASE	14.79	351	20.17	350	1.4	100	1.4	8	0	981.6	NA	0.0000		9999	390	0	0	0
2019/04/28 13:01:04	BASE	15.35	351	20.17	350	1.4	100	1.4	8	0	981.6	NA	0.0000		9999	430	0	0	0
2019/04/28 13:02:05	BASE	15.42	351	19.75	344	1.4	100	1.4	8	0	981.6	NA	0.0000		9999	460	0	0	0
2019/04/28 13:03:05	BASE	16.80	351	19.75	344	1.4	100	1.4	7	0	981.5	NA	0.0000		9999	460	0	0	0
2019/04/28 13:04:04	BASE	16.55	353	19.75	344	1.5	100	1.5	8	0	981.5	NA	0.0000		9999	460	0	0	0
2019/04/28 13:05:04	BASE	15.19	348	19.75	344	1.5	100	1.5	8	0	981.6	NA	0.0000		9999	790	0	0	0
2019/04/28 13:06:04	BASE	14.86	345	19.03	353	1.5	100	1.5	9	0	981.6	NA	0.0000		9999	1150	0	0	0
2019/04/28 13:07:04	BASE	15.06	349	18.98	348	1.5	100	1.5	10	0	981.6	NA	0.0000		9999	1150	0	0	0
2019/04/28 13:08:04	BASE	15.08	346	18.98	348	1.5	100	1.5	11	0	981.6	NA	0.0000		9999	1150	0	0	0
2019/04/28 13:09:04	BASE	14.55	345	18.98	348	1.5	100	1.5	12	0	981.6	NA	0.0000		9999	1120	0	0	0
2019/04/28 13:10:04	BASE	15.82	350	18.98	348	1.5	100	1.5	12	0	981.5	NA	0.0000		9999	1310	1870	0	0
2019/04/28 13:11:05	BASE	16.91	354	18.98	348	1.5	100	1.5	13	0	981.6	NA	0.0000		9999	1310	2000	0	0
2019/04/28 13:12:04	BASE	16.36	354	18.98	348	1.5	100	1.5	13	0	981.6	NA	0.0000		9999	1250	1870	0	0
2019/04/28 13:13:04	BASE	16.34	354	19.14	348	1.5	100	1.5	14	0	981.5	NA	0.0000		9999	1350	0	0	0
2019/04/28 13:14:04	BASE	16.37	350	19.14	348	1.5	100	1.5	14	0	981.6	NA	0.0000		9999	1210	0	0	0
2019/04/28 13:15:05	BASE	15.69	346	19.14	348	1.5	100	1.5	14	0	981.6	NA	0.0000		9999	1310	0	0	0
2019/04/28 13:16:05	BASE	15.43	350	19.14	348	1.5	100	1.5	14	0	981.6	NA	0.0000		9999	1310	1940	0	0
2019/04/28 13:17:04	BASE	16.79	353	19.29	354	1.5	100	1.5	14	0	981.5	NA	0.0000		9999	490	0	0	0
2019/04/28 13:18:04	BASE	17.08	351	19.29	354	1.5	100	1.5	15	0	981.6	NA	0.0000		9999	460	0	0	0
2019/04/28 13:19:05	BASE	15.48	350	19.29	354	1.5	100	1.5	16	0	981.6	NA	0.0000		9999	1180	0	0	0
2019/04/28 13:20:04	BASE	15.79	350	19.29	354	1.5	100	1.5	17	0	981.6	NA	0.0000		9999	1120	0	0	0
2019/04/28 13:21:05	BASE	16.30	350	19.29	354	1.5	100	1.5	18	0	981.6	NA	0.0000		9999	1150	2100	0	0
2019/04/28 13:22:04	BASE	15.74	351	19.29	354	1.5	100	1.5	18	0	981.6	NA	0.0000		9999	1900	0	0	0
2019/04/28 13:23:05	BASE	15.18	347	19.29	354	1.5	100	1.5	18	0	981.6	NA	0.0000		9999	1250	2030	0	0
2019/04/28 13:24:04	BASE	14.74	345	19.29	354	1.5	100	1.5	18	0	981.6	NA	0.0000		9999	1180	1640	0	0
2019/04/28 13:25:04	BASE	14.70	348	19.29	354	1.5	100	1.5	19	0	981.6	NA	0.0000		9999	1210	0	0	0
2019/04/28 13:26:05	BASE	14.43	348	19.29	354	1.5	100	1.5	19	0	981.6	NA	0.0000		9999	1150	0	0	0
2019/04/28 13:27:05	BASE	15.40	349	18.78	348	1.5	100	1.5	19	0	981.5	NA	0.0000		9999	1180	0	0	0
2019/04/28 13:28:04	BASE	15.62	351	18.78	348	1.5	100	1.5	20	0	981.6	NA	0.0000		9999	560	0	0	0
2019/04/28 13:29:05	BASE	14.57	348	18.78	348	1.5	100	1.5	21	0	981.6	NA	0.0000		9999	1250	2130	0	0
2019/04/28 13:30:04	BASE	14.76	344	18.78	348	1.5	100	1.5	21	0	981.6	NA	0.0000	UP	9999	1180	2170	0	0
2019/04/28 13:31:05	BASE	14.36	343	18.78	348	1.5	100	1.5	22	0	981.6	NA	0.0000	UP	9999	1180	1970	0	0
2019/04/28 13:32:05	BASE	14.87	346	18.78	348	1.5	100	1.5	21	0	981.6	NA	0.0000	UP	9999	1540	2000	2660	0
2019/04/28 13:33:04	BASE	15.68	343	18.78	348	1.5	100	1.5	21	0	981.6	NA	0.0000	UP	9999	1310	2660	0	0
2019/04/28 13:34:04	BASE	15.71	341	18.78	348	1.5	100	1.5	21	0	981.6	NA	0.0000	UP	9999	1310	2100	0	0
2019/04/28 13:35:05	BASE	15.76	341	18.78	348	1.5	100	1.5	19	0	981.6	NA	0.0000	UP	9999	1380	2300	0	0
2019/04/28 13:36:05	BASE	14.60	342	18.78	348	1.6	100	1.6	19	0	981.6	NA	0.0000	UP	9999	1310	2200	0	0
2019/04/28 13:37:05	BASE	13.94	341	18.01	355	1.6	100	1.6	19	0	981.6	NA	0.0000	UP	9999	1380	2200	0	0
2019/04/28 13:38:04	BASE	14.79	342	18.01	355	1.6	100	1.6	19	0	981.6	NA	0.0000	UP	9999	2130	0	0	0
2019/04/28 13:39:05	BASE	15.66	344	18.01	355	1.6	100	1.6	19	0	981.6	NA	0.0000		9999	1510	2130	0	0
2019/04/28 13:40:04	BASE	16.07	344	18.11	354	1.6	100	1.6	19	0	981.6	NA	0.0000		9999	1510	0	0	0
2019/04/28 13:41:03	BASE	16.50	345	19.29	346	1.6	100	1.6	18	0	981.6	NA	0.0000		9999	2000	0	0	0
2019/04/28 13:42:04	BASE	16.45	346	19.29	346	1.6	100	1.6	17	0	981.6	NA	0.0000		9999	1350	2130	0	0
2019/04/28 13:43:05	BASE	16.26	344	19.60	346	1.6	100	1.6	16	0	981.7	NA	0.0000		9999	1120	0	0	0
2019/04/28 13:44:04	BASE	16.90	342	19.60	338	1.6	100	1.6	16	0	981.6	NA	0.0000		9999	1150	0	0	0
2019/04/28 13:45:05	BASE	17.38	343	19.60	338	1.6	100	1.6	17	0	981.6	NA	0.0000		9999	1150	0	0	0
2019/04/28 13:46:04	BASE	16.80	343	19.60	338	1.6	100	1.6	17	0	981.6	NA	0.0000		9999	1120	0	0	0
2019/04/28 13:47:05	BASE	15.69	342	19.60	338	1.5	100	1.5	17	0	981.7	NA	0.0000		9999	1210	2130	0	0
2019/04/28 13:48:04	BASE	14.01	338	19.60	338	1.5	100	1.5	17	0	981.7	NA	0.0000		9999	1210	2100	0	0
2019/04/28 13:49:04	BASE	13.26	338	19.60	338	1.5	100	1.5	17	0	981.7	NA	0.0000		9999	1250	2200	0	0
2019/04/28 13:50:04	BASE	13.33	339	19.60	338	1.5	100	1.5	18	0	981.7	NA	0.0000		9999	1350	1900	0	0
2019/04/28 13:51:05	BASE	12.96	339	19.60	338	1.5	100	1.5	19	0	981.7	NA	0.0000		9999	1180	1940	0	0
2019/04/28 13:52:04	BASE	13.11	342	19.60	338	1.4	100	1.4	19	0	981.7	NA	0.0000		9999	1280	2260	0	0
2019/04/28 13:53:05	BASE	13.03	344	19.60	338	1.4	100	1.4	20	0	981.7	NA	0.0000		9999	1410	2300	0	0
2019/04/28 13:54:04	BASE	12.14	342	19.09	337	1.4	100	1.4	20	0	981.7	NA	0.0000		9999	1310	2260	2920	0
2019/04/28 13:55:05	BASE	12.37	343	17.65	341	1.5	100	1.5	19	0	981.7	NA	0.0000		9999	1410	3310	0	0
2019/04/28 13:56:04	BASE	14.11	343	18.57	338	1.5	100	1.5	18	0	981.6	NA	0.0000		9999	1350	0	0	0
2019/04/28 13:57:04	BASE	14.23	340	18.57	338	1.5	100	1.5	18	0	981.7	NA	0.0000		9999	1440	0	0	0
2019/04/28 13:58:04	BASE	13.96	339	18.57	338	1.5	100	1.5	18	0	981.7	NA	0.0000		9999	1410	0	0	0
2019/04/28 13:59:06	BASE	14.85	338	18.57	338	1.5	100	1.5	18	0	981.6	NA	0.0000		9999	1510	0	0	0
2019/04/28 14:00:01	BASE	16.57	337	19.24	338	1.6	100	1.6	19	0	981.6	NA	0.0000		9999	1440	0	0	0
2019/04/28 14:01:04	BASE	17.76	335	19.24	338	1.6	100	1.6	19	0	981.6	NA	0.0000		9999	1480	2070	0	0
2019/04/28 14:02:04	BASE	16.80	337	19.24	338	1.6	100	1.6	20	0	981.6	NA	0.0000		9999	1570	1970	0	0
2019/04/28 14:03:05	BASE	15.30	338	19.24	338	1.7	100	1.7	20	0	981.6	NA	0.0000		9999	1540	2030	0	0
2019/04/28 14:04:04	BASE	15.08	337	19.24	338	1.7	100	1.7	20	0	981.6	NA	0.0000		9999	1710	2200	0	0
2019/04/28 14:05:07	BASE	15.29	338	19.24	338	1.7	100	1.7	20	0	981.6	NA	0.0000		9999	1670	0	0	0
2019/04/28 14:06:04	BASE	15.33	342	19.24	338	1.7	100	1.7	21	0	981.6	NA	0.0000		9999	1710	0	0	0
2019/04/28 14:07:04	BASE	15.25	347	19.24	338	1.7	100	1.7	21	0	981.5	NA	0.0000		9999	1740	0	0	0
2019/04/28 14:08:05	BASE	15.66	343	19.24	338	1.7	100	1.7	21	0	981.5	NA	0.0000		9999	1670	0	0	0
2019/04/28 14:09:04	BASE	15.65	339	19.24	338	1.7	100	1.7	22	0	981.5	NA	0.0000		9999	1610	0	0	0
2019/04/28 14:10:04	BASE	15.07	340	18.78	348	1.8	100	1.8	22	0	981.5	NA	0.0000		9999	1710	0	0	0
2019/04/28 14:11:06	BASE	14.70	342	18.78	348	1.8	100	1.8	22	0	981.6	NA	0.0000		9999	1570	0	0	0
2019/04/28 14:12:05	BASE	14.99	343	18.78	348	1.8	100	1.8	22	0	981.5	NA	0.0000		9999	1570	0	0	0
2019/04/28 14:13:05	BASE	16.35	345	18.78	348	1.8	100	1.8	22	0	981.5	NA	0.0000		9999	1440	0	0	0
2019/04/28 14:14:05	BASE	15.81	342	18.78	348	1.8	100	1.8	23	0	981.6	NA	0.0000		9999	1380	0	0	0
2019/04/28 14:15:06	BASE	15.32	338	18.78	348	1.8	100	1.8	23	0	981.5	NA	0.0000		9999	1440	0	0	0
2019/04/28 14:16:04	BASE	16.26	340	18.42	345	1.8	100	1.8	24	0	981.5	NA	0.0000		9999	1440	0	0	0
2019/04/28 14:17:04	BASE	15.74	337	18.42	345	1.8	100	1.8	25	0	981.5	NA	0.0000		9999	1480	0	0	0
2019/04/28 14:18:05	BASE	15.51	340	20.27	344	1.8	100	1.8	26	0	981.5	NA	0.0000		9999	1540	2230	0	0
2019/04/28 14:19:05	BASE	15.10	341	20.27	344	1.8	100	1.8	28	0	981.6	NA	0.0000		9999	1570	2230	0	0
2019/04/28 14:20:04	BASE	14.66	342	20.27	344	1.8	100	1.8	30	0	981.5	NA	0.0000		9999	1570	2170	0	0
2019/04/28 14:21:05	BASE	14.02	341	20.27	344	1.8	100	1.8	31	0	981.6	NA	0.0000		9999	1570	2200	0	0
2019/04/28 14:22:04	BASE	12.95	340	20.27	344	1.8	100	1.8	30	0	981.6	NA	0.0000		9999	1670	2260	0	0
2019/04/28 14:23:06	BASE	13.12	340	20.27	344	1.8	100	1.8	29	0	981.6	NA	0.0000		9999	1640	2230	0	0
2019/04/28 14:24:04	BASE	12.61	338	20.27	344	1.8	100	1.8	27	0	981.6	NA	0.0000		9999	1670	2230	0	0
2019/04/28 14:25:05	BASE	12.84	337	20.27	344	1.7	100	1.7	26	0	981.6	NA	0.0000		9999	1740	2230	0	0
2019/04/28 14:26:05	BASE	13.39	335	20.27	344	1.7	100	1.7	27	0	981.5	NA	0.0000		9999	1670	2260	0	0
2019/04/28 14:27:04	BASE	13.10	333	20.27	344	1.8	100	1.8	28	0	981.5	NA	0.0000		9999	1710	0	0	0
2019/04/28 14:28:04	BASE	13.17	333	17.34	347	1.8	100	1.8	30	0	981.5	NA	0.0000		9999	2260	0	0	0
2019/04/28 14:29:04	BASE	12.09	329	17.34	347	1.8	100	1.8	32	0	981.5	NA	0.0000		9999	2230	0	0	0
2019/04/28 14:30:04	BASE	11.17	326	17.18	355	1.8	100	1.8	35	0	981.5	NA	0.0000		9999	2260	0	0	0
2019/04/28 14:31:05	BASE	11.38	327	17.18	355	1.8	100	1.8	36	0	981.5	NA	0.0000		9999	2300	0	0	0
2019/04/28 14:32:04	BASE	11.65	326	17.18	355	1.8	100	1.8	35	0	981.5	NA	0.0000		9999	2360	0	0	0
2019/04/28 14:33:05	BASE	12.90	327	17.18	355	1.8	100	1.8	33	0	981.5	NA	0.0000		9999	2300	0	0	0
2019/04/28 14:34:04	BASE	13.04	323	17.18	355	1.8	100	1.8	32	0	981.5	NA	0.0000		9999	2360	0	0	0
2019/04/28 14:35:05	BASE	13.14	320	15.43	332	1.8	100	1.8	31	0	981.4	NA	0.0000		9999	2360	0	0	0
2019/04/28 14:36:05	BASE	12.93	320	15.43	332	1.9	100	1.9	30	0	981.5	NA	0.0000		9999	2360	0	0	0
2019/04/28 14:37:04	BASE	11.70	317	15.43	332	1.9	100	1.9	30	0	981.5	NA	0.0000		9999	2400	0	0	0
2019/04/28 14:38:04	BASE	11.18	316	15.28	328	1.9	100	1.9	30	0	981.5	NA	0.0000		9999	2330	0	0	0
2019/04/28 14:39:05	BASE	10.94	316	15.28	328	1.8	100	1.8	30	0	981.5	NA	0.0000		9999	2400	0	0	0
2019/04/28 14:40:05	BASE	10.60	313	15.28	328	1.7	100	1.7	30	0	981.5	NA	0.0000		9999	2400	0	0	0
2019/04/28 14:41:04	BASE	10.53	312	15.28	328	1.7	100	1.7	29	0	981.5	NA	0.0000		9999	2400	0	0	0
2019/04/28 14:42:04	BASE	11.07	314	15.28	328	1.6	100	1.6	29	0	981.4	NA	0.0000		9999	2400	0	0	0
2019/04/28 14:43:05	BASE	11.96	320	15.07	323	1.6	100	1.6	29	0	981.4	NA	0.0000		9999	2430	0	0	0
2019/04/28 14:44:04	BASE	11.02	324	15.07	323	1.7	100	1.7	28	0	981.4	NA	0.0000		9999	2430	0	0	0
2019/04/28 14:45:04	BASE	9.47	317	13.94	327	1.7	100	1.7	26	0	981.4	NA	0.0000		9999	2460	0	0	0
2019/04/28 14:46:04	BASE	10.12	312	13.89	324	1.7	100	1.7	24	0	981.4	NA	0.0000		9999	2400	0	0	0
2019/04/28 14:47:05	BASE	11.21	317	13.89	324	1.7	100	1.7	23	0	981.4	NA	0.0000		9999	2430	0	0	0
2019/04/28 14:48:05	BASE	11.50	313	13.89	324	1.7	100	1.7	22	0	981.4	NA	0.0000		9999	2430	0	0	0
2019/04/28 14:49:04	BASE	11.44	310	13.89	324	1.7	100	1.7	21	0	981.5	NA	0.0000		9999	2490	0	0	0
2019/04/28 14:50:04	BASE	11.12	306	13.89	324	1.6	100	1.6	19	0	981.5	NA	0.0000		9999	2460	0	0	0
2019/04/28 14:51:04	BASE	11.67	302	13.89	324	1.6	100	1.6	18	0	981.5	NA	0.0000		9999	2430	0	0	0
2019/04/28 14:52:05	BASE	11.86	305	13.89	324	1.6	100	1.6	17	0	981.5	NA	0.0000		9999	2430	0	0	0
2019/04/28 14:53:05	BASE	11.82	305	13.89	324	1.5	100	1.5	17	0	981.5	NA	0.0000		9999	2430	0	0	0
2019/04/28 14:54:04	BASE	11.39	305	13.58	313	1.5	100	1.5	17	0	981.5	NA	0.0000		9999	2400	0	0	0
2019/04/28 14:55:05	BASE	10.95	306	13.58	313	1.5	100	1.5	17	0	981.5	NA	0.0000		9999	2490	0	0	0
2019/04/28 14:56:04	BASE	11.47	311	14.35	322	1.5	100	1.5	18	0	981.4	NA	0.0000		9999	2360	0	0	0
2019/04/28 14:57:05	BASE	11.92	310	14.35	322	1.5	100	1.5	19	0	981.4	NA	0.0000		9999	2430	0	0	0
2019/04/28 14:58:04	BASE	12.44	303	14.35	322	1.5	100	1.5	19	0	981.3	NA	0.0000		9999	2430	0	0	0
2019/04/28 14:59:05	BASE	13.11	304	14.35	322	1.5	100	1.5	18	0	981.4	NA	0.0000		9999	2460	0	0	0
2019/04/28 15:00:01	BASE	13.04	305	14.35	322	1.5	100	1.5	18	0	981.4	NA	0.0000		9999	2360	0	0	0
2019/04/28 15:01:04	BASE	12.09	309	14.35	322	1.4	100	1.4	17	0	981.4	NA	0.0000		9999	2330	0	0	0
2019/04/28 15:02:04	BASE	11.14	309	14.35	322	1.4	100	1.4	17	0	981.4	NA	0.0000		9999	2230	0	0	0
2019/04/28 15:03:04	BASE	11.71	306	14.35	322	1.4	100	1.4	17	0	981.3	NA	0.0000		9999	2100	0	0	0
2019/04/28 15:04:04	BASE	12.51	305	14.82	312	1.4	100	1.4	17	0	981.3	NA	0.0000		9999	2070	0	0	0
2019/04/28 15:05:05	BASE	12.97	307	14.82	312	1.4	100	1.4	17	0	981.2	NA	0.0000		9999	560	0	0	0
2019/04/28 15:06:04	BASE	12.74	313	14.82	312	1.4	100	1.4	17	0	981.2	NA	0.0000		9999	1970	0	0	0
2019/04/28 15:07:05	BASE	11.56	320	14.82	312	1.5	100	1.5	17	0	981.2	NA	0.0000		9999	2030	0	0	0
2019/04/28 15:08:04	BASE	11.01	320	14.82	312	1.5	100	1.5	17	0	981.2	NA	0.0000		9999	620	0	0	0
2019/04/28 15:09:03	BASE	11.03	326	14.82	312	1.5	100	1.5	18	0	981.2	NA	0.0000		9999	790	0	0	0
2019/04/28 15:10:04	BASE	11.83	327	14.82	312	1.6	100	1.6	19	0	981.2	NA	0.0000		9999	0	0	0	2850
2019/04/28 15:11:04	BASE	12.47	323	15.07	321	1.6	100	1.6	20	0	981.1	NA	0.0000		9999	2030	0	0	0
2019/04/28 15:12:04	BASE	12.91	328	15.38	331	1.7	100	1.7	22	0	981.1	NA	0.0000		9999	0	0	0	3080
2019/04/28 15:13:05	BASE	13.33	331	15.48	320	1.8	100	1.8	24	0	981.1	NA	0.0000		9999	1280	0	0	0
2019/04/28 15:14:04	BASE	13.25	327	15.48	320	1.9	100	1.9	25	0	981.0	NA	0.0000		9999	0	0	0	3220
2019/04/28 15:15:04	BASE	13.28	326	15.48	320	1.9	100	1.9	27	0	981.0	NA	0.0000		9999	0	0	0	3250
2019/04/28 15:16:04	BASE	14.30	325	16.31	324	2.0	100	2.0	26	0	981.0	NA	0.0000		9999	920	0	0	0
2019/04/28 15:17:05	BASE	13.76	322	16.31	324	2.0	100	2.0	27	0	981.0	NA	0.0000		9999	820	0	0	0
2019/04/28 15:18:04	BASE	13.46	321	16.31	324	2.0	100	2.0	27	0	980.9	NA	0.0000		9999	850	0	0	0
2019/04/28 15:19:04	BASE	14.80	321	17.90	325	2.1	100	2.1	28	0	980.9	NA	0.0000		9999	0	0	0	3280
2019/04/28 15:20:04	BASE	14.41	326	17.90	325	2.1	100	2.1	29	0	981.0	NA	0.0000		9999	1080	0	0	0
2019/04/28 15:21:04	BASE	14.32	332	17.90	325	2.1	100	2.1	30	0	981.0	NA	0.0000		9999	1120	0	0	0
2019/04/28 15:22:04	BASE	13.88	334	17.90	325	2.1	100	2.1	31	0	981.0	NA	0.0000		9999	1150	0	0	0
2019/04/28 15:23:04	BASE	12.14	333	17.90	325	2.1	100	2.1	30	0	981.1	NA	0.0000		9999	1150	0	0	0
2019/04/28 15:24:04	BASE	11.61	333	17.90	325	2.1	100	2.1	29	0	981.2	NA	0.0000		9999	850	0	0	0
2019/04/28 15:25:05	BASE	11.73	338	17.90	325	2.1	100	2.1	28	0	981.2	NA	0.0000	UP	9999	820	0	0	0
2019/04/28 15:26:05	BASE	12.07	340	17.90	325	2.0	100	2.0	27	0	981.2	NA	0.0000	UP	9999	1050	0	0	0
2019/04/28 15:27:05	BASE	11.43	338	17.90	325	2.0	100	2.0	25	0	981.2	NA	0.0000	UP	9999	1120	0	0	0
2019/04/28 15:28:04	BASE	11.03	333	17.90	325	2.0	100	2.0	24	0	981.2	NA	0.0000	UP	9999	1250	2560	0	0
2019/04/28 15:29:05	BASE	11.76	327	17.34	333	2.0	100	2.0	23	0	981.2	NA	0.0000	UP	9999	1310	2430	0	0
2019/04/28 15:30:05	BASE	11.91	331	17.34	333	2.0	100	2.0	23	0	981.2	NA	0.0000	UP	9999	1280	2260	0	0
2019/04/28 15:31:04	BASE	10.78	340	14.46	336	2.0	100	2.0	23	0	981.2	NA	0.0000	UP	9999	2100	0	0	0
2019/04/28 15:32:05	BASE	10.30	344	14.46	336	2.0	100	2.0	23	0	981.2	NA	0.0000	UP	9999	1080	0	0	0
2019/04/28 15:33:05	BASE	11.01	341	14.46	336	1.9	100	1.9	23	0	981.2	NA	0.0000		9999	1250	0	0	0
2019/04/28 15:34:04	BASE	11.42	349	14.46	336	1.9	100	1.9	23	0	981.2	NA	0.0000	UP	9999	750	2300	0	0
2019/04/28 15:35:04	BASE	11.24	352	13.94	332	1.9	100	1.9	23	0	981.2	NA	0.0000		9999	920	2070	0	0
2019/04/28 15:36:04	BASE	11.62	340	13.94	332	2.0	100	2.0	24	0	981.2	NA	0.0000		9999	720	2130	0	0
2019/04/28 15:37:04	BASE	12.28	334	14.25	330	2.0	100	2.0	25	0	981.2	NA	0.0000	UP	9999	2030	0	0	0
2019/04/28 15:38:04	BASE	12.21	338	14.25	330	2.0	100	2.0	26	0	981.2	NA	0.0000	UP	9999	2070	0	0	0
2019/04/28 15:39:04	BASE	12.67	343	14.56	348	2.0	100	2.0	28	0	981.2	NA	0.0000	UP	9999	590	0	0	0
2019/04/28 15:40:04	BASE	13.28	343	14.82	345	2.0	100	2.0	29	0	981.1	NA	0.0000	UP	9999	0	0	0	3220
2019/04/28 15:41:04	BASE	13.12	341	14.82	345	2.0	100	2.0	29	0	981.2	NA	0.0000	UP	9999	980	0	0	0
2019/04/28 15:42:04	BASE	12.55	338	14.82	345	2.0	100	2.0	28	0	981.2	NA	0.0000	UP	9999	0	0	0	2990
2019/04/28 15:43:04	BASE	12.38	331	14.82	345	2.0	100	2.0	27	0	981.1	NA	0.0000	UP	9999	980	0	0	0
2019/04/28 15:44:04	BASE	13.12	326	14.82	345	2.0	100	2.0	27	0	981.1	NA	0.0000	UP	9999	1020	0	0	0
2019/04/28 15:45:05	BASE	13.51	325	15.48	319	2.0	100	2.0	27	0	981.2	NA	0.0000	UP	9999	1020	0	0	0
2019/04/28 15:46:04	BASE	12.27	332	15.48	319	2.0	100	2.0	28	0	981.2	NA	0.0000	UP	9999	920	0	0	0
2019/04/28 15:47:04	BASE	10.76	341	15.48	319	2.0	100	2.0	27	0	981.2	NA	0.0000	UP	9999	1150	0	0	0
2019/04/28 15:48:04	BASE	9.91	344	15.48	319	2.0	100	2.0	26	0	981.2	NA	0.0000	UP	9999	660	0	0	0
2019/04/28 15:49:05	BASE	10.68	346	15.48	319	2.0	100	2.0	28	0	981.2	NA	0.0000	UP	9999	460	0	0	0
2019/04/28 15:50:04	BASE	11.93	346	15.48	319	2.0	100	2.0	29	0	981.2	NA	0.0000	UP	9999	590	0	0	0
2019/04/28 15:51:04	BASE	12.51	345	16.31	354	2.0	100	2.0	30	0	981.2	NA	0.0000	UP	9999	620	0	0	0
2019/04/28 15:52:04	BASE	12.86	345	16.31	354	2.0	100	2.0	30	0	981.2	NA	0.0000	UP	9999	620	0	0	0
2019/04/28 15:53:05	BASE	12.37	342	16.31	354	2.0	100	2.0	31	0	981.2	NA	0.0000	UP	9999	690	0	0	0
2019/04/28 15:54:05	BASE	11.36	342	16.31	354	2.0	100	2.0	31	0	981.2	NA	0.0000	UP	9999	660	0	0	0
2019/04/28 15:55:05	BASE	11.05	344	16.31	354	2.0	100	2.0	30	0	981.2	NA	0.0000	UP	9999	560	0	0	0
2019/04/28 15:56:04	BASE	11.89	348	16.31	354	2.0	100	2.0	27	0	981.2	NA	0.0000	UP	9999	590	0	0	0
2019/04/28 15:57:04	BASE	11.77	348	16.31	354	2.0	100	2.0	26	0	981.3	NA	0.0000	UP	9999	560	0	0	0
2019/04/28 15:58:03	BASE	11.64	348	16.31	354	2.0	100	2.0	25	0	981.4	NA	0.0000	UP	9999	430	0	0	0
2019/04/28 15:59:06	BASE	10.95	351	16.31	354	2.0	100	2.0	25	0	981.4	NA	0.0000	UP	9999	430	0	0	0
2019/04/28 16:00:01	BASE	10.76	1	16.31	354	2.0	100	2.0	24	0	981.3	NA	0.0000	UP	9999	490	0	0	0
2019/04/28 16:01:04	BASE	11.59	6	15.69	348	2.0	100	2.0	25	0	981.2	NA	0.0000	UP	9999	430	0	0	0
2019/04/28 16:02:04	BASE	11.39	357	14.92	341	2.1	100	2.1	24	0	981.3	NA	0.0000	UP	9999	460	0	0	0
2019/04/28 16:03:04	BASE	10.19	349	13.58	341	2.1	100	2.1	24	0	981.3	NA	0.0000	UP	9999	520	0	0	0
2019/04/28 16:04:04	BASE	10.72	347	13.58	341	2.1	100	2.1	24	0	981.3	NA	0.0000	UP	9999	660	0	0	0
2019/04/28 16:05:04	BASE	10.37	342	13.27	350	2.1	100	2.1	24	0	981.3	NA	0.2540	UP	9999	720	0	0	0
2019/04/28 16:06:04	BASE	9.18	345	13.27	350	2.0	100	2.0	24	0	981.3	NA	0.0000	UP	9999	720	0	0	0
2019/04/28 16:07:05	BASE	9.75	347	13.27	350	2.0	100	2.0	25	0	981.3	NA	0.0000	UP	9999	750	0	0	0
2019/04/28 16:08:04	BASE	9.67	344	13.27	350	2.0	100	2.0	26	0	981.3	NA	0.0000	UP	9999	690	0	0	0
2019/04/28 16:09:05	BASE	8.25	343	13.27	350	2.0	100	2.0	26	0	981.4	NA	0.0000	UP	9999	790	0	0	0
2019/04/28 16:10:04	BASE	7.49	343	13.27	350	2.0	100	2.0	27	0	981.3	NA	0.0000	UP	9999	720	0	0	0
2019/04/28 16:11:03	BASE	8.02	341	13.27	350	1.9	100	1.9	26	0	981.2	NA	0.0000	UP	9999	720	0	0	0
2019/04/28 16:12:04	BASE	8.61	340	13.27	350	1.9	100	1.9	26	0	981.2	NA	0.0000	UP	9999	660	0	0	0
2019/04/28 16:13:05	BASE	8.95	344	13.27	350	1.9	100	1.9	27	0	981.2	NA	0.0000	UP	9999	850	0	0	0
2019/04/28 16:14:04	BASE	8.85	348	12.04	347	1.9	100	1.9	26	0	981.2	NA	0.0000	UP	9999	920	0	0	0
2019/04/28 16:15:05	BASE	8.60	353	12.04	347	1.8	100	1.8	26	0	981.2	NA	0.0000	UP	9999	790	0	0	0
2019/04/28 16:16:04	BASE	10.00	355	12.24	360	1.8	100	1.8	26	0	981.2	NA	0.0000	UP	9999	620	0	0	0
2019/04/28 16:17:05	BASE	11.42	357	13.48	6	1.8	100	1.8	25	0	981.1	NA	0.0000		9999	1120	0	0	0
2019/04/28 16:18:05	BASE	12.15	360	13.48	6	1.9	100	1.9	25	0	981.1	NA	0.0000		9999	850	0	0	0
2019/04/28 16:19:05	BASE	11.78	3	13.48	6	1.9	100	1.9	23	0	981.2	NA	0.0000	UP	9999	0	0	0	2920
2019/04/28 16:20:04	BASE	10.79	8	13.48	6	1.9	100	1.9	21	0	981.2	NA	0.0000	UP	9999	0	0	0	2850
2019/04/28 16:21:05	BASE	11.10	14	13.48	6	2.0	100	2.0	20	0	981.2	NA	0.0000	UP	9999	790	0	0	0
2019/04/28 16:22:05	BASE	11.25	14	13.48	6	2.0	100	2.0	19	0	981.2	NA	0.0000	UP	9999	850	0	0	0
2019/04/28 16:23:05	BASE	10.17	15	13.48	6	2.0	100	2.0	19	0	981.3	NA	0.0000		9999	890	0	0	0
2019/04/28 16:24:04	BASE	9.74	18	13.48	6	2.0	100	2.0	20	0	981.4	NA	0.0000		9999	390	0	0	0
2019/04/28 16:25:05	BASE	9.48	17	13.48	6	2.0	100	2.0	21	0	981.4	NA	0.0000	UP	9999	720	0	0	0
2019/04/28 16:26:04	BASE	8.94	13	13.48	6	2.0	100	2.0	22	0	981.4	NA	0.0000	UP	9999	820	0	0	0
2019/04/28 16:27:04	BASE	8.76	17	13.17	360	2.0	100	2.0	23	0	981.4	NA	0.0000	UP	9999	920	0	0	0
2019/04/28 16:28:04	BASE	8.09	22	13.07	17	2.0	100	2.0	24	0	981.5	NA	0.0000	UP	9999	980	0	0	0
2019/04/28 16:29:04	BASE	8.03	21	13.07	17	2.1	100	2.1	25	0	981.5	NA	0.0000	UP	9999	0	0	0	3540
2019/04/28 16:30:05	BASE	8.28	27	13.07	17	2.1	100	2.1	25	0	981.5	NA	0.0000	UP	9999	0	0	0	3710
2019/04/28 16:31:04	BASE	7.39	38	13.07	17	2.2	100	2.2	26	0	981.6	NA	0.0000	UP	9999	0	0	0	3640
2019/04/28 16:32:05	BASE	6.31	67	12.19	8	2.2	100	2.2	26	0	981.6	NA	0.0000	UP	9999	980	0	0	0
2019/04/28 16:33:05	BASE	6.10	109	11.68	21	2.2	100	2.2	27	0	981.6	NA	0.0000	UP	9999	1150	0	0	0
2019/04/28 16:34:04	BASE	8.62	119	12.91	116	2.0	100	2.0	27	0	981.5	NA	0.0000	UP	9999	1350	0	0	0
2019/04/28 16:35:04	BASE	12.15	114	14.76	111	1.9	100	1.9	28	0	981.4	NA	0.0000		9999	1480	0	0	0
2019/04/28 16:36:04	BASE	13.38	112	14.76	111	1.7	100	1.7	27	0	981.4	NA	0.0000		9999	1480	0	0	0
2019/04/28 16:37:05	BASE	13.46	114	15.28	116	1.6	100	1.6	27	0	981.3	NA	0.0000		3600	1540	0	0	0
2019/04/28 16:38:04	BASE	14.37	114	16.26	111	1.4	100	1.4	26	0	981.2	NA	0.0000	UP BR	1800	1180	0	0	0
2019/04/28 16:39:05	BASE	14.81	113	16.26	111	1.3	100	1.3	25	0	981.2	NA	0.0000	UP BR	1600	460	1640	0	0
2019/04/28 16:40:04	BASE	14.09	112	16.26	111	1.2	100	1.2	23	0	981.3	NA	0.0000	UP BR	1600	430	2590	0	0
2019/04/28 16:41:04	BASE	12.92	111	16.26	111	1.1	100	1.1	22	0	981.4	NA	0.0000	-SN BR	1500	390	0	0	0
2019/04/28 16:42:04	BASE	12.25	112	16.26	111	1.1	100	1.1	22	0	981.4	NA	0.0000	-SN BR	1500	360	0	0	0
2019/04/28 16:43:04	BASE	12.91	112	16.26	111	1.0	100	1.0	20	0	981.3	NA	0.0000	-SN BR	1700	390	1250	0	0
2019/04/28 16:44:04	BASE	12.97	113	16.26	111	0.9	100	0.9	19	0	981.3	NA	0.0000	-SN BR	2100	300	0	0	0
2019/04/28 16:45:05	BASE	12.04	108	16.26	111	0.9	100	0.9	17	0	981.4	NA	0.0000	-SN BR	2000	260	0	0	0
2019/04/28 16:46:06	BASE	11.91	102	16.26	111	0.9	100	0.9	16	0	981.4	NA	0.0000	-SN BR	1800	200	0	0	0
2019/04/28 16:47:05	BASE	12.41	102	16.26	111	0.8	100	0.8	17	0	981.4	NA	0.2540	-SN BR	1600	0	0	0	820
2019/04/28 16:48:05	BASE	12.74	106	15.43	109	0.8	100	0.8	18	0	981.3	NA	0.0000	-SN BR	1500	0	0	0	1250
2019/04/28 16:49:06	BASE	12.45	108	14.82	112	0.7	100	0.7	17	0	981.3	NA	0.0000	-SN BR	1600	260	0	0	0
2019/04/28 16:50:05	BASE	11.38	111	14.40	115	0.7	100	0.7	17	0	981.4	NA	0.0000	-SN BR	1600	0	0	0	720
2019/04/28 16:51:04	BASE	10.08	109	14.40	115	0.7	100	0.7	18	0	981.4	NA	0.0000	-SN BR	1500	200	0	0	0
2019/04/28 16:52:05	BASE	10.02	100	14.40	115	0.6	100	0.6	18	0	981.3	NA	0.0000	-SN BR	1700	0	0	0	690
2019/04/28 16:53:06	BASE	10.02	98	14.25	107	0.6	100	0.6	18	0	981.3	NA	0.0000	-SN BR	1600	200	0	0	0
2019/04/28 16:54:05	BASE	9.88	100	14.25	107	0.6	100	0.6	18	0	981.3	NA	0.0000	-SN BR	1500	0	0	0	750
2019/04/28 16:55:05	BASE	10.05	102	14.25	107	0.6	100	0.6	20	0	981.3	NA	0.0000	-SN BR	1500	0	0	0	690
2019/04/28 16:56:05	BASE	10.63	106	14.25	107	0.6	100	0.6	21	0	981.2	NA	0.0000	-SN BR	1400	0	0	0	1710
2019/04/28 16:57:06	BASE	11.38	112	14.25	107	0.6	100	0.6	22	0	981.2	NA	0.0000	-SN BR	1400	0	0	0	2030
2019/04/28 16:58:06	BASE	12.65	114	14.92	124	0.6	100	0.6	22	0	981.2	NA	0.0000	-SN BR	1500	200	0	0	0
2019/04/28 16:59:06	BASE	14.14	116	15.95	113	0.6	100	0.6	22	0	981.2	NA	0.0000	-SN BR	1500	230	0	0	0
2019/04/28 17:00:01	BASE	14.74	118	15.95	113	0.6	100	0.6	21	0	981.2	NA	0.0000	-SN BR	1300	0	0	0	1770
2019/04/28 17:01:03	BASE	14.76	119	15.95	113	0.6	100	0.6	21	0	981.1	NA	0.0000	-SN BR	1100	0	0	0	2000
2019/04/28 17:02:04	BASE	14.95	118	15.95	113	0.6	100	0.6	21	0	981.1	NA	0.0000	-SN BR	1000	0	0	0	2070
2019/04/28 17:03:05	BASE	15.12	118	15.95	120	0.6	100	0.6	20	0	981.1	NA	0.2540	-SN BR	0900	0	0	0	2230
2019/04/28 17:04:03	BASE	15.20	120	15.95	120	0.6	100	0.6	20	0	981.0	NA	0.0000	-SN BR	0900	0	0	0	2260
2019/04/28 17:05:04	BASE	15.11	122	15.95	120	0.6	100	0.6	19	0	981.0	NA	0.0000	-SN BR	1000	0	0	0	2300
2019/04/28 17:06:04	BASE	14.71	119	15.95	120	0.6	100	0.6	19	0	981.1	NA	0.0000	-SN BR	0900	0	0	0	2100
2019/04/28 17:07:05	BASE	14.36	114	15.95	120	0.6	100	0.6	19	0	981.1	NA	0.0000	+SN BR	0800	0	0	0	1970
2019/04/28 17:08:05	BASE	14.17	113	15.95	120	0.6	100	0.6	19	0	981.1	NA	0.0000	+SN BR	1000	0	0	0	1870
2019/04/28 17:09:04	BASE	13.37	114	15.95	120	0.6	100	0.6	19	0	981.2	NA	0.0000	SN BR	0600	0	0	0	1870
2019/04/28 17:10:04	BASE	12.59	117	15.95	120	0.6	100	0.6	19	0	981.1	NA	0.0000	SN FG	0600	0	0	0	1640
2019/04/28 17:11:04	BASE	12.18	119	15.95	120	0.6	100	0.6	19	0	981.1	NA	0.0000	SN FG	1200	0	0	0	1940
2019/04/28 17:12:04	BASE	12.06	119	15.95	120	0.6	100	0.6	19	0	981.0	NA	0.0000	SN BR	1200	0	0	0	1940
2019/04/28 17:13:05	BASE	11.87	120	15.84	122	0.6	100	0.6	19	0	981.1	NA	0.0000	SN BR	1200	0	0	0	2130
2019/04/28 17:14:04	BASE	10.71	121	15.84	122	0.6	100	0.6	19	0	981.1	NA	0.0000	SN BR	1200	0	0	0	1970
2019/04/28 17:15:05	BASE	10.10	123	15.12	111	0.6	100	0.6	18	0	981.1	NA	0.0000	SN BR	0650	0	0	0	2130
2019/04/28 17:16:04	BASE	10.41	124	15.12	111	0.6	100	0.6	17	0	981.1	NA	0.0000	SN FG	0750	0	0	0	2070
2019/04/28 17:17:04	BASE	10.47	125	14.61	114	0.6	100	0.6	16	0	981.1	NA	0.0000	SN BR	1700	260	1740	0	0
2019/04/28 17:18:03	BASE	9.45	123	13.27	117	0.6	100	0.6	15	0	981.2	NA	0.0000	SN BR	0900	230	0	0	0
2019/04/28 17:19:05	BASE	8.26	119	13.27	117	0.5	100	0.5	14	0	981.2	NA	0.0000	SN BR	0700	0	0	0	2070
2019/04/28 17:20:04	BASE	8.93	115	13.27	117	0.5	100	0.5	13	0	981.2	NA	0.0000	SN BR	0700	230	0	0	0
2019/04/28 17:21:04	BASE	9.58	114	13.27	117	0.5	100	0.5	13	0	981.2	NA	0.0000	SN BR	1000	0	0	0	1080
2019/04/28 17:22:04	BASE	9.25	119	13.12	121	0.5	100	0.5	13	0	981.2	NA	0.0000	-SN BR	1000	0	0	0	1380
2019/04/28 17:23:05	BASE	9.40	123	12.04	132	0.5	100	0.5	12	0	981.2	NA	0.0000	-SN FG	0650	0	0	0	1870
2019/04/28 17:24:04	BASE	9.25	119	12.04	132	0.5	100	0.5	12	0	981.2	NA	0.0000	-SN FG	0650	0	0	0	1870
2019/04/28 17:25:04	BASE	8.97	119	12.04	132	0.5	100	0.5	12	0	981.2	NA	0.0000	-SN FG	0650	0	0	0	1670
2019/04/28 17:26:04	BASE	9.05	121	12.04	132	0.5	100	0.5	12	0	981.2	NA	0.0000	-SN FG	0650	0	0	0	1610
2019/04/28 17:27:04	BASE	9.64	123	11.32	114	0.5	100	0.5	11	0	981.2	NA	0.0000	-SN FG	0600	0	0	0	1570
2019/04/28 17:28:04	BASE	10.11	122	11.32	114	0.5	100	0.5	11	0	981.2	NA	0.0000	UP FG	0600	0	0	0	1540
2019/04/28 17:29:04	BASE	9.91	122	11.32	114	0.5	100	0.5	11	0	981.2	NA	0.0000	UP FG	0450	0	0	0	1440
2019/04/28 17:30:04	BASE	10.06	121	11.11	123	0.5	100	0.5	11	0	981.2	NA	0.0000	UP FG	0300	0	0	0	1280
2019/04/28 17:31:04	BASE	10.31	121	11.11	123	0.5	100	0.5	12	0	981.1	NA	0.0000	UP FG	0400	0	0	0	1410
2019/04/28 17:32:04	BASE	10.49	122	11.11	130	0.5	100	0.5	12	0	981.1	NA	0.0000	UP FG	1100	0	0	0	1440
2019/04/28 17:33:05	BASE	10.11	121	11.11	130	0.5	100	0.5	12	0	981.1	NA	0.0000	SN FG	0500	0	0	0	1280
2019/04/28 17:34:04	BASE	9.47	120	11.11	130	0.6	100	0.6	13	0	981.1	NA	0.0000	SN FG	0300	0	0	0	1350
2019/04/28 17:35:05	BASE	8.85	114	11.11	130	0.6	100	0.6	13	0	981.1	NA	0.0000	SN FG	0350	0	0	0	1410
2019/04/28 17:36:04	BASE	8.71	110	11.11	130	0.6	100	0.6	13	0	981.0	NA	0.0000	SN FG	0700	0	0	0	1570
2019/04/28 17:37:04	BASE	8.96	117	11.11	130	0.6	100	0.6	12	0	981.0	NA	0.0000	SN FG	1600	0	0	0	1770
2019/04/28 17:38:05	BASE	9.23	125	11.11	130	0.6	100	0.6	12	0	981.0	NA	0.0000	SN FG	0750	0	0	0	1770
2019/04/28 17:39:04	BASE	9.05	127	11.11	130	0.6	100	0.6	12	0	981.0	NA	0.0000	SN FG	0550	0	0	0	1640
2019/04/28 17:40:03	BASE	8.64	126	11.11	130	0.6	100	0.6	13	0	981.0	NA	0.0000	SN FG	0800	230	0	0	0
2019/04/28 17:41:04	BASE	8.72	119	11.11	130	0.6	100	0.6	13	0	981.0	NA	0.0000	SN FG	1600	0	0	0	1740
2019/04/28 17:42:04	BASE	9.03	115	10.85	132	0.6	100	0.6	13	0	981.0	NA	0.0000	SN FG	1500	0	0	0	1970
2019/04/28 17:43:04	BASE	9.24	116	10.85	132	0.6	100	0.6	13	0	981.0	NA	0.0000	SN FG	1500	0	0	0	1900
2019/04/28 17:44:05	BASE	8.71	120	10.85	132	0.6	100	0.6	13	0	981.0	NA	0.0000	SN FG	1500	0	0	0	1800
2019/04/28 17:45:04	BASE	8.83	122	10.85	132	0.6	100	0.6	12	0	981.0	NA	0.0000	SN BR	1500	0	0	0	1740
2019/04/28 17:46:04	BASE	9.41	124	10.85	132	0.6	100	0.6	12	0	981.0	NA	0.0000	-SN BR	1400	0	0	0	2170
2019/04/28 17:47:04	BASE	9.58	129	11.11	133	0.6	100	0.6	12	0	980.9	NA	0.0000	-SN BR	1400	0	0	0	2130
2019/04/28 17:48:04	BASE	9.42	130	11.11	133	0.6	100	0.6	12	0	980.9	NA	0.0000	-SN BR	0700	0	0	0	2070
2019/04/28 17:49:04	BASE	8.88	126	11.11	133	0.6	100	0.6	12	0	980.9	NA	0.0000	-SN BR	0750	0	0	0	2230
2019/04/28 17:50:04	BASE	8.79	124	11.11	133	0.6	100	0.6	11	0	980.9	NA	0.0000	-SN BR	1000	230	0	0	0
2019/04/28 17:51:04	BASE	8.83	123	11.11	133	0.6	100	0.6	11	0	980.9	NA	0.0000	-SN BR	1000	230	0	0	0
2019/04/28 17:52:05	BASE	9.61	125	11.11	133	0.6	100	0.6	11	0	980.8	NA	0.2540	-SN BR	1700	200	0	0	0
2019/04/28 17:53:04	BASE	9.89	128	11.11	133	0.6	100	0.6	11	0	980.8	NA	0.0000	-SN BR	0800	0	0	0	1940
2019/04/28 17:54:04	BASE	9.45	130	11.11	133	0.6	100	0.6	11	0	980.8	NA	0.0000	SN BR	0550	0	0	0	2100
2019/04/28 17:55:04	BASE	9.40	131	11.11	133	0.6	100	0.6	12	0	980.8	NA	0.0000	SN FG	0450	0	0	0	2130
2019/04/28 17:56:04	BASE	9.26	134	11.11	133	0.6	100	0.6	12	0	980.8	NA	0.0000	SN FG	0450	0	0	0	2070
2019/04/28 17:57:04	BASE	8.95	136	10.91	131	0.6	100	0.6	12	0	980.8	NA	0.0000	-SN FG	0500	0	0	0	2300
2019/04/28 17:58:04	BASE	8.32	136	10.91	131	0.6	100	0.6	12	0	980.8	NA	0.0000	-SN FG	0800	230	0	0	0
2019/04/28 17:59:06	BASE	7.61	138	10.91	131	0.6	100	0.6	13	0	980.8	NA	0.0000	-SN FG	1000	230	0	0	0
2019/04/28 18:00:01	BASE	7.85	137	10.91	131	0.6	100	0.5	13	0	980.8	NA	0.0000	-SN FG	1000	230	0	0	0
2019/04/28 18:01:04	BASE	8.48	134	10.91	131	0.5	100	0.5	13	0	980.8	NA	0.0000	SN FG	1700	0	0	0	1670
2019/04/28 18:02:04	BASE	8.64	131	10.65	133	0.5	100	0.5	13	0	980.8	NA	0.0000	SN FG	1600	0	0	0	1710
2019/04/28 18:03:05	BASE	8.70	133	10.65	133	0.5	100	0.5	13	0	980.7	NA	0.0000	SN FG	0800	0	0	0	1480
2019/04/28 18:04:04	BASE	8.82	136	10.65	133	0.5	100	0.5	13	0	980.7	NA	0.0000	SN FG	0600	0	0	0	1440
2019/04/28 18:05:04	BASE	8.56	138	9.88	132	0.5	100	0.5	13	0	980.7	NA	0.0000	SN FG	0800	230	0	0	0
2019/04/28 18:06:04	BASE	7.50	141	9.83	132	0.5	100	0.5	13	0	980.7	NA	0.0000	SN BR	1500	0	0	0	1410
2019/04/28 18:07:05	BASE	7.16	143	9.83	132	0.5	100	0.5	13	0	980.7	NA	0.0000	SN BR	1400	0	0	0	1440
2019/04/28 18:08:04	BASE	6.71	145	9.83	132	0.5	100	0.5	13	0	980.7	NA	0.0000	SN BR	1400	0	0	0	1410
2019/04/28 18:09:04	BASE	6.34	146	9.83	132	0.4	100	0.4	13	0	980.6	NA	0.0000	-SN BR	1500	0	0	0	1310
2019/04/28 18:10:04	BASE	6.89	148	9.62	141	0.4	100	0.4	14	0	980.6	NA	0.0000	-SN BR	1400	0	0	0	1150
2019/04/28 18:11:05	BASE	7.40	154	9.62	141	0.4	100	0.4	14	0	980.6	NA	0.0000	-SN BR	1300	0	0	0	1350
2019/04/28 18:12:05	BASE	7.85	153	9.62	141	0.4	100	0.4	13	0	980.6	NA	0.0000	-SN BR	1300	260	0	0	0
2019/04/28 18:13:05	BASE	7.10	151	9.62	141	0.4	100	0.4	13	0	980.6	NA	0.0000	-SN BR	1200	0	0	0	1480
2019/04/28 18:14:04	BASE	5.43	148	8.75	137	0.4	100	0.4	12	0	980.7	NA	0.0000	-SN BR	1200	0	0	0	1540
2019/04/28 18:15:05	BASE	3.64	135	8.59	150	0.4	100	0.4	12	0	980.7	NA	0.0000	-SN BR	1400	0	0	0	1410
2019/04/28 18:16:04	BASE	2.05	111	8.59	150	0.4	100	0.4	12	0	980.8	NA	0.0000	-SN BR	1400	0	0	0	1280
2019/04/28 18:17:05	BASE	0.71	84	8.59	150	0.4	100	0.4	11	0	980.7	NA	0.0000	-SN BR	1300	0	0	0	1380
2019/04/28 18:18:05	BASE	0.00	11	8.59	150	0.4	100	0.4	11	0	980.7	NA	0.2540	-SN BR	1400	230	0	0	0
2019/04/28 18:19:05	BASE	0.00	312	8.59	150	0.4	100	0.4	10	0	980.7	NA	0.0000	-SN BR	1700	230	0	0	0
2019/04/28 18:20:04	BASE	0.60	139	8.59	150	0.4	100	0.4	9	0	980.7	NA	0.0000	-SN BR	1500	0	0	0	1380
2019/04/28 18:21:05	BASE	1.14	126	8.59	150	0.4	100	0.4	9	0	980.7	NA	0.2540	-SN BR	1200	0	0	0	1180
2019/04/28 18:22:04	BASE	0.63	30	7.82	152	0.4	100	0.4	9	0	980.6	NA	0.0000	-SN BR	1200	0	0	0	1050
2019/04/28 18:23:05	BASE	0.09	315	5.35	147	0.4	100	0.4	8	0	980.6	NA	0.0000	-SN BR	1300	0	0	0	1180
2019/04/28 18:24:04	BASE	0.00	287	3.81	129	0.4	100	0.4	8	0	980.5	NA	0.0000	-SN BR	1300	0	0	0	1180
2019/04/28 18:25:04	BASE	0.00	207	3.40	138	0.4	100	0.4	8	0	980.4	NA	0.2540	-SN BR	1200	0	0	0	1250
2019/04/28 18:26:04	BASE	0.37	158	3.40	138	0.3	100	0.3	8	0	980.4	NA	0.0000	-SN BR	1100	0	0	0	1250
2019/04/28 18:27:05	BASE	1.58	165	3.40	138	0.4	100	0.4	8	0	980.4	NA	0.0000	-SN BR	1300	0	0	0	1310
2019/04/28 18:28:04	BASE	2.33	156	3.40	138	0.4	100	0.4	8	0	980.4	NA	0.0000	-SN BR	1500	0	0	0	1280
2019/04/28 18:29:04	BASE	1.83	135	3.40	138	0.4	100	0.4	7	0	980.5	NA	0.0000	-SN BR	1400	0	0	0	1210
2019/04/28 18:30:04	BASE	0.61	101	2.98	164	0.4	100	0.4	7	0	980.6	NA	0.0000	-SN BR	1200	0	0	0	1280
2019/04/28 18:31:05	BASE	0.00	45	2.98	164	0.4	100	0.4	6	0	980.6	NA	0.0000	-SN BR	1100	0	0	0	1180
2019/04/28 18:32:04	BASE	0.00	20	2.98	164	0.4	100	0.4	6	0	980.6	NA	0.2540	-SN BR	0900	0	0	0	1150
2019/04/28 18:33:04	BASE	0.10	336	2.98	164	0.4	100	0.4	6	0	980.5	NA	0.0000	-SN BR	0700	0	0	0	1080
2019/04/28 18:34:05	BASE	1.00	227	2.98	164	0.4	100	0.4	6	0	980.4	NA	0.0000	SN BR	0650	0	0	0	1150
2019/04/28 18:35:04	BASE	1.62	216	2.98	164	0.4	100	0.4	6	0	980.4	NA	0.0000	SN BR	0650	0	0	0	1610
2019/04/28 18:36:04	BASE	1.24	209	2.98	164	0.4	100	0.4	6	0	980.4	NA	0.0000	+SN BR	0650	0	0	0	1800
2019/04/28 18:37:04	BASE	1.83	197	3.34	188	0.4	100	0.4	6	0	980.4	NA	0.0000	SN FG	0700	0	0	0	2030
2019/04/28 18:38:04	BASE	3.33	187	4.68	194	0.4	100	0.4	6	0	980.3	NA	0.0000	SN FG	0900	0	0	0	1800
2019/04/28 18:39:04	BASE	4.92	183	6.74	186	0.3	100	0.3	6	0	980.2	NA	0.0000	SN FG	1300	0	0	0	1970
2019/04/28 18:40:04	BASE	6.02	187	6.79	187	0.3	100	0.3	6	0	980.2	NA	0.0000	SN FG	1500	300	0	0	0
2019/04/28 18:41:04	BASE	5.32	195	6.79	187	0.3	100	0.3	6	0	980.3	NA	0.0000	SN FG	1800	330	0	0	0
2019/04/28 18:42:05	BASE	4.29	193	6.79	187	0.3	100	0.3	6	0	980.2	NA	0.0000	SN BR	1800	360	0	0	0
2019/04/28 18:43:05	BASE	3.32	187	6.79	187	0.3	100	0.2	6	0	980.2	NA	0.0000	SN BR	1400	300	0	0	0
2019/04/28 18:44:04	BASE	1.40	165	6.79	187	0.2	100	0.2	5	0	980.3	NA	0.0000	SN BR	1400	0	0	0	1350
2019/04/28 18:45:04	BASE	0.83	157	6.79	187	0.2	100	0.2	6	0	980.4	NA	0.0000	-SN BR	1600	0	0	0	1280
2019/04/28 18:46:05	BASE	1.91	154	6.79	187	0.2	100	0.2	5	0	980.3	NA	0.0000	-SN BR	1900	230	0	0	0
2019/04/28 18:47:05	BASE	1.31	132	6.79	187	0.2	100	0.2	5	0	980.3	NA	0.0000	-SN BR	2200	200	0	0	0
2019/04/28 18:48:04	BASE	0.42	134	6.79	187	0.3	100	0.3	5	0	980.3	NA	0.0000	-SN BR	1300	230	0	0	0
2019/04/28 18:49:04	BASE	0.92	177	6.79	187	0.3	100	0.3	5	0	980.3	NA	0.0000	-SN BR	0900	300	0	0	0
2019/04/28 18:50:03	BASE	2.47	220	5.09	194	0.4	100	0.4	5	0	980.2	NA	0.0000	-SN BR	0700	0	0	0	1440
2019/04/28 18:51:04	BASE	3.76	229	4.94	219	0.4	100	0.4	5	0	980.2	NA	0.0000	-SN BR	0650	0	0	0	1670
2019/04/28 18:52:04	BASE	4.00	254	5.71	288	0.5	100	0.5	5	0	980.2	NA	0.2540	-SN BR	0900	390	0	0	0
2019/04/28 18:53:05	BASE	2.61	264	5.71	288	0.5	100	0.5	5	0	980.2	NA	0.0000	-SN BR	1600	430	0	0	0
2019/04/28 18:54:03	BASE	2.43	242	5.71	288	0.5	100	0.5	5	0	980.2	NA	0.2540	-SN BR	2700	1180	0	0	0
2019/04/28 18:55:04	BASE	2.94	249	5.71	288	0.5	100	0.5	4	0	980.2	NA	0.0000	-SN BR	4500	660	0	0	0
2019/04/28 18:56:04	BASE	3.19	265	5.71	288	0.5	100	0.5	4	0	980.2	NA	0.2540	-SN BR	3300	360	0	0	0
2019/04/28 18:57:04	BASE	4.06	272	6.48	297	0.6	100	0.6	4	0	980.1	NA	0.0000	-SN BR	2000	330	0	0	0
2019/04/28 18:58:04	BASE	6.76	282	12.86	305	0.6	100	0.6	4	0	980.0	NA	0.2540	-SN BR	2900	360	0	0	0
2019/04/28 18:59:05	BASE	8.28	297	12.86	305	0.8	100	0.8	4	0	980.0	NA	0.0000	-SN BR	5000	490	1440	0	0
2019/04/28 19:00:01	BASE	6.51	301	12.86	305	1.0	100	1.0	4	0	980.1	NA	0.0000	-SN BR	7000	660	0	0	0
2019/04/28 19:01:05	BASE	3.44	341	12.86	305	1.1	100	1.1	4	0	980.1	NA	0.0000	-SN BR	6000	390	0	0	0
2019/04/28 19:02:04	BASE	2.48	57	12.86	305	1.0	100	1.0	4	0	980.1	NA	0.2540	-SN BR	4200	590	0	0	0
2019/04/28 19:03:04	BASE	4.79	89	12.86	305	1.0	100	1.0	4	0	980.1	NA	0.0000	-SN BR	3900	620	0	0	0
2019/04/28 19:04:04	BASE	6.46	93	12.86	305	0.8	100	0.8	4	0	980.1	NA	0.0000	-SN BR	2600	460	0	0	0
2019/04/28 19:05:04	BASE	6.07	130	12.86	305	0.7	100	0.7	4	0	980.0	NA	0.0000	-SN BR	1800	720	0	0	0
2019/04/28 19:06:04	BASE	4.12	148	12.86	305	0.7	100	0.7	3	0	980.1	NA	0.0000	-SN BR	2000	1280	0	0	0
2019/04/28 19:07:05	BASE	3.78	97	12.86	305	0.7	100	0.7	3	0	980.2	NA	0.0000	-SN BR	2300	720	1380	0	0
2019/04/28 19:08:04	BASE	4.30	73	9.57	302	0.7	100	0.7	3	0	980.1	NA	0.2540	-SN BR	2300	720	0	0	0
2019/04/28 19:09:05	BASE	2.53	76	7.67	288	0.7	100	0.7	3	0	980.1	NA	0.0000	-SN BR	3000	0	0	0	2590
2019/04/28 19:10:03	BASE	1.30	39	7.10	81	0.7	100	0.7	3	0	980.2	NA	0.0000	-SN BR	3100	0	0	0	2660
2019/04/28 19:11:04	BASE	0.80	359	7.10	81	0.8	100	0.8	3	0	980.1	NA	0.0000	-SN BR	3400	1180	0	0	0
2019/04/28 19:12:04	BASE	0.45	37	7.10	81	0.8	100	0.8	3	0	980.1	NA	0.0000	-SN BR	2600	950	0	0	0
2019/04/28 19:13:04	BASE	1.82	103	7.10	81	0.8	100	0.8	3	0	980.1	NA	0.0000	-SN BR	2400	920	0	0	0
2019/04/28 19:14:04	BASE	3.27	125	6.69	128	0.8	100	0.8	3	0	980.1	NA	0.0000	-SN BR	2500	1250	0	0	0
2019/04/28 19:15:04	BASE	3.07	128	5.56	64	0.8	100	0.8	2	0	980.1	NA	0.0000	-SN BR	2000	1150	0	0	0
2019/04/28 19:16:04	BASE	3.09	139	5.56	64	0.7	100	0.7	2	0	980.1	NA	0.0000	-SN BR	2600	0	0	0	2850
2019/04/28 19:17:04	BASE	2.96	155	5.04	59	0.6	100	0.6	3	0	980.0	NA	0.2540	-SN BR	4200	0	0	0	2690
2019/04/28 19:18:04	BASE	2.76	160	4.17	115	0.6	100	0.6	3	0	979.9	NA	0.0000	-SN BR	7000	0	0	0	2590
2019/04/28 19:19:05	BASE	3.18	155	4.17	115	0.6	100	0.6	3	0	979.9	NA	0.0000	-SN BR	9000	490	0	0	0
2019/04/28 19:20:04	BASE	3.74	151	4.48	153	0.6	100	0.6	3	0	979.9	NA	0.0000	-SN BR	2900	460	0	0	0
2019/04/28 19:21:04	BASE	4.23	154	4.68	157	0.6	100	0.6	3	0	979.9	NA	0.0000	-SN BR	1900	0	0	0	3080
2019/04/28 19:22:04	BASE	4.23	152	4.68	157	0.6	100	0.6	3	0	979.9	NA	0.2540	-SN BR	3000	0	0	0	3150
2019/04/28 19:23:04	BASE	4.05	145	4.78	151	0.6	100	0.6	3	0	980.0	NA	0.0000	-SN BR	7000	1380	0	0	0
2019/04/28 19:24:04	BASE	4.43	150	6.17	174	0.6	100	0.6	3	0	980.0	NA	0.0000	-SN BR	9999	2460	0	0	0
2019/04/28 19:25:03	BASE	5.43	168	6.38	180	0.6	100	0.6	3	0	979.8	NA	0.0000	-SN BR	9999	2690	0	0	0
2019/04/28 19:26:05	BASE	6.07	177	6.53	172	0.6	100	0.6	3	0	979.8	NA	0.2540	-SN BR	9999	2990	0	0	0
2019/04/28 19:27:04	BASE	6.18	166	6.53	172	0.6	100	0.6	3	0	979.8	NA	0.0000	-SN BR	8000	2790	0	0	0
2019/04/28 19:28:04	BASE	5.49	153	6.53	172	0.6	100	0.6	3	0	979.9	NA	0.0000	-SN BR	5000	1280	2760	0	0
2019/04/28 19:29:04	BASE	4.48	152	6.53	172	0.6	100	0.6	2	0	980.0	NA	0.0000	-SN BR	8000	2850	0	0	0
2019/04/28 19:30:04	BASE	4.27	164	6.53	172	0.6	100	0.6	2	0	979.9	NA	0.0000	-SN BR	9999	2890	0	0	0
2019/04/28 19:31:04	BASE	5.03	173	6.53	172	0.6	100	0.6	2	0	979.9	NA	0.0000	-SN BR	9999	2920	0	0	0
2019/04/28 19:32:04	BASE	5.36	175	6.53	172	0.6	100	0.6	2	0	979.9	NA	0.2540	-SN BR	9999	2690	0	0	0
2019/04/28 19:33:04	BASE	5.20	184	6.53	172	0.6	100	0.6	2	0	979.9	NA	0.0000	-SN	9999	720	0	0	0
2019/04/28 19:34:04	BASE	5.40	190	6.74	199	0.7	100	0.7	2	0	979.9	NA	0.0000	-SN	9999	660	0	0	0
2019/04/28 19:35:05	BASE	6.43	196	7.67	199	0.7	100	0.7	2	0	979.8	NA	0.0000	-SN	9999	520	2820	0	0
2019/04/28 19:36:04	BASE	7.31	201	8.95	212	0.7	100	0.7	1	0	979.8	NA	0.0000	-SN	9000	460	0	0	0
2019/04/28 19:37:05	BASE	7.50	197	8.95	212	0.7	100	0.7	1	0	979.8	NA	0.0000	-SN	9000	520	2990	0	0
2019/04/28 19:38:05	BASE	7.29	182	8.95	212	0.6	100	0.6	1	0	979.8	NA	0.0000	-SN	9999	560	0	0	0
2019/04/28 19:39:05	BASE	7.54	171	8.95	212	0.6	100	0.6	1	0	979.7	NA	0.0000	-SN	9999	360	0	0	0
2019/04/28 19:40:04	BASE	7.56	162	8.95	212	0.6	100	0.6	1	0	979.7	NA	0.0000	-SN	4400	360	0	0	0
2019/04/28 19:41:05	BASE	6.04	151	8.95	212	0.6	100	0.6	1	0	979.7	NA	0.0000	-SN BR	4100	490	0	0	0
2019/04/28 19:42:05	BASE	4.74	138	8.95	212	0.6	100	0.6	1	0	979.7	NA	0.0000	-SN BR	8000	460	1410	0	0
2019/04/28 19:43:06	BASE	5.11	143	8.95	212	0.6	100	0.6	1	0	979.6	NA	0.0000	-SN BR	9000	560	0	0	0
2019/04/28 19:44:05	BASE	4.09	186	8.95	212	0.7	100	0.7	1	0	979.6	NA	0.0000	-SN BR	9999	1510	0	0	0
2019/04/28 19:45:04	BASE	2.69	221	8.95	212	0.8	100	0.8	1	0	979.5	NA	0.0000	-SN BR	9999	1350	0	0	0
2019/04/28 19:46:05	BASE	2.75	226	8.90	171	1.0	100	1.0	1	0	979.5	NA	0.0000	-SN BR	9999	750	0	0	0
2019/04/28 19:47:05	BASE	2.58	253	8.90	171	1.1	100	1.1	1	0	979.6	NA	0.2540	-SN BR	9999	820	0	0	0
2019/04/28 19:48:05	BASE	2.18	282	8.90	171	1.3	100	1.3	1	0	979.6	NA	0.0000	-SN BR	9999	590	0	0	0
2019/04/28 19:49:05	BASE	0.84	335	8.44	147	1.4	100	1.4	1	0	979.5	NA	0.0000	-SN BR	9999	520	2950	0	0
2019/04/28 19:50:05	BASE	0.82	337	6.69	157	1.5	100	1.5	1	0	979.6	NA	0.0000	-SN	9999	390	2890	0	0
2019/04/28 19:51:05	BASE	3.03	297	6.69	157	1.5	100	1.5	1	0	979.5	NA	0.2540	-SN	9999	2920	0	0	0
2019/04/28 19:52:05	BASE	9.63	331	23.41	19	1.5	100	1.5	1	0	979.3	NA	0.0000	-SN	9999	1740	2530	0	0
2019/04/28 19:53:05	BASE	16.19	358	23.41	19	1.6	100	1.6	1	0	979.2	NA	0.0000	-SN SQ	9000	1570	2790	0	0
2019/04/28 19:54:05	BASE	16.92	5	23.41	19	1.6	100	1.6	1	0	979.2	NA	0.0000	-SN SQ	9000	1570	2760	0	0
2019/04/28 19:55:06	BASE	17.32	33	23.41	19	1.7	100	1.7	1	0	979.1	NA	0.0000	-SN	9000	2690	0	0	0
2019/04/28 19:56:05	BASE	16.30	50	23.41	19	1.8	100	1.8	1	0	979.2	NA	0.2540	-SN	8000	430	0	0	0
2019/04/28 19:57:05	BASE	15.87	45	23.41	19	1.8	100	1.8	1	0	979.2	NA	0.0000	-SN	9999	430	0	0	0
2019/04/28 19:58:05	BASE	18.28	28	23.41	19	1.9	100	1.9	1	0	979.1	NA	0.0000	-SN	9000	2170	0	0	0
2019/04/28 19:59:06	BASE	21.18	23	29.53	25	1.9	100	1.9	1	0	979.0	NA	0.0000	-SN BR	7000	2460	0	0	0
2019/04/28 20:00:05	BASE	23.80	29	29.68	35	2.0	100	2.0	1	0	978.8	NA	0.0000	-SN BR	6000	0	0	0	3350
2019/04/28 20:01:05	BASE	23.64	30	29.68	35	2.0	100	2.0	1	0	978.8	NA	0.2540	-SN BR	6000	2660	0	0	0
2019/04/28 20:02:05	BASE	21.97	28	29.68	35	2.0	100	2.0	1	0	978.8	NA	0.0000	-SN BR	8000	2820	0	0	0
2019/04/28 20:03:06	BASE	20.29	25	29.68	35	2.0	100	2.0	1	0	978.8	NA	0.0000	-SN BR	9000	430	0	0	0
2019/04/28 20:04:05	BASE	21.09	23	29.68	35	2.1	100	2.1	1	0	978.7	NA	0.0000	-SN BR	6000	460	0	0	0
2019/04/28 20:05:05	BASE	25.42	26	30.25	32	2.1	100	2.1	1	0	978.4	NA	0.0000	-SN BR	5000	430	0	0	0
2019/04/28 20:06:05	BASE	26.82	25	30.25	32	2.2	100	2.2	1	0	978.3	NA	0.2540	-SN BR	5000	0	0	0	3740
2019/04/28 20:07:06	BASE	26.38	23	30.25	32	2.2	100	2.2	1	0	978.2	NA	0.0000	-SN BR	5000	0	0	0	3840
2019/04/28 20:08:05	BASE	28.97	23	32.98	2	2.3	100	2.3	1	0	978.2	NA	0.0000	-SN BR	6000	0	0	0	4200
2019/04/28 20:09:05	BASE	29.55	24	33.08	30	2.3	100	2.3	1	0	978.2	NA	0.0000	-SN BR	8000	0	0	0	4330
2019/04/28 20:10:05	BASE	29.29	26	34.52	32	2.3	100	2.3	1	0	978.2	NA	0.0000	-SN BR	7000	0	0	0	4400
2019/04/28 20:11:05	BASE	28.46	29	34.52	32	2.3	100	2.3	1	0	978.2	NA	0.0000	-SN BR	9000	0	0	0	3840
2019/04/28 20:12:05	BASE	27.33	27	34.52	32	2.3	100	2.3	1	0	978.2	NA	0.2540	-SN BR	9999	0	0	0	4430
2019/04/28 20:13:05	BASE	29.04	25	36.06	28	2.2	100	2.2	1	0	978.0	NA	0.0000	-SN BR	9000	0	0	0	4560
2019/04/28 20:14:05	BASE	30.62	26	36.06	28	2.2	100	2.2	1	0	978.0	NA	0.0000	-SN BR	9999	0	0	0	4760
2019/04/28 20:15:05	BASE	29.59	29	36.06	28	2.3	100	2.3	1	0	978.1	NA	0.0000	-SN BR	9999	0	0	0	4860
2019/04/28 20:16:05	BASE	28.09	28	36.06	28	2.3	100	2.3	0	0	978.2	NA	0.0000	-SN BR	9999	0	0	0	950
2019/04/28 20:17:05	BASE	28.83	23	36.83	22	2.3	100	2.3	0	0	978.1	NA	0.0000	-SN BR	9999	4660	0	0	0
2019/04/28 20:18:05	BASE	29.46	23	36.83	22	2.3	100	2.3	0	0	978.2	NA	0.0000	-SN	9999	2760	0	0	0
2019/04/28 20:19:05	BASE	30.34	25	36.83	22	2.3	100	2.3	0	0	978.1	NA	0.2540	-SN	9999	3610	0	0	0
2019/04/28 20:20:05	BASE	30.73	26	36.83	22	2.3	100	2.3	0	0	978.1	NA	0.0000	-SN	9999	2920	3670	0	0
2019/04/28 20:21:06	BASE	30.05	25	36.83	22	2.4	100	2.4	0	0	978.1	NA	0.0000	-SN	9999	2990	0	0	0
2019/04/28 20:22:04	BASE	30.10	24	36.83	22	2.4	100	2.4	0	0	978.2	NA	0.0000	-SN	9999	3020	0	0	0
2019/04/28 20:23:06	BASE	29.12	22	36.83	22	2.4	100	2.4	0	0	978.2	NA	0.0000	-SN	9999	3050	0	0	0
2019/04/28 20:24:05	BASE	29.21	23	36.83	22	2.4	100	2.4	0	0	978.2	NA	0.0000	-SN	9999	2850	0	0	0
2019/04/28 20:25:05	BASE	28.32	25	36.83	22	2.4	100	2.4	0	0	978.3	NA	0.0000		9999	2790	3510	0	0
2019/04/28 20:26:05	BASE	26.07	27	36.83	22	2.4	100	2.4	0	0	978.3	NA	0.0000		9999	4400	0	0	0
2019/04/28 20:27:06	BASE	25.70	26	34.93	22	2.3	100	2.3	0	0	978.3	NA	0.0000		9999	3970	0	0	0
2019/04/28 20:28:05	BASE	27.08	24	34.93	22	2.3	100	2.3	0	0	978.2	NA	0.0000		9999	0	0	0	5480
2019/04/28 20:29:12	BASE	27.82	21	34.93	22	2.3	100	2.3	0	0	978.4	NA	0.0000		9999	0	0	0	4690
2019/04/28 20:30:05	BASE	27.65	20	34.93	22	2.3	100	2.3	0	0	978.4	NA	0.0000		9999	3870	0	0	0
2019/04/28 20:31:06	BASE	27.47	23	33.85	29	2.4	100	2.4	0	0	978.4	NA	0.0000		9999	0	0	0	4040
2019/04/28 20:32:05	BASE	27.29	27	33.85	29	2.4	100	2.4	0	0	978.3	NA	0.0000		9999	460	0	0	0
2019/04/28 20:33:05	BASE	28.46	26	33.85	29	2.4	100	2.4	0	0	978.3	NA	0.0000		9999	2790	0	0	0
2019/04/28 20:34:05	BASE	28.03	27	33.85	29	2.4	100	2.4	0	0	978.3	NA	0.0000		9999	2820	0	0	0
2019/04/28 20:35:06	BASE	27.39	29	33.85	29	2.4	100	2.4	0	0	978.4	NA	0.0000	-SN	9999	1480	0	0	0
2019/04/28 20:36:05	BASE	28.15	26	33.85	29	2.4	100	2.4	0	0	978.5	NA	0.0000	-SN	9999	2790	0	0	0
2019/04/28 20:37:05	BASE	28.11	27	33.85	29	2.4	100	2.4	0	0	978.4	NA	0.0000	-SN	9999	460	0	0	0
2019/04/28 20:38:05	BASE	27.59	26	33.85	29	2.4	100	2.4	0	0	978.5	NA	0.0000	-SN	9999	460	0	0	0
2019/04/28 20:39:06	BASE	27.12	21	33.85	29	2.4	100	2.4	0	0	978.6	NA	0.0000	-SN	9999	0	0	0	5380
2019/04/28 20:40:05	BASE	26.72	16	33.85	29	2.4	100	2.4	0	0	978.8	NA	0.0000	-SN	9999	0	0	0	4530
2019/04/28 20:41:05	BASE	26.60	14	32.51	20	2.4	100	2.4	0	0	978.8	NA	0.0000	-SN	9999	0	0	0	4040
2019/04/28 20:42:05	BASE	26.57	15	32.51	20	2.4	100	2.4	0	0	978.9	NA	0.0000	-SN	9999	2820	0	0	0
2019/04/28 20:43:06	BASE	25.43	17	32.51	20	2.4	100	2.4	0	0	978.9	NA	0.0000	-SN	9999	2660	0	0	0
2019/04/28 20:44:05	BASE	26.39	18	32.51	20	2.4	100	2.4	0	0	978.8	NA	0.0000	-SN	9999	2720	0	0	0
2019/04/28 20:45:05	BASE	28.18	17	32.51	20	2.4	100	2.4	0	0	978.7	NA	0.0000	-SN	9999	2950	0	0	0
2019/04/28 20:46:05	BASE	28.03	18	32.51	20	2.4	100	2.4	0	0	978.8	NA	0.0000	-SN	9999	2790	0	0	0
2019/04/28 20:47:05	BASE	27.05	18	32.51	20	2.4	100	2.4	0	0	978.8	NA	0.0000	-SN	9999	1050	0	0	0
2019/04/28 20:48:05	BASE	27.32	19	32.36	13	2.4	100	2.4	0	0	978.8	NA	0.0000	-SN	9999	2760	0	0	0
2019/04/28 20:49:05	BASE	28.56	20	32.36	13	2.4	100	2.4	0	0	978.6	NA	0.0000		9999	2720	0	0	0
2019/04/28 20:50:04	BASE	28.78	19	32.36	13	2.5	100	2.5	0	0	978.7	NA	0.0000		9999	2760	0	0	0
2019/04/28 20:51:06	BASE	27.58	18	32.36	13	2.5	100	2.5	0	0	978.8	NA	0.0000		9999	2560	0	0	0
2019/04/28 20:52:05	BASE	27.28	18	32.36	13	2.5	100	2.5	0	0	978.8	NA	0.0000		9999	2130	0	0	0
2019/04/28 20:53:06	BASE	26.80	18	32.36	13	2.6	100	2.6	0	0	978.8	NA	0.0000		9999	2460	0	0	0
2019/04/28 20:54:05	BASE	26.46	18	32.36	13	2.6	100	2.6	0	0	978.8	NA	0.0000		9999	2460	0	0	0
2019/04/28 20:55:06	BASE	27.10	17	31.54	18	2.6	100	2.6	0	0	978.7	NA	0.0000		9999	2590	0	0	0
2019/04/28 20:56:05	BASE	26.58	16	31.54	18	2.5	100	2.5	0	0	978.8	NA	0.0000		9999	2490	0	0	0
2019/04/28 20:57:02	BASE	26.33	17	31.54	18	2.5	100	2.5	0	0	978.8	NA	0.0000		9999	2560	0	0	0
2019/04/28 20:58:05	BASE	26.79	17	31.33	22	2.5	100	2.5	0	0	978.8	NA	0.0000		9999	1940	2560	0	0
2019/04/28 20:59:07	BASE	26.25	19	31.33	22	2.5	100	2.5	0	0	978.8	NA	0.0000		9999	2000	0	0	0
2019/04/28 21:00:04	BASE	26.49	19	31.18	12	2.5	100	2.5	0	0	978.8	NA	0.0000		9999	2530	0	0	0
2019/04/28 21:01:02	BASE	27.20	20	31.84	22	2.5	100	2.5	0	0	978.7	NA	0.0000		9999	2560	0	0	0
2019/04/28 21:02:05	BASE	27.71	20	31.84	22	2.5	100	2.5	0	0	978.7	NA	0.0000		9999	2560	0	0	0
2019/04/28 21:03:06	BASE	27.02	19	31.84	22	2.6	100	2.6	0	0	978.8	NA	0.0000		9999	2430	0	0	0
2019/04/28 21:04:05	BASE	27.39	19	31.84	22	2.6	100	2.6	0	0	978.7	NA	0.0000		9999	2400	0	0	0
2019/04/28 21:05:05	BASE	27.08	18	31.84	22	2.6	100	2.6	0	0	978.7	NA	0.0000		9999	2300	0	0	0
2019/04/28 21:06:05	BASE	25.10	16	31.84	22	2.6	100	2.6	0	0	978.8	NA	0.0000		9999	2430	0	0	0
2019/04/28 21:07:02	BASE	24.71	17	31.84	22	2.6	100	2.6	0	0	978.8	NA	0.0000		9999	2300	0	0	0
2019/04/28 21:08:05	BASE	25.92	20	31.84	22	2.7	100	2.7	0	0	978.7	NA	0.0000		9999	2100	0	0	0
2019/04/28 21:09:01	BASE	27.48	21	31.84	22	2.7	100	2.7	0	0	978.6	NA	0.0000		9999	1900	0	0	0
2019/04/28 21:10:05	BASE	28.64	23	31.84	22	2.7	100	2.7	0	0	978.6	NA	0.0000		9999	1840	0	0	0
2019/04/28 21:11:02	BASE	29.07	24	31.18	28	2.7	100	2.7	0	0	978.6	NA	0.0000		9999	1870	0	0	0
2019/04/28 21:12:05	BASE	28.41	23	31.18	28	2.8	100	2.8	0	0	978.7	NA	0.0000		9999	1800	0	0	0
2019/04/28 21:13:05	BASE	27.83	21	31.18	28	2.8	100	2.8	0	0	978.7	NA	0.0000		9999	720	2890	0	0
2019/04/28 21:14:02	BASE	27.27	21	31.18	28	2.8	100	2.8	0	0	978.7	NA	0.0000		9999	1800	0	0	0
2019/04/28 21:15:05	BASE	27.86	21	31.18	28	2.8	100	2.8	0	0	978.6	NA	0.0000	UP	9999	1840	2400	0	0
2019/04/28 21:16:01	BASE	29.33	23	31.18	28	2.9	100	2.9	0	0	978.6	NA	0.0000	UP	9999	1870	0	0	0
2019/04/28 21:17:04	BASE	29.34	24	31.18	28	2.9	100	2.9	0	0	978.6	NA	0.0000	UP	9999	2400	0	0	0
2019/04/28 21:18:05	BASE	28.42	22	31.18	28	2.9	100	2.9	0	0	978.7	NA	0.0000	UP	9999	3770	0	0	0
2019/04/28 21:19:02	BASE	28.09	22	31.18	28	2.9	100	2.9	0	0	978.6	NA	0.0000	UP	9999	3770	0	0	0
2019/04/28 21:20:05	BASE	28.54	22	31.18	28	2.9	100	2.9	0	0	978.7	NA	0.0000	UP	9999	4000	0	0	0
2019/04/28 21:21:05	BASE	28.15	21	31.07	23	2.9	100	2.9	0	0	978.7	NA	0.0000	UP	9999	0	0	0	4820
2019/04/28 21:22:04	BASE	28.79	23	31.28	21	2.9	100	2.9	0	0	978.7	NA	0.0000	UP	9999	0	0	0	4790
2019/04/28 21:23:06	BASE	29.00	24	31.28	21	2.9	100	2.9	0	0	978.7	NA	0.0000	UP	9999	1670	0	0	0
2019/04/28 21:24:01	BASE	26.99	23	31.28	21	2.9	100	2.9	0	0	978.8	NA	0.0000	UP	9999	2360	0	0	0
2019/04/28 21:25:05	BASE	25.81	22	31.28	21	2.9	100	2.9	0	0	978.8	NA	0.0000	UP	9999	2300	0	0	0
2019/04/28 21:26:04	BASE	26.58	21	31.28	21	3.0	100	3.0	0	0	978.7	NA	0.0000	UP	9999	0	0	0	4590
2019/04/28 21:27:06	BASE	27.05	22	31.28	21	3.0	100	3.0	0	0	978.7	NA	0.0000	UP	9999	0	0	0	4790
2019/04/28 21:28:05	BASE	26.91	23	31.28	21	3.0	100	3.0	0	0	978.7	NA	0.0000	UP	9999	0	0	0	4820
2019/04/28 21:29:01	BASE	26.90	23	31.28	21	3.0	100	3.0	0	0	978.8	NA	0.0000	UP	9999	0	0	0	4790
2019/04/28 21:30:05	BASE	26.95	24	31.28	21	3.1	100	3.1	0	0	978.7	NA	0.0000	UP	9999	0	0	0	850
2019/04/28 21:31:05	BASE	25.93	24	31.28	21	3.1	100	3.1	0	0	978.8	NA	0.0000	UP	9999	0	0	0	4820
2019/04/28 21:32:05	BASE	25.09	24	30.15	28	3.1	100	3.1	0	0	978.8	NA	0.0000	UP	9999	0	0	0	4490
2019/04/28 21:33:05	BASE	24.62	25	30.15	28	3.0	100	3.0	0	0	978.8	NA	0.0000	UP	9999	0	0	0	1050
2019/04/28 21:34:05	BASE	25.72	25	30.15	28	3.0	100	3.0	0	0	978.7	NA	0.0000	UP	9999	0	0	0	4790
2019/04/28 21:35:05	BASE	26.12	25	30.15	28	3.0	100	3.0	0	0	978.8	NA	0.0000	UP	9999	0	0	0	4040
2019/04/28 21:36:01	BASE	24.92	23	30.15	28	3.0	100	3.0	0	0	978.8	NA	0.0000	UP	9999	0	0	0	4000
2019/04/28 21:37:03	BASE	25.41	22	30.15	28	3.0	100	3.0	0	0	978.8	NA	0.0000	UP	9999	0	0	0	3770
2019/04/28 21:38:04	BASE	26.63	23	30.15	28	3.0	100	3.0	0	0	978.8	NA	0.0000	UP	9999	1610	0	0	0
2019/04/28 21:39:04	BASE	26.20	21	30.15	28	3.0	100	3.0	0	0	978.9	NA	0.0000	UP	9999	2170	0	0	0
2019/04/28 21:40:04	BASE	25.11	19	30.15	28	3.0	100	3.0	0	0	978.9	NA	0.0000	UP	9999	0	0	0	3640
2019/04/28 21:41:04	BASE	25.26	20	30.15	28	3.0	100	3.0	0	0	978.9	NA	0.0000	UP	9999	0	0	0	3540
2019/04/28 21:42:04	BASE	25.08	19	29.48	19	3.0	100	3.0	0	0	978.9	NA	0.0000	UP	9999	460	0	0	0
2019/04/28 21:43:04	BASE	24.60	18	29.48	19	3.0	100	3.0	0	0	978.9	NA	0.0000	-SN	9999	0	0	0	3610
2019/04/28 21:44:03	BASE	24.34	19	29.22	31	2.9	100	2.9	0	0	979.0	NA	0.0000	-SN	9999	1770	0	0	0
2019/04/28 21:45:04	BASE	24.19	18	29.12	20	2.9	100	2.9	0	0	979.0	NA	0.0000	-SN	9999	2820	0	0	0
2019/04/28 21:46:04	BASE	24.02	17	29.12	20	2.9	100	2.9	0	0	979.0	NA	0.0000	-SN	9999	0	0	0	3580
2019/04/28 21:47:05	BASE	22.87	16	29.12	20	2.9	100	2.9	0	0	979.1	NA	0.0000	-SN	9999	390	0	0	0
2019/04/28 21:48:04	BASE	21.85	15	26.91	22	2.8	100	2.8	0	0	979.1	NA	0.0000	-SN	9999	430	0	0	0
2019/04/28 21:49:04	BASE	22.11	15	26.91	22	2.8	100	2.8	0	0	979.0	NA	0.0000	-SN	9999	2790	0	0	0
2019/04/28 21:50:03	BASE	22.76	16	26.85	14	2.8	100	2.8	0	0	979.1	NA	0.0000	-SN	9999	1210	0	0	0
2019/04/28 21:51:04	BASE	23.16	15	26.85	14	2.8	100	2.8	0	0	979.0	NA	0.0000	-SN	9999	1080	0	0	0
2019/04/28 21:52:03	BASE	23.16	13	26.60	16	2.9	100	2.9	0	0	979.1	NA	0.0000	-SN	9999	1050	0	0	0
2019/04/28 21:53:04	BASE	22.34	13	26.60	16	2.9	100	2.9	0	0	979.1	NA	0.0000	-SN	9999	1120	0	0	0
2019/04/28 21:54:03	BASE	21.94	13	26.55	19	2.9	100	2.9	0	0	979.1	NA	0.0000	-SN	9999	460	0	0	0
2019/04/28 21:55:04	BASE	21.68	13	26.55	19	3.0	100	3.0	0	0	979.1	NA	0.0000	-SN	9999	1740	0	0	0
2019/04/28 21:56:04	BASE	22.15	13	25.62	25	3.0	100	3.0	0	0	979.0	NA	0.0000	-SN	9999	1670	0	0	0
2019/04/28 21:57:04	BASE	23.31	13	25.93	15	3.0	100	3.0	0	0	979.0	NA	0.0000	-SN	9999	660	0	0	0
2019/04/28 21:58:04	BASE	23.23	15	25.93	15	3.0	100	3.0	0	0	979.0	NA	0.0000	-SN	9999	390	0	0	0
2019/04/28 21:59:05	BASE	22.80	14	25.93	15	3.0	100	3.0	0	0	979.0	NA	0.0000	-SN	9999	430	0	0	0
2019/04/28 22:00:01	BASE	22.83	12	25.93	15	3.0	100	3.0	0	0	979.1	NA	0.0000	-SN	9999	660	2850	0	0
2019/04/28 22:01:04	BASE	23.86	12	27.11	12	3.0	100	3.0	0	0	979.0	NA	0.0000	-SN	9999	430	3020	0	0
2019/04/28 22:02:05	BASE	24.79	12	27.27	8	3.0	100	3.0	0	0	979.0	NA	0.0000	-SN	9999	430	2920	0	0
2019/04/28 22:03:05	BASE	24.23	12	27.32	12	3.0	100	3.0	0	0	979.0	NA	0.2540	-SN	9999	0	0	0	3310
2019/04/28 22:04:04	BASE	23.97	11	27.32	12	3.0	100	3.0	0	0	979.0	NA	0.0000	-SN	9999	430	0	0	0
2019/04/28 22:05:05	BASE	23.95	10	27.32	12	3.0	100	3.0	0	0	979.1	NA	0.0000	-SN	9999	1840	2950	0	0
2019/04/28 22:06:04	BASE	24.23	10	27.32	12	3.0	100	3.0	0	0	979.0	NA	0.0000	-SN	9999	1800	0	0	0
2019/04/28 22:07:05	BASE	22.85	9	27.32	12	3.1	100	3.1	0	0	979.1	NA	0.0000	-SN	9999	460	0	0	0
2019/04/28 22:08:05	BASE	21.90	8	27.32	12	3.1	100	3.1	0	0	979.1	NA	0.0000	-SN	9999	1670	0	0	0
2019/04/28 22:09:04	BASE	23.16	9	27.32	12	3.1	100	3.1	0	0	979.0	NA	0.0000	-SN	9999	1800	0	0	0
2019/04/28 22:10:05	BASE	24.20	12	28.71	9	3.1	100	3.1	0	0	979.1	NA	0.0000	-SN	9999	1840	0	0	0
2019/04/28 22:11:05	BASE	24.62	13	28.71	9	3.2	100	3.2	0	0	979.0	NA	0.0000	-SN	9999	1800	0	0	0
2019/04/28 22:12:04	BASE	24.02	13	28.71	9	3.2	100	3.2	0	0	979.1	NA	0.0000	-SN	9999	1670	0	0	0
2019/04/28 22:13:04	BASE	23.33	13	28.71	9	3.2	100	3.2	0	0	979.1	NA	0.0000	-SN	9999	1840	0	0	0
2019/04/28 22:14:04	BASE	22.60	9	28.71	9	3.2	100	3.2	0	0	979.1	NA	0.0000	-SN	9999	1900	0	0	0
2019/04/28 22:15:05	BASE	22.40	9	28.71	9	3.3	100	3.3	0	0	979.1	NA	0.0000	-SN	9999	1870	0	0	0
2019/04/28 22:16:03	BASE	23.21	10	28.71	9	3.3	100	3.3	0	0	979.1	NA	0.0000	-SN	9999	1800	0	0	0
2019/04/28 22:17:05	BASE	22.82	11	28.71	9	3.3	100	3.3	0	0	979.1	NA	0.0000	-SN	9999	1670	0	0	0
2019/04/28 22:18:04	BASE	22.79	12	28.71	9	3.3	100	3.3	0	0	979.1	NA	0.0000	-SN	9999	1670	0	0	0
2019/04/28 22:19:05	BASE	22.49	12	28.71	9	3.3	100	3.3	0	0	979.1	NA	0.0000	-SN	9999	1800	0	0	0
2019/04/28 22:20:04	BASE	22.60	10	27.11	16	3.3	100	3.3	0	0	979.1	NA	0.0000	-SN	9999	1710	0	0	0
2019/04/28 22:21:04	BASE	22.81	8	27.11	16	3.2	100	3.2	0	0	979.2	NA	0.0000	-SN	9999	1150	0	0	0
2019/04/28 22:22:04	BASE	21.69	5	27.11	16	3.2	100	3.2	0	0	979.2	NA	0.0000	-SN	9999	1180	0	0	0
2019/04/28 22:23:05	BASE	21.45	6	26.44	4	3.2	100	3.2	0	0	979.2	NA	0.0000	-SN	9999	1770	0	0	0
2019/04/28 22:24:04	BASE	21.47	5	26.44	4	3.2	100	3.2	0	0	979.3	NA	0.0000	-SN	9999	1640	0	0	0
2019/04/28 22:25:04	BASE	20.96	6	26.44	4	3.2	100	3.2	0	0	979.3	NA	0.0000	-SN	9999	1280	0	0	0
2019/04/28 22:26:04	BASE	20.56	8	25.88	10	3.2	100	3.2	0	0	979.3	NA	0.0000	-SN	9999	1840	0	0	0
2019/04/28 22:27:04	BASE	20.65	4	25.88	10	3.1	100	3.1	0	0	979.3	NA	0.0000	-SN	9999	1150	0	0	0
2019/04/28 22:28:05	BASE	20.39	3	25.16	11	3.1	100	3.1	0	0	979.3	NA	0.0000	-SN	9999	430	0	0	0
2019/04/28 22:29:04	BASE	21.63	9	25.57	14	3.1	100	3.1	0	0	979.2	NA	0.0000	-SN	9999	1410	0	0	0
2019/04/28 22:30:04	BASE	23.78	9	26.65	8	3.1	100	3.1	0	0	979.2	NA	0.0000	-SN	9999	1210	0	0	0
2019/04/28 22:31:04	BASE	21.95	3	26.65	8	3.1	100	3.1	0	0	979.3	NA	0.0000	-SN	9999	1180	0	0	0
2019/04/28 22:32:03	BASE	21.44	359	26.65	8	3.1	100	3.1	0	0	979.2	NA	0.0000	-SN	9999	1740	0	0	0
2019/04/28 22:33:05	BASE	23.24	2	26.65	8	3.1	100	3.1	0	0	979.2	NA	0.0000	-SN	9999	1670	0	0	0
2019/04/28 22:34:05	BASE	22.74	2	26.65	8	3.1	100	3.1	0	0	979.2	NA	0.0000	-SN	9999	1540	0	0	0
2019/04/28 22:35:05	BASE	21.41	2	26.65	8	3.1	100	3.1	0	0	979.3	NA	0.0000	-SN	9999	980	1740	0	0
2019/04/28 22:36:04	BASE	21.05	1	27.21	1	3.1	100	3.1	0	0	979.3	NA	0.0000	-SN	9999	1210	0	0	0
2019/04/28 22:37:03	BASE	21.41	2	27.21	1	3.1	100	3.1	0	0	979.3	NA	0.0000	-SN	9999	1150	0	0	0
2019/04/28 22:38:05	BASE	21.34	357	27.21	1	3.1	100	3.1	0	0	979.3	NA	0.0000	-SN	9999	1120	0	0	0
2019/04/28 22:39:04	BASE	20.39	356	27.21	1	3.1	100	3.1	0	0	979.4	NA	0.0000	-SN	9999	1870	0	0	0
2019/04/28 22:40:04	BASE	19.19	1	27.21	1	3.1	100	3.0	0	0	979.3	NA	0.0000	-SN	9999	1120	0	0	0
2019/04/28 22:41:04	BASE	17.73	354	27.21	1	3.0	100	3.0	0	0	979.4	NA	0.0000	-SN	9999	1800	0	0	0
2019/04/28 22:42:04	BASE	17.25	351	27.21	1	3.0	100	3.0	0	0	979.3	NA	0.0000	-SN	9999	1670	0	0	0
2019/04/28 22:43:05	BASE	19.15	357	27.21	1	3.0	100	3.0	0	0	979.3	NA	0.0000	-SN	9999	1800	0	0	0
2019/04/28 22:44:04	BASE	19.84	357	27.21	1	3.0	100	3.0	0	0	979.4	NA	0.0000	-SN	9999	1840	0	0	0
2019/04/28 22:45:04	BASE	19.84	357	27.21	1	2.9	100	2.9	0	0	979.3	NA	0.0000	-SN	9999	430	0	0	0
2019/04/28 22:46:05	BASE	20.10	4	26.65	5	2.9	100	2.9	0	0	979.3	NA	0.0000	-SN	9999	1740	0	0	0
2019/04/28 22:47:05	BASE	19.26	357	25.62	8	2.9	100	2.9	0	0	979.4	NA	0.0000	-SN	9999	1800	0	0	0
2019/04/28 22:48:05	BASE	18.65	352	25.62	8	2.9	100	2.9	0	0	979.3	NA	0.0000	-SN	9999	1800	0	0	0
2019/04/28 22:49:05	BASE	18.36	358	25.62	8	3.0	100	3.0	0	0	979.3	NA	0.2540	-SN	9999	1740	0	0	0
2019/04/28 22:50:05	BASE	16.64	359	25.62	8	3.0	100	3.0	0	0	979.4	NA	0.0000	-SN	9999	1940	0	0	0
2019/04/28 22:51:06	BASE	16.47	357	25.62	8	3.0	100	3.0	0	0	979.3	NA	0.0000	-SN	9999	1840	0	0	0
2019/04/28 22:52:06	BASE	17.88	359	25.62	8	2.9	100	2.9	0	0	979.3	NA	0.0000	-SN	9999	1380	0	0	0
2019/04/28 22:53:05	BASE	19.71	3	25.62	8	2.9	100	2.9	0	0	979.2	NA	0.0000	-SN	9000	3080	0	0	0
2019/04/28 22:54:04	BASE	21.85	7	25.62	8	2.9	100	2.9	0	0	979.1	NA	0.0000	-SN	9999	1210	0	0	0
2019/04/28 22:55:05	BASE	21.62	3	25.62	8	2.9	100	2.9	0	0	979.1	NA	0.0000	-SN	9999	0	0	0	3480
2019/04/28 22:56:05	BASE	20.24	354	24.28	10	2.9	100	2.9	0	0	979.2	NA	0.0000	-SN	9999	430	0	0	0
2019/04/28 22:57:05	BASE	19.08	355	24.28	10	2.9	100	2.9	0	0	979.2	NA	0.0000	-SN	9999	0	0	0	3540
2019/04/28 22:58:05	BASE	18.96	360	24.28	10	2.9	100	2.9	0	0	979.2	NA	0.0000	-SN	9999	0	0	0	3840
2019/04/28 22:59:07	BASE	20.17	4	24.80	10	2.9	100	2.9	0	0	979.1	NA	0.0000	-SN	9999	390	0	0	0
2019/04/28 23:00:05	BASE	20.98	7	24.80	10	2.8	100	2.8	0	0	979.1	NA	0.0000	-SN	9999	390	2890	0	0
2019/04/28 23:01:06	BASE	23.76	14	28.50	17	2.8	100	2.8	0	0	978.9	NA	0.0000	-SN	9999	430	0	0	0
2019/04/28 23:02:05	BASE	26.07	19	28.76	21	2.8	100	2.8	0	0	978.9	NA	0.0000	-SN	9999	390	1870	0	0
2019/04/28 23:03:05	BASE	26.87	20	30.35	16	2.8	100	2.8	0	0	978.8	NA	0.0000	-SN	7000	430	0	0	0
2019/04/28 23:04:05	BASE	27.99	20	31.18	16	2.9	100	2.9	0	0	978.7	NA	0.0000	-SN BR	7000	390	0	0	0
2019/04/28 23:05:06	BASE	28.04	21	31.18	16	2.9	100	2.9	0	0	978.7	NA	0.0000	-SN BR	8000	360	0	0	0
2019/04/28 23:06:06	BASE	26.83	20	31.18	16	2.9	100	2.9	0	0	978.8	NA	0.0000	-SN BR	9000	1770	0	0	0
2019/04/28 23:07:06	BASE	26.19	19	31.18	16	2.9	100	2.9	0	0	978.8	NA	0.0000	-SN BR	9000	850	1840	0	0
2019/04/28 23:08:06	BASE	26.61	20	31.18	16	2.8	100	2.8	0	0	978.8	NA	0.0000	-SN BR	9999	430	0	0	0
2019/04/28 23:09:05	BASE	26.88	20	31.18	16	2.8	100	2.8	0	0	978.8	NA	0.0000	-SN BR	9999	430	0	0	0
2019/04/28 23:10:04	BASE	26.27	21	31.18	16	2.7	100	2.7	0	0	978.9	NA	0.0000	-SN BR	9999	360	0	0	0
2019/04/28 23:11:06	BASE	24.84	20	31.18	16	2.7	100	2.7	0	0	978.9	NA	0.0000	-SN BR	9999	390	0	0	0
2019/04/28 23:12:06	BASE	23.57	17	31.18	16	2.7	100	2.7	0	0	979.0	NA	0.2540	-SN BR	9000	390	0	0	0
2019/04/28 23:13:06	BASE	22.18	16	31.18	16	2.7	100	2.7	0	0	979.1	NA	0.0000	-SN BR	9999	390	0	0	0
2019/04/28 23:14:04	BASE	22.20	17	29.32	18	2.6	100	2.6	0	0	979.0	NA	0.0000	-SN	9999	390	1710	0	0
2019/04/28 23:15:06	BASE	22.83	19	29.27	22	2.6	100	2.6	0	0	979.0	NA	0.0000	-SN	7000	390	0	0	0
2019/04/28 23:16:06	BASE	23.02	18	29.27	22	2.6	100	2.5	0	0	979.0	NA	0.0000	-SN BR	6000	430	0	0	0
2019/04/28 23:17:04	BASE	23.09	18	28.81	23	2.5	100	2.5	0	0	979.0	NA	0.0000	-SN BR	6000	390	0	0	0
2019/04/28 23:18:05	BASE	23.08	19	28.81	23	2.5	100	2.5	0	0	979.0	NA	0.0000	-SN BR	5000	390	0	0	0
2019/04/28 23:19:06	BASE	23.11	18	27.21	20	2.5	100	2.5	0	0	979.0	NA	0.0000	-SN BR	5000	390	1770	0	0
2019/04/28 23:20:05	BASE	23.95	17	27.21	19	2.5	100	2.5	0	0	978.9	NA	0.0000	-SN BR	6000	390	1840	0	0
2019/04/28 23:21:05	BASE	24.38	18	27.27	16	2.5	100	2.5	0	0	979.0	NA	0.0000	-SN BR	7000	390	1840	0	0
2019/04/28 23:22:05	BASE	24.20	17	27.27	16	2.5	100	2.5	0	0	978.9	NA	0.0000	-SN BR	6000	360	1900	0	0
2019/04/28 23:23:06	BASE	24.37	16	27.27	16	2.5	100	2.5	0	0	978.9	NA	0.2540	-SN BR	5000	390	1940	0	0
2019/04/28 23:24:04	BASE	24.13	16	28.35	11	2.4	100	2.4	0	0	978.9	NA	0.0000	-SN BR	6000	390	2000	0	0
2019/04/28 23:25:05	BASE	24.01	14	28.35	11	2.4	100	2.4	0	0	979.0	NA	0.0000	-SN BR	7000	390	0	0	0
2019/04/28 23:26:05	BASE	22.84	13	28.35	11	2.4	100	2.4	0	0	979.0	NA	0.0000	-SN BR	6000	390	2030	0	0
2019/04/28 23:27:04	BASE	21.87	13	28.35	11	2.4	100	2.4	0	0	979.0	NA	0.0000	-SN BR	9000	660	0	0	0
2019/04/28 23:28:04	BASE	21.29	13	28.35	11	2.4	100	2.4	0	0	979.0	NA	0.0000	-SN BR	6000	820	1940	0	0
2019/04/28 23:29:06	BASE	21.20	13	28.35	11	2.4	100	2.4	0	0	979.0	NA	0.0000	-SN BR	5000	390	2000	0	0
2019/04/28 23:30:05	BASE	21.57	10	28.35	11	2.4	100	2.4	0	0	979.1	NA	0.0000	-SN BR	4900	390	0	0	0
2019/04/28 23:31:04	BASE	20.79	10	28.35	11	2.4	100	2.4	0	0	979.1	NA	0.0000	-SN BR	7000	390	0	0	0
2019/04/28 23:32:01	BASE	21.91	11	28.35	11	2.4	100	2.4	0	0	979.0	NA	0.0000	-SN BR	7000	390	2000	0	0
2019/04/28 23:33:05	BASE	22.92	11	28.35	11	2.4	100	2.4	0	0	979.0	NA	0.0000	-SN BR	6000	790	0	0	0
2019/04/28 23:34:04	BASE	22.15	12	26.49	18	2.4	100	2.4	0	0	979.1	NA	0.0000	-SN BR	7000	390	0	0	0
2019/04/28 23:35:04	BASE	22.38	12	26.39	18	2.4	100	2.4	0	0	979.1	NA	0.0000	-SN BR	6000	390	1940	0	0
2019/04/28 23:36:05	BASE	22.58	11	26.39	18	2.4	100	2.4	0	0	979.0	NA	0.2540	-SN BR	5000	390	1870	0	0
2019/04/28 23:37:05	BASE	22.18	10	26.39	18	2.4	100	2.4	0	0	979.1	NA	0.0000	-SN BR	6000	390	0	0	0
2019/04/28 23:38:05	BASE	21.79	9	26.39	18	2.4	100	2.4	0	0	979.1	NA	0.0000	-SN BR	9000	660	0	0	0
2019/04/28 23:39:05	BASE	21.60	6	26.39	18	2.4	100	2.4	0	0	979.1	NA	0.0000	-SN BR	9999	720	0	0	0
2019/04/28 23:40:04	BASE	20.52	2	26.39	18	2.4	100	2.4	0	0	979.2	NA	0.0000	-SN BR	9999	790	0	0	0
2019/04/28 23:41:05	BASE	20.74	4	26.39	18	2.4	100	2.4	0	0	979.2	NA	0.0000	-SN BR	9999	0	0	0	3250
2019/04/28 23:42:05	BASE	21.94	8	26.03	10	2.4	100	2.4	0	0	979.1	NA	0.0000	-SN BR	9000	690	0	0	0
2019/04/28 23:43:06	BASE	21.47	7	26.03	10	2.4	100	2.4	0	0	979.1	NA	0.0000	-SN BR	9999	660	0	0	0
2019/04/28 23:44:05	BASE	20.65	8	26.03	10	2.4	100	2.4	0	0	979.2	NA	0.0000	-SN BR	9999	430	0	0	0
2019/04/28 23:45:05	BASE	21.16	7	26.03	10	2.4	100	2.4	0	0	979.1	NA	0.0000	-SN BR	9999	390	0	0	0
2019/04/28 23:46:05	BASE	21.11	5	26.03	10	2.4	100	2.4	0	0	979.1	NA	0.2540	-SN BR	6000	690	0	0	0
2019/04/28 23:47:06	BASE	21.02	1	26.03	10	2.4	100	2.4	0	0	979.1	NA	0.0000	-SN BR	8000	720	0	0	0
2019/04/28 23:48:05	BASE	20.60	358	26.03	10	2.4	100	2.4	0	0	979.2	NA	0.0000	-SN	9999	750	0	0	0
2019/04/28 23:49:05	BASE	18.82	357	26.03	10	2.4	100	2.4	0	0	979.3	NA	0.0000	-SN	9999	520	0	0	0
2019/04/28 23:50:05	BASE	18.59	356	26.03	10	2.4	100	2.4	0	0	979.3	NA	0.0000	-SN BR	9000	620	0	0	0
2019/04/28 23:51:04	BASE	18.22	352	25.00	9	2.3	100	2.3	0	0	979.3	NA	0.0000	-SN BR	6000	460	0	0	0
2019/04/28 23:52:02	BASE	18.67	349	24.90	2	2.3	100	2.3	0	0	979.2	NA	0.0000	-SN BR	6000	430	0	0	0
2019/04/28 23:53:05	BASE	19.73	354	24.90	2	2.3	100	2.3	0	0	979.2	NA	0.0000	-SN BR	4000	430	0	0	0
2019/04/28 23:54:05	BASE	18.68	358	24.90	2	2.3	100	2.3	0	0	979.2	NA	0.0000	-SN BR	3800	390	0	0	0
2019/04/28 23:55:04	BASE	18.52	353	24.28	360	2.3	100	2.3	0	0	979.2	NA	0.0000	-SN BR	3800	390	0	0	0
2019/04/28 23:56:04	BASE	18.22	355	24.28	360	2.2	100	2.2	0	0	979.2	NA	0.2540	-SN BR	5000	430	0	0	0
2019/04/28 23:57:05	BASE	19.44	5	24.28	10	2.2	100	2.2	0	0	979.1	NA	0.0000	-SN BR	6000	390	0	0	0
2019/04/28 23:58:05	BASE	22.40	7	26.24	6	2.2	100	2.2	0	0	979.0	NA	0.0000	-SN BR	5000	390	0	0	0
2019/04/28 23:59:06	BASE	23.11	7	26.24	6	2.2	100	2.2	0	0	979.0	NA	0.0000	-SN BR	4800	1020	0	0	0